PWSweather.com
Personal Weather Stations
Station Observations
KCOFALCO8
Falcon Hills, Falcon, CO 80831

Falcon HillsFalcon, CO 80831

Lat: 38.979792, Lon: -104.61195

Elevation: 7170

Station Type: AcuRite Pro 5-in-1

http://wx.frazierhome.net/

High Low Average
Temperature 52.5°F11.4°C 24.1°F-4.4°C 38.4°F3.6°C
Dew Point 16.4°F-8.7°C 6.8°F-14.0°C 12.2°F-11.0°C
Winds 11.0 mph 17.7 kmh Calm Calm 4.0 mph S6.4 kmh S
Wind Gusts -- -- --
Humidity 56% 20% 36%
Pressure 30.04 in1017.3 mb 29.98 in1015.2 mb -
Precipitation 0.00 in0.0 mm - -
Hour Temp Dew Point Humidity Winds Wind Gusts Pressure Precip Precip Rate Daily Precip Total
12:00 AM 25.4°F-3.7°C 9.1°F-12.7°C 50% Calm Calm -- 30.01 in1016.3 mb 0.00 in0.0 mm 0.00 in0.0 mm 0.00 in0.0 mm
12:01 AM 25.4°F-3.7°C 9.1°F-12.7°C 50% Calm Calm -- 30.00 in1015.9 mb 0.00 in0.0 mm 0.00 in0.0 mm 0.00 in0.0 mm
12:02 AM 25.4°F-3.7°C 9.1°F-12.7°C 50% Calm Calm -- 30.01 in1016.3 mb 0.00 in0.0 mm 0.00 in0.0 mm 0.00 in0.0 mm
12:03 AM 25.4°F-3.7°C 9.1°F-12.7°C 50% Calm Calm -- 30.01 in1016.3 mb 0.00 in0.0 mm 0.00 in0.0 mm 0.00 in0.0 mm
12:04 AM 25.9°F-3.4°C 9.6°F-12.4°C 50% Calm Calm -- 30.01 in1016.3 mb 0.00 in0.0 mm 0.00 in0.0 mm 0.00 in0.0 mm
12:05 AM 26.1°F-3.3°C 9.8°F-12.3°C 50% Calm Calm -- 30.01 in1016.3 mb 0.00 in0.0 mm 0.00 in0.0 mm 0.00 in0.0 mm
12:06 AM 26.2°F-3.2°C 9.9°F-12.3°C 50% Calm Calm -- 30.01 in1016.3 mb 0.00 in0.0 mm 0.00 in0.0 mm 0.00 in0.0 mm
12:07 AM 26.3°F-3.2°C 9.9°F-12.3°C 50% Calm Calm -- 30.01 in1016.3 mb 0.00 in0.0 mm 0.00 in0.0 mm 0.00 in0.0 mm
12:08 AM 26.3°F-3.2°C 9.9°F-12.3°C 50% Calm Calm -- 30.01 in1016.3 mb 0.00 in0.0 mm 0.00 in0.0 mm 0.00 in0.0 mm
12:09 AM 26.7°F-2.9°C 10.0°F-12.2°C 49% 2.0 mph SSW3.2 kmh SSW -- 30.01 in1016.3 mb 0.00 in0.0 mm 0.00 in0.0 mm 0.00 in0.0 mm
12:10 AM 27.1°F-2.7°C 10.3°F-12.1°C 49% 1.0 mph SSW1.6 kmh SSW -- 30.01 in1016.3 mb 0.00 in0.0 mm 0.00 in0.0 mm 0.00 in0.0 mm
12:11 AM 27.1°F-2.7°C 9.9°F-12.3°C 48% 2.0 mph S3.2 kmh S -- 30.01 in1016.3 mb 0.00 in0.0 mm 0.00 in0.0 mm 0.00 in0.0 mm
12:12 AM 27.1°F-2.7°C 9.9°F-12.3°C 48% 1.0 mph SW1.6 kmh SW -- 30.01 in1016.3 mb 0.00 in0.0 mm 0.00 in0.0 mm 0.00 in0.0 mm
12:13 AM 26.6°F-3.0°C 9.8°F-12.3°C 49% 2.0 mph SSE3.2 kmh SSE -- 30.01 in1016.3 mb 0.00 in0.0 mm 0.00 in0.0 mm 0.00 in0.0 mm
12:14 AM 26.3°F-3.2°C 9.5°F-12.5°C 49% 1.0 mph SW1.6 kmh SW -- 30.01 in1016.3 mb 0.00 in0.0 mm 0.00 in0.0 mm 0.00 in0.0 mm
12:15 AM 26.1°F-3.3°C 9.3°F-12.6°C 49% 2.0 mph SW3.2 kmh SW -- 30.00 in1015.9 mb 0.00 in0.0 mm 0.00 in0.0 mm 0.00 in0.0 mm
12:16 AM 25.9°F-3.4°C 9.6°F-12.4°C 50% 1.0 mph SSW1.6 kmh SSW -- 30.01 in1016.3 mb 0.00 in0.0 mm 0.00 in0.0 mm 0.00 in0.0 mm
12:17 AM 25.9°F-3.4°C 9.6°F-12.4°C 50% Calm Calm -- 30.01 in1016.3 mb 0.00 in0.0 mm 0.00 in0.0 mm 0.00 in0.0 mm
12:18 AM 25.9°F-3.4°C 9.6°F-12.4°C 50% Calm Calm -- 30.01 in1016.3 mb 0.00 in0.0 mm 0.00 in0.0 mm 0.00 in0.0 mm
12:19 AM 25.7°F-3.5°C 9.4°F-12.6°C 50% Calm Calm -- 30.01 in1016.3 mb 0.00 in0.0 mm 0.00 in0.0 mm 0.00 in0.0 mm
12:20 AM 25.4°F-3.7°C 9.1°F-12.7°C 50% Calm Calm -- 30.01 in1016.3 mb 0.00 in0.0 mm 0.00 in0.0 mm 0.00 in0.0 mm
12:21 AM 25.4°F-3.7°C 9.1°F-12.7°C 50% Calm Calm -- 30.01 in1016.3 mb 0.00 in0.0 mm 0.00 in0.0 mm 0.00 in0.0 mm
12:22 AM 25.4°F-3.7°C 9.1°F-12.7°C 50% Calm Calm -- 30.01 in1016.3 mb 0.00 in0.0 mm 0.00 in0.0 mm 0.00 in0.0 mm
12:23 AM 25.2°F-3.8°C 8.9°F-12.8°C 50% Calm Calm -- 30.01 in1016.3 mb 0.00 in0.0 mm 0.00 in0.0 mm 0.00 in0.0 mm
12:24 AM 25.4°F-3.7°C 9.1°F-12.7°C 50% Calm Calm -- 30.01 in1016.3 mb 0.00 in0.0 mm 0.00 in0.0 mm 0.00 in0.0 mm
12:25 AM 25.7°F-3.5°C 9.4°F-12.6°C 50% Calm Calm -- 30.01 in1016.3 mb 0.00 in0.0 mm 0.00 in0.0 mm 0.00 in0.0 mm
12:27 AM 25.4°F-3.7°C 9.1°F-12.7°C 50% Calm Calm -- 30.01 in1016.3 mb 0.00 in0.0 mm 0.00 in0.0 mm 0.00 in0.0 mm
12:28 AM 25.4°F-3.7°C 9.1°F-12.7°C 50% 2.0 mph SW3.2 kmh SW -- 30.01 in1016.3 mb 0.00 in0.0 mm 0.00 in0.0 mm 0.00 in0.0 mm
12:29 AM 25.2°F-3.8°C 8.9°F-12.8°C 50% 3.0 mph WSW4.8 kmh WSW -- 30.01 in1016.3 mb 0.00 in0.0 mm 0.00 in0.0 mm 0.00 in0.0 mm
12:31 AM 25.4°F-3.7°C 9.1°F-12.7°C 50% 3.0 mph SW4.8 kmh SW -- 30.01 in1016.3 mb 0.00 in0.0 mm 0.00 in0.0 mm 0.00 in0.0 mm
12:32 AM 25.7°F-3.5°C 9.4°F-12.6°C 50% 4.0 mph WSW6.4 kmh WSW -- 30.01 in1016.3 mb 0.00 in0.0 mm 0.00 in0.0 mm 0.00 in0.0 mm
12:33 AM 25.9°F-3.4°C 9.6°F-12.4°C 50% 3.0 mph WSW4.8 kmh WSW -- 30.00 in1015.9 mb 0.00 in0.0 mm 0.00 in0.0 mm 0.00 in0.0 mm
12:34 AM 25.9°F-3.4°C 9.6°F-12.4°C 50% 2.0 mph WSW3.2 kmh WSW -- 30.01 in1016.3 mb 0.00 in0.0 mm 0.00 in0.0 mm 0.00 in0.0 mm
12:35 AM 25.9°F-3.4°C 9.6°F-12.4°C 50% 2.0 mph SSW3.2 kmh SSW -- 30.00 in1015.9 mb 0.00 in0.0 mm 0.00 in0.0 mm 0.00 in0.0 mm
12:36 AM 25.9°F-3.4°C 9.6°F-12.4°C 50% 1.0 mph SW1.6 kmh SW -- 30.01 in1016.3 mb 0.00 in0.0 mm 0.00 in0.0 mm 0.00 in0.0 mm
12:37 AM 25.9°F-3.4°C 9.6°F-12.4°C 50% 1.0 mph SSW1.6 kmh SSW -- 30.00 in1015.9 mb 0.00 in0.0 mm 0.00 in0.0 mm 0.00 in0.0 mm
12:38 AM 25.9°F-3.4°C 9.6°F-12.4°C 50% 2.0 mph SW3.2 kmh SW -- 30.01 in1016.3 mb 0.00 in0.0 mm 0.00 in0.0 mm 0.00 in0.0 mm
12:40 AM 25.9°F-3.4°C 9.6°F-12.4°C 50% 1.0 mph SSW1.6 kmh SSW -- 30.01 in1016.3 mb 0.00 in0.0 mm 0.00 in0.0 mm 0.00 in0.0 mm
12:41 AM 25.9°F-3.4°C 9.6°F-12.4°C 50% 2.0 mph WSW3.2 kmh WSW -- 30.01 in1016.3 mb 0.00 in0.0 mm 0.00 in0.0 mm 0.00 in0.0 mm
12:42 AM 25.9°F-3.4°C 9.6°F-12.4°C 50% 2.0 mph SW3.2 kmh SW -- 30.01 in1016.3 mb 0.00 in0.0 mm 0.00 in0.0 mm 0.00 in0.0 mm
12:43 AM 25.9°F-3.4°C 9.6°F-12.4°C 50% 2.0 mph WSW3.2 kmh WSW -- 30.01 in1016.3 mb 0.00 in0.0 mm 0.00 in0.0 mm 0.00 in0.0 mm
12:44 AM 25.9°F-3.4°C 9.6°F-12.4°C 50% Calm Calm -- 30.01 in1016.3 mb 0.00 in0.0 mm 0.00 in0.0 mm 0.00 in0.0 mm
12:45 AM 25.9°F-3.4°C 9.6°F-12.4°C 50% 1.0 mph WSW1.6 kmh WSW -- 30.01 in1016.3 mb 0.00 in0.0 mm 0.00 in0.0 mm 0.00 in0.0 mm
12:46 AM 25.9°F-3.4°C 9.6°F-12.4°C 50% 2.0 mph WSW3.2 kmh WSW -- 30.01 in1016.3 mb 0.00 in0.0 mm 0.00 in0.0 mm 0.00 in0.0 mm
12:47 AM 25.7°F-3.5°C 9.4°F-12.6°C 50% 1.0 mph SW1.6 kmh SW -- 30.01 in1016.3 mb 0.00 in0.0 mm 0.00 in0.0 mm 0.00 in0.0 mm
12:48 AM 25.7°F-3.5°C 9.4°F-12.6°C 50% 1.0 mph W1.6 kmh W -- 30.01 in1016.3 mb 0.00 in0.0 mm 0.00 in0.0 mm 0.00 in0.0 mm
12:50 AM 25.7°F-3.5°C 9.4°F-12.6°C 50% 2.0 mph W3.2 kmh W -- 30.01 in1016.3 mb 0.00 in0.0 mm 0.00 in0.0 mm 0.00 in0.0 mm
12:51 AM 25.4°F-3.7°C 9.1°F-12.7°C 50% 2.0 mph W3.2 kmh W -- 30.01 in1016.3 mb 0.00 in0.0 mm 0.00 in0.0 mm 0.00 in0.0 mm
12:52 AM 25.4°F-3.7°C 9.1°F-12.7°C 50% 2.0 mph WSW3.2 kmh WSW -- 30.01 in1016.3 mb 0.00 in0.0 mm 0.00 in0.0 mm 0.00 in0.0 mm
12:53 AM 25.4°F-3.7°C 9.1°F-12.7°C 50% 2.0 mph WSW3.2 kmh WSW -- 30.00 in1015.9 mb 0.00 in0.0 mm 0.00 in0.0 mm 0.00 in0.0 mm
12:54 AM 25.4°F-3.7°C 9.1°F-12.7°C 50% 3.0 mph WSW4.8 kmh WSW -- 30.01 in1016.3 mb 0.00 in0.0 mm 0.00 in0.0 mm 0.00 in0.0 mm
12:55 AM 25.4°F-3.7°C 9.1°F-12.7°C 50% 2.0 mph WSW3.2 kmh WSW -- 30.01 in1016.3 mb 0.00 in0.0 mm 0.00 in0.0 mm 0.00 in0.0 mm
12:57 AM 25.4°F-3.7°C 9.1°F-12.7°C 50% 3.0 mph SW4.8 kmh SW -- 30.01 in1016.3 mb 0.00 in0.0 mm 0.00 in0.0 mm 0.00 in0.0 mm
12:58 AM 25.4°F-3.7°C 9.1°F-12.7°C 50% 2.0 mph SW3.2 kmh SW -- 30.01 in1016.3 mb 0.00 in0.0 mm 0.00 in0.0 mm 0.00 in0.0 mm
12:59 AM 25.4°F-3.7°C 9.1°F-12.7°C 50% 2.0 mph W3.2 kmh W -- 30.00 in1015.9 mb 0.00 in0.0 mm 0.00 in0.0 mm 0.00 in0.0 mm
01:00 AM 25.4°F-3.7°C 9.1°F-12.7°C 50% 2.0 mph W3.2 kmh W -- 30.01 in1016.3 mb 0.00 in0.0 mm 0.00 in0.0 mm 0.00 in0.0 mm
01:01 AM 25.4°F-3.7°C 9.1°F-12.7°C 50% 2.0 mph SW3.2 kmh SW -- 30.00 in1015.9 mb 0.00 in0.0 mm 0.00 in0.0 mm 0.00 in0.0 mm
01:02 AM 25.4°F-3.7°C 9.1°F-12.7°C 50% 2.0 mph SW3.2 kmh SW -- 30.01 in1016.3 mb 0.00 in0.0 mm 0.00 in0.0 mm 0.00 in0.0 mm
01:03 AM 25.4°F-3.7°C 9.1°F-12.7°C 50% 2.0 mph WSW3.2 kmh WSW -- 30.00 in1015.9 mb 0.00 in0.0 mm 0.00 in0.0 mm 0.00 in0.0 mm
01:04 AM 25.2°F-3.8°C 8.9°F-12.8°C 50% 2.0 mph WSW3.2 kmh WSW -- 30.01 in1016.3 mb 0.00 in0.0 mm 0.00 in0.0 mm 0.00 in0.0 mm
01:05 AM 25.2°F-3.8°C 8.9°F-12.8°C 50% 1.0 mph W1.6 kmh W -- 30.00 in1015.9 mb 0.00 in0.0 mm 0.00 in0.0 mm 0.00 in0.0 mm
01:06 AM 25.2°F-3.8°C 8.9°F-12.8°C 50% 2.0 mph W3.2 kmh W -- 30.00 in1015.9 mb 0.00 in0.0 mm 0.00 in0.0 mm 0.00 in0.0 mm
01:07 AM 25.2°F-3.8°C 8.9°F-12.8°C 50% 2.0 mph WSW3.2 kmh WSW -- 30.00 in1015.9 mb 0.00 in0.0 mm 0.00 in0.0 mm 0.00 in0.0 mm
01:08 AM 25.2°F-3.8°C 8.9°F-12.8°C 50% 2.0 mph WSW3.2 kmh WSW -- 30.01 in1016.3 mb 0.00 in0.0 mm 0.00 in0.0 mm 0.00 in0.0 mm
01:09 AM 25.2°F-3.8°C 8.9°F-12.8°C 50% 2.0 mph W3.2 kmh W -- 30.00 in1015.9 mb 0.00 in0.0 mm 0.00 in0.0 mm 0.00 in0.0 mm
01:10 AM 25.2°F-3.8°C 8.9°F-12.8°C 50% 2.0 mph W3.2 kmh W -- 30.01 in1016.3 mb 0.00 in0.0 mm 0.00 in0.0 mm 0.00 in0.0 mm
01:11 AM 25.2°F-3.8°C 8.9°F-12.8°C 50% 2.0 mph WSW3.2 kmh WSW -- 30.01 in1016.3 mb 0.00 in0.0 mm 0.00 in0.0 mm 0.00 in0.0 mm
01:12 AM 25.2°F-3.8°C 8.9°F-12.8°C 50% 2.0 mph W3.2 kmh W -- 30.01 in1016.3 mb 0.00 in0.0 mm 0.00 in0.0 mm 0.00 in0.0 mm
01:13 AM 25.2°F-3.8°C 8.9°F-12.8°C 50% 3.0 mph W4.8 kmh W -- 30.00 in1015.9 mb 0.00 in0.0 mm 0.00 in0.0 mm 0.00 in0.0 mm
01:14 AM 25.4°F-3.7°C 9.1°F-12.7°C 50% 3.0 mph W4.8 kmh W -- 30.00 in1015.9 mb 0.00 in0.0 mm 0.00 in0.0 mm 0.00 in0.0 mm
01:16 AM 25.7°F-3.5°C 9.4°F-12.6°C 50% 3.0 mph W4.8 kmh W -- 30.01 in1016.3 mb 0.00 in0.0 mm 0.00 in0.0 mm 0.00 in0.0 mm
01:17 AM 25.7°F-3.5°C 9.4°F-12.6°C 50% 3.0 mph W4.8 kmh W -- 30.00 in1015.9 mb 0.00 in0.0 mm 0.00 in0.0 mm 0.00 in0.0 mm
01:18 AM 25.7°F-3.5°C 9.4°F-12.6°C 50% 2.0 mph WSW3.2 kmh WSW -- 30.00 in1015.9 mb 0.00 in0.0 mm 0.00 in0.0 mm 0.00 in0.0 mm
01:19 AM 25.9°F-3.4°C 9.6°F-12.4°C 50% 3.0 mph W4.8 kmh W -- 30.00 in1015.9 mb 0.00 in0.0 mm 0.00 in0.0 mm 0.00 in0.0 mm
01:20 AM 25.9°F-3.4°C 9.6°F-12.4°C 50% 3.0 mph W4.8 kmh W -- 30.01 in1016.3 mb 0.00 in0.0 mm 0.00 in0.0 mm 0.00 in0.0 mm
01:21 AM 26.1°F-3.3°C 9.8°F-12.3°C 50% 2.0 mph W3.2 kmh W -- 30.00 in1015.9 mb 0.00 in0.0 mm 0.00 in0.0 mm 0.00 in0.0 mm
01:22 AM 26.1°F-3.3°C 9.8°F-12.3°C 50% 3.0 mph WSW4.8 kmh WSW -- 30.01 in1016.3 mb 0.00 in0.0 mm 0.00 in0.0 mm 0.00 in0.0 mm
01:23 AM 26.1°F-3.3°C 9.8°F-12.3°C 50% 3.0 mph W4.8 kmh W -- 30.01 in1016.3 mb 0.00 in0.0 mm 0.00 in0.0 mm 0.00 in0.0 mm
01:25 AM 26.1°F-3.3°C 9.8°F-12.3°C 50% 2.0 mph W3.2 kmh W -- 30.00 in1015.9 mb 0.00 in0.0 mm 0.00 in0.0 mm 0.00 in0.0 mm
01:27 AM 26.1°F-3.3°C 9.8°F-12.3°C 50% 2.0 mph W3.2 kmh W -- 30.01 in1016.3 mb 0.00 in0.0 mm 0.00 in0.0 mm 0.00 in0.0 mm
01:28 AM 25.9°F-3.4°C 9.6°F-12.4°C 50% 3.0 mph W4.8 kmh W -- 30.00 in1015.9 mb 0.00 in0.0 mm 0.00 in0.0 mm 0.00 in0.0 mm
01:29 AM 25.9°F-3.4°C 9.6°F-12.4°C 50% 2.0 mph W3.2 kmh W -- 30.00 in1015.9 mb 0.00 in0.0 mm 0.00 in0.0 mm 0.00 in0.0 mm
01:30 AM 25.4°F-3.7°C 9.1°F-12.7°C 50% 2.0 mph W3.2 kmh W -- 30.01 in1016.3 mb 0.00 in0.0 mm 0.00 in0.0 mm 0.00 in0.0 mm
01:32 AM 25.4°F-3.7°C 9.1°F-12.7°C 50% 3.0 mph W4.8 kmh W -- 30.00 in1015.9 mb 0.00 in0.0 mm 0.00 in0.0 mm 0.00 in0.0 mm
01:34 AM 25.4°F-3.7°C 9.1°F-12.7°C 50% 3.0 mph WSW4.8 kmh WSW -- 30.00 in1015.9 mb 0.00 in0.0 mm 0.00 in0.0 mm 0.00 in0.0 mm
01:36 AM 25.4°F-3.7°C 9.1°F-12.7°C 50% 2.0 mph W3.2 kmh W -- 30.01 in1016.3 mb 0.00 in0.0 mm 0.00 in0.0 mm 0.00 in0.0 mm
01:37 AM 25.4°F-3.7°C 9.1°F-12.7°C 50% 2.0 mph WSW3.2 kmh WSW -- 30.00 in1015.9 mb 0.00 in0.0 mm 0.00 in0.0 mm 0.00 in0.0 mm
01:38 AM 25.4°F-3.7°C 9.1°F-12.7°C 50% 1.0 mph WSW1.6 kmh WSW -- 30.00 in1015.9 mb 0.00 in0.0 mm 0.00 in0.0 mm 0.00 in0.0 mm
01:39 AM 25.2°F-3.8°C 8.9°F-12.8°C 50% Calm Calm -- 30.00 in1015.9 mb 0.00 in0.0 mm 0.00 in0.0 mm 0.00 in0.0 mm
01:40 AM 25.2°F-3.8°C 8.9°F-12.8°C 50% Calm Calm -- 30.00 in1015.9 mb 0.00 in0.0 mm 0.00 in0.0 mm 0.00 in0.0 mm
01:41 AM 25.2°F-3.8°C 8.9°F-12.8°C 50% Calm Calm -- 30.00 in1015.9 mb 0.00 in0.0 mm 0.00 in0.0 mm 0.00 in0.0 mm
01:42 AM 25.2°F-3.8°C 8.9°F-12.8°C 50% 2.0 mph SW3.2 kmh SW -- 30.01 in1016.3 mb 0.00 in0.0 mm 0.00 in0.0 mm 0.00 in0.0 mm
01:43 AM 25.2°F-3.8°C 8.9°F-12.8°C 50% 1.0 mph W1.6 kmh W -- 30.01 in1016.3 mb 0.00 in0.0 mm 0.00 in0.0 mm 0.00 in0.0 mm
01:44 AM 25.2°F-3.8°C 8.9°F-12.8°C 50% 2.0 mph WSW3.2 kmh WSW -- 30.00 in1015.9 mb 0.00 in0.0 mm 0.00 in0.0 mm 0.00 in0.0 mm
01:45 AM 25.2°F-3.8°C 8.9°F-12.8°C 50% 2.0 mph W3.2 kmh W -- 30.00 in1015.9 mb 0.00 in0.0 mm 0.00 in0.0 mm 0.00 in0.0 mm
01:46 AM 25.2°F-3.8°C 8.9°F-12.8°C 50% 2.0 mph WSW3.2 kmh WSW -- 30.00 in1015.9 mb 0.00 in0.0 mm 0.00 in0.0 mm 0.00 in0.0 mm
01:47 AM 25.2°F-3.8°C 8.9°F-12.8°C 50% 1.0 mph WSW1.6 kmh WSW -- 30.00 in1015.9 mb 0.00 in0.0 mm 0.00 in0.0 mm 0.00 in0.0 mm
01:48 AM 25.2°F-3.8°C 8.9°F-12.8°C 50% 1.0 mph WSW1.6 kmh WSW -- 30.01 in1016.3 mb 0.00 in0.0 mm 0.00 in0.0 mm 0.00 in0.0 mm
01:49 AM 25.2°F-3.8°C 8.9°F-12.8°C 50% Calm Calm -- 30.01 in1016.3 mb 0.00 in0.0 mm 0.00 in0.0 mm 0.00 in0.0 mm
01:55 AM 25.2°F-3.8°C 8.9°F-12.8°C 50% Calm Calm -- 30.00 in1015.9 mb 0.00 in0.0 mm 0.00 in0.0 mm 0.00 in0.0 mm
01:58 AM 25.4°F-3.7°C 8.7°F-12.9°C 49% Calm Calm -- 30.00 in1015.9 mb 0.00 in0.0 mm 0.00 in0.0 mm 0.00 in0.0 mm
01:59 AM 25.7°F-3.5°C 9.0°F-12.8°C 49% Calm Calm -- 30.00 in1015.9 mb 0.00 in0.0 mm 0.00 in0.0 mm 0.00 in0.0 mm
02:03 AM 25.4°F-3.7°C 8.7°F-12.9°C 49% Calm Calm -- 30.01 in1016.3 mb 0.00 in0.0 mm 0.00 in0.0 mm 0.00 in0.0 mm
02:04 AM 25.4°F-3.7°C 8.7°F-12.9°C 49% Calm Calm -- 30.00 in1015.9 mb 0.00 in0.0 mm 0.00 in0.0 mm 0.00 in0.0 mm
02:05 AM 25.4°F-3.7°C 8.7°F-12.9°C 49% Calm Calm -- 30.01 in1016.3 mb 0.00 in0.0 mm 0.00 in0.0 mm 0.00 in0.0 mm
02:06 AM 25.2°F-3.8°C 8.5°F-13.1°C 49% Calm Calm -- 30.00 in1015.9 mb 0.00 in0.0 mm 0.00 in0.0 mm 0.00 in0.0 mm
02:08 AM 25.1°F-3.8°C 8.5°F-13.1°C 49% Calm Calm -- 30.00 in1015.9 mb 0.00 in0.0 mm 0.00 in0.0 mm 0.00 in0.0 mm
02:11 AM 25.0°F-3.9°C 8.8°F-12.9°C 50% Calm Calm -- 30.00 in1015.9 mb 0.00 in0.0 mm 0.00 in0.0 mm 0.00 in0.0 mm
02:12 AM 24.8°F-4.0°C 8.6°F-13.0°C 50% Calm Calm -- 30.00 in1015.9 mb 0.00 in0.0 mm 0.00 in0.0 mm 0.00 in0.0 mm
02:14 AM 24.8°F-4.0°C 8.6°F-13.0°C 50% Calm Calm -- 30.01 in1016.3 mb 0.00 in0.0 mm 0.00 in0.0 mm 0.00 in0.0 mm
02:15 AM 24.6°F-4.1°C 8.4°F-13.1°C 50% Calm Calm -- 30.01 in1016.3 mb 0.00 in0.0 mm 0.00 in0.0 mm 0.00 in0.0 mm
02:16 AM 24.6°F-4.1°C 8.0°F-13.3°C 49% Calm Calm -- 30.00 in1015.9 mb 0.00 in0.0 mm 0.00 in0.0 mm 0.00 in0.0 mm
02:17 AM 24.6°F-4.1°C 8.0°F-13.3°C 49% Calm Calm -- 30.00 in1015.9 mb 0.00 in0.0 mm 0.00 in0.0 mm 0.00 in0.0 mm
02:19 AM 24.6°F-4.1°C 8.0°F-13.3°C 49% Calm Calm -- 30.00 in1015.9 mb 0.00 in0.0 mm 0.00 in0.0 mm 0.00 in0.0 mm
02:20 AM 24.8°F-4.0°C 8.2°F-13.2°C 49% Calm Calm -- 30.00 in1015.9 mb 0.00 in0.0 mm 0.00 in0.0 mm 0.00 in0.0 mm
02:21 AM 24.8°F-4.0°C 8.6°F-13.0°C 50% Calm Calm -- 30.00 in1015.9 mb 0.00 in0.0 mm 0.00 in0.0 mm 0.00 in0.0 mm
02:22 AM 24.8°F-4.0°C 8.6°F-13.0°C 50% 2.0 mph WSW3.2 kmh WSW -- 30.00 in1015.9 mb 0.00 in0.0 mm 0.00 in0.0 mm 0.00 in0.0 mm
02:24 AM 24.8°F-4.0°C 8.6°F-13.0°C 50% 2.0 mph W3.2 kmh W -- 30.00 in1015.9 mb 0.00 in0.0 mm 0.00 in0.0 mm 0.00 in0.0 mm
02:25 AM 24.6°F-4.1°C 8.4°F-13.1°C 50% 2.0 mph W3.2 kmh W -- 30.00 in1015.9 mb 0.00 in0.0 mm 0.00 in0.0 mm 0.00 in0.0 mm
02:26 AM 24.6°F-4.1°C 8.4°F-13.1°C 50% 3.0 mph WSW4.8 kmh WSW -- 30.00 in1015.9 mb 0.00 in0.0 mm 0.00 in0.0 mm 0.00 in0.0 mm
02:27 AM 24.6°F-4.1°C 8.4°F-13.1°C 50% 2.0 mph WSW3.2 kmh WSW -- 30.00 in1015.9 mb 0.00 in0.0 mm 0.00 in0.0 mm 0.00 in0.0 mm
02:28 AM 24.6°F-4.1°C 8.4°F-13.1°C 50% 3.0 mph W4.8 kmh W -- 30.00 in1015.9 mb 0.00 in0.0 mm 0.00 in0.0 mm 0.00 in0.0 mm
02:29 AM 24.8°F-4.0°C 8.6°F-13.0°C 50% 3.0 mph W4.8 kmh W -- 30.00 in1015.9 mb 0.00 in0.0 mm 0.00 in0.0 mm 0.00 in0.0 mm
02:31 AM 24.8°F-4.0°C 8.6°F-13.0°C 50% 2.0 mph W3.2 kmh W -- 30.00 in1015.9 mb 0.00 in0.0 mm 0.00 in0.0 mm 0.00 in0.0 mm
02:33 AM 25.0°F-3.9°C 8.8°F-12.9°C 50% 2.0 mph W3.2 kmh W -- 30.00 in1015.9 mb 0.00 in0.0 mm 0.00 in0.0 mm 0.00 in0.0 mm
02:34 AM 25.0°F-3.9°C 8.8°F-12.9°C 50% 3.0 mph W4.8 kmh W -- 30.00 in1015.9 mb 0.00 in0.0 mm 0.00 in0.0 mm 0.00 in0.0 mm
02:36 AM 24.8°F-4.0°C 8.6°F-13.0°C 50% 4.0 mph W6.4 kmh W -- 30.00 in1015.9 mb 0.00 in0.0 mm 0.00 in0.0 mm 0.00 in0.0 mm
02:37 AM 24.8°F-4.0°C 8.6°F-13.0°C 50% 3.0 mph W4.8 kmh W -- 30.00 in1015.9 mb 0.00 in0.0 mm 0.00 in0.0 mm 0.00 in0.0 mm
02:38 AM 24.6°F-4.1°C 8.4°F-13.1°C 50% 3.0 mph WNW4.8 kmh WNW -- 30.00 in1015.9 mb 0.00 in0.0 mm 0.00 in0.0 mm 0.00 in0.0 mm
02:39 AM 24.4°F-4.2°C 8.3°F-13.2°C 50% 2.0 mph W3.2 kmh W -- 30.00 in1015.9 mb 0.00 in0.0 mm 0.00 in0.0 mm 0.00 in0.0 mm
02:40 AM 24.2°F-4.3°C 8.1°F-13.3°C 50% 2.0 mph W3.2 kmh W -- 30.00 in1015.9 mb 0.00 in0.0 mm 0.00 in0.0 mm 0.00 in0.0 mm
02:41 AM 24.1°F-4.4°C 7.9°F-13.4°C 50% 3.0 mph W4.8 kmh W -- 30.00 in1015.9 mb 0.00 in0.0 mm 0.00 in0.0 mm 0.00 in0.0 mm
02:44 AM 24.1°F-4.4°C 7.9°F-13.4°C 50% 4.0 mph WNW6.4 kmh WNW -- 30.01 in1016.3 mb 0.00 in0.0 mm 0.00 in0.0 mm 0.00 in0.0 mm
02:45 AM 24.1°F-4.4°C 7.9°F-13.4°C 50% 3.0 mph W4.8 kmh W -- 30.01 in1016.3 mb 0.00 in0.0 mm 0.00 in0.0 mm 0.00 in0.0 mm
02:47 AM 24.2°F-4.3°C 8.1°F-13.3°C 50% 3.0 mph W4.8 kmh W -- 30.00 in1015.9 mb 0.00 in0.0 mm 0.00 in0.0 mm 0.00 in0.0 mm
02:50 AM 24.2°F-4.3°C 8.1°F-13.3°C 50% 4.0 mph W6.4 kmh W -- 30.00 in1015.9 mb 0.00 in0.0 mm 0.00 in0.0 mm 0.00 in0.0 mm
02:53 AM 24.2°F-4.3°C 8.1°F-13.3°C 50% 3.0 mph W4.8 kmh W -- 30.00 in1015.9 mb 0.00 in0.0 mm 0.00 in0.0 mm 0.00 in0.0 mm
02:58 AM 24.2°F-4.3°C 8.1°F-13.3°C 50% 4.0 mph W6.4 kmh W -- 30.00 in1015.9 mb 0.00 in0.0 mm 0.00 in0.0 mm 0.00 in0.0 mm
02:59 AM 24.2°F-4.3°C 8.1°F-13.3°C 50% 3.0 mph WSW4.8 kmh WSW -- 30.00 in1015.9 mb 0.00 in0.0 mm 0.00 in0.0 mm 0.00 in0.0 mm
03:00 AM 24.4°F-4.2°C 8.3°F-13.2°C 50% 4.0 mph SW6.4 kmh SW -- 30.00 in1015.9 mb 0.00 in0.0 mm 0.00 in0.0 mm 0.00 in0.0 mm
03:01 AM 24.6°F-4.1°C 8.4°F-13.1°C 50% 4.0 mph WSW6.4 kmh WSW -- 30.00 in1015.9 mb 0.00 in0.0 mm 0.00 in0.0 mm 0.00 in0.0 mm
03:02 AM 24.6°F-4.1°C 8.4°F-13.1°C 50% 4.0 mph W6.4 kmh W -- 30.00 in1015.9 mb 0.00 in0.0 mm 0.00 in0.0 mm 0.00 in0.0 mm
03:03 AM 24.8°F-4.0°C 8.6°F-13.0°C 50% 4.0 mph W6.4 kmh W -- 30.00 in1015.9 mb 0.00 in0.0 mm 0.00 in0.0 mm 0.00 in0.0 mm
03:04 AM 24.8°F-4.0°C 8.6°F-13.0°C 50% 3.0 mph W4.8 kmh W -- 30.00 in1015.9 mb 0.00 in0.0 mm 0.00 in0.0 mm 0.00 in0.0 mm
03:05 AM 25.0°F-3.9°C 8.8°F-12.9°C 50% 4.0 mph W6.4 kmh W -- 30.00 in1015.9 mb 0.00 in0.0 mm 0.00 in0.0 mm 0.00 in0.0 mm
03:06 AM 25.1°F-3.8°C 8.9°F-12.8°C 50% 3.0 mph W4.8 kmh W -- 30.00 in1015.9 mb 0.00 in0.0 mm 0.00 in0.0 mm 0.00 in0.0 mm
03:09 AM 25.1°F-3.8°C 8.9°F-12.8°C 50% 3.0 mph W4.8 kmh W -- 29.99 in1015.6 mb 0.00 in0.0 mm 0.00 in0.0 mm 0.00 in0.0 mm
03:10 AM 25.1°F-3.8°C 8.9°F-12.8°C 50% 4.0 mph W6.4 kmh W -- 30.00 in1015.9 mb 0.00 in0.0 mm 0.00 in0.0 mm 0.00 in0.0 mm
03:11 AM 25.1°F-3.8°C 8.9°F-12.8°C 50% 3.0 mph W4.8 kmh W -- 30.00 in1015.9 mb 0.00 in0.0 mm 0.00 in0.0 mm 0.00 in0.0 mm
03:17 AM 25.1°F-3.8°C 8.9°F-12.8°C 50% 3.0 mph WSW4.8 kmh WSW -- 30.00 in1015.9 mb 0.00 in0.0 mm 0.00 in0.0 mm 0.00 in0.0 mm
03:18 AM 25.1°F-3.8°C 8.9°F-12.8°C 50% 3.0 mph W4.8 kmh W -- 30.00 in1015.9 mb 0.00 in0.0 mm 0.00 in0.0 mm 0.00 in0.0 mm
03:19 AM 25.1°F-3.8°C 8.9°F-12.8°C 50% 4.0 mph W6.4 kmh W -- 30.00 in1015.9 mb 0.00 in0.0 mm 0.00 in0.0 mm 0.00 in0.0 mm
03:20 AM 25.1°F-3.8°C 8.9°F-12.8°C 50% 3.0 mph W4.8 kmh W -- 29.99 in1015.6 mb 0.00 in0.0 mm 0.00 in0.0 mm 0.00 in0.0 mm
03:21 AM 25.1°F-3.8°C 8.9°F-12.8°C 50% 2.0 mph W3.2 kmh W -- 29.99 in1015.6 mb 0.00 in0.0 mm 0.00 in0.0 mm 0.00 in0.0 mm
03:22 AM 25.1°F-3.8°C 8.9°F-12.8°C 50% 3.0 mph W4.8 kmh W -- 30.00 in1015.9 mb 0.00 in0.0 mm 0.00 in0.0 mm 0.00 in0.0 mm
03:23 AM 25.1°F-3.8°C 8.9°F-12.8°C 50% 3.0 mph WSW4.8 kmh WSW -- 30.00 in1015.9 mb 0.00 in0.0 mm 0.00 in0.0 mm 0.00 in0.0 mm
03:24 AM 25.1°F-3.8°C 8.9°F-12.8°C 50% 3.0 mph W4.8 kmh W -- 29.99 in1015.6 mb 0.00 in0.0 mm 0.00 in0.0 mm 0.00 in0.0 mm
03:25 AM 25.1°F-3.8°C 8.9°F-12.8°C 50% 2.0 mph W3.2 kmh W -- 29.99 in1015.6 mb 0.00 in0.0 mm 0.00 in0.0 mm 0.00 in0.0 mm
03:27 AM 25.1°F-3.8°C 8.9°F-12.8°C 50% 3.0 mph WSW4.8 kmh WSW -- 29.99 in1015.6 mb 0.00 in0.0 mm 0.00 in0.0 mm 0.00 in0.0 mm
03:28 AM 25.2°F-3.8°C 8.9°F-12.8°C 50% 2.0 mph W3.2 kmh W -- 29.99 in1015.6 mb 0.00 in0.0 mm 0.00 in0.0 mm 0.00 in0.0 mm
03:29 AM 25.4°F-3.7°C 9.1°F-12.7°C 50% 3.0 mph W4.8 kmh W -- 29.99 in1015.6 mb 0.00 in0.0 mm 0.00 in0.0 mm 0.00 in0.0 mm
03:33 AM 25.4°F-3.7°C 9.1°F-12.7°C 50% 2.0 mph W3.2 kmh W -- 29.99 in1015.6 mb 0.00 in0.0 mm 0.00 in0.0 mm 0.00 in0.0 mm
03:35 AM 25.4°F-3.7°C 9.1°F-12.7°C 50% 3.0 mph W4.8 kmh W -- 29.99 in1015.6 mb 0.00 in0.0 mm 0.00 in0.0 mm 0.00 in0.0 mm
03:36 AM 25.4°F-3.7°C 9.1°F-12.7°C 50% 3.0 mph WSW4.8 kmh WSW -- 30.00 in1015.9 mb 0.00 in0.0 mm 0.00 in0.0 mm 0.00 in0.0 mm
03:37 AM 25.4°F-3.7°C 9.1°F-12.7°C 50% 3.0 mph W4.8 kmh W -- 30.00 in1015.9 mb 0.00 in0.0 mm 0.00 in0.0 mm 0.00 in0.0 mm
03:39 AM 25.4°F-3.7°C 8.7°F-12.9°C 49% 2.0 mph W3.2 kmh W -- 30.00 in1015.9 mb 0.00 in0.0 mm 0.00 in0.0 mm 0.00 in0.0 mm
03:40 AM 25.7°F-3.5°C 9.0°F-12.8°C 49% 2.0 mph W3.2 kmh W -- 30.00 in1015.9 mb 0.00 in0.0 mm 0.00 in0.0 mm 0.00 in0.0 mm
03:41 AM 25.9°F-3.4°C 9.2°F-12.7°C 49% 2.0 mph W3.2 kmh W -- 30.00 in1015.9 mb 0.00 in0.0 mm 0.00 in0.0 mm 0.00 in0.0 mm
03:42 AM 25.9°F-3.4°C 8.7°F-12.9°C 48% 2.0 mph W3.2 kmh W -- 29.99 in1015.6 mb 0.00 in0.0 mm 0.00 in0.0 mm 0.00 in0.0 mm
03:43 AM 26.1°F-3.3°C 8.9°F-12.8°C 48% 2.0 mph W3.2 kmh W -- 29.99 in1015.6 mb 0.00 in0.0 mm 0.00 in0.0 mm 0.00 in0.0 mm
03:44 AM 26.1°F-3.3°C 8.9°F-12.8°C 48% 3.0 mph W4.8 kmh W -- 29.99 in1015.6 mb 0.00 in0.0 mm 0.00 in0.0 mm 0.00 in0.0 mm
03:45 AM 26.2°F-3.2°C 8.1°F-13.3°C 46% 3.0 mph W4.8 kmh W -- 29.99 in1015.6 mb 0.00 in0.0 mm 0.00 in0.0 mm 0.00 in0.0 mm
03:46 AM 26.6°F-3.0°C 7.9°F-13.4°C 45% 2.0 mph W3.2 kmh W -- 29.99 in1015.6 mb 0.00 in0.0 mm 0.00 in0.0 mm 0.00 in0.0 mm
03:47 AM 26.7°F-2.9°C 8.1°F-13.3°C 45% 2.0 mph W3.2 kmh W -- 29.99 in1015.6 mb 0.00 in0.0 mm 0.00 in0.0 mm 0.00 in0.0 mm
03:48 AM 26.7°F-2.9°C 8.6°F-13.0°C 46% 2.0 mph W3.2 kmh W -- 29.99 in1015.6 mb 0.00 in0.0 mm 0.00 in0.0 mm 0.00 in0.0 mm
03:49 AM 26.6°F-3.0°C 9.4°F-12.6°C 48% 2.0 mph W3.2 kmh W -- 29.99 in1015.6 mb 0.00 in0.0 mm 0.00 in0.0 mm 0.00 in0.0 mm
03:50 AM 26.2°F-3.2°C 9.0°F-12.8°C 48% 2.0 mph W3.2 kmh W -- 29.99 in1015.6 mb 0.00 in0.0 mm 0.00 in0.0 mm 0.00 in0.0 mm
03:51 AM 26.1°F-3.3°C 9.3°F-12.6°C 49% 2.0 mph W3.2 kmh W -- 29.99 in1015.6 mb 0.00 in0.0 mm 0.00 in0.0 mm 0.00 in0.0 mm
03:52 AM 25.9°F-3.4°C 9.2°F-12.7°C 49% 2.0 mph SW3.2 kmh SW -- 29.99 in1015.6 mb 0.00 in0.0 mm 0.00 in0.0 mm 0.00 in0.0 mm
03:53 AM 25.7°F-3.5°C 8.5°F-13.1°C 48% 1.0 mph SSW1.6 kmh SSW -- 29.99 in1015.6 mb 0.00 in0.0 mm 0.00 in0.0 mm 0.00 in0.0 mm
03:54 AM 25.9°F-3.4°C 7.7°F-13.5°C 46% 2.0 mph WSW3.2 kmh WSW -- 30.00 in1015.9 mb 0.00 in0.0 mm 0.00 in0.0 mm 0.00 in0.0 mm
03:55 AM 25.7°F-3.5°C 8.5°F-13.1°C 48% 2.0 mph SW3.2 kmh SW -- 30.00 in1015.9 mb 0.00 in0.0 mm 0.00 in0.0 mm 0.00 in0.0 mm
03:56 AM 27.1°F-2.7°C 7.9°F-13.4°C 44% 3.0 mph S4.8 kmh S -- 29.99 in1015.6 mb 0.00 in0.0 mm 0.00 in0.0 mm 0.00 in0.0 mm
03:57 AM 27.8°F-2.3°C 7.0°F-13.9°C 41% 2.0 mph SSE3.2 kmh SSE -- 29.99 in1015.6 mb 0.00 in0.0 mm 0.00 in0.0 mm 0.00 in0.0 mm
03:58 AM 28.2°F-2.1°C 6.8°F-14.0°C 40% 2.0 mph SSE3.2 kmh SSE -- 30.00 in1015.9 mb 0.00 in0.0 mm 0.00 in0.0 mm 0.00 in0.0 mm
03:59 AM 28.2°F-2.1°C 6.8°F-14.0°C 40% 2.0 mph WNW3.2 kmh WNW -- 30.00 in1015.9 mb 0.00 in0.0 mm 0.00 in0.0 mm 0.00 in0.0 mm
04:00 AM 26.7°F-2.9°C 8.1°F-13.3°C 45% 3.0 mph WNW4.8 kmh WNW -- 30.00 in1015.9 mb 0.00 in0.0 mm 0.00 in0.0 mm 0.00 in0.0 mm
04:01 AM 25.9°F-3.4°C 7.7°F-13.5°C 46% 2.0 mph W3.2 kmh W -- 30.00 in1015.9 mb 0.00 in0.0 mm 0.00 in0.0 mm 0.00 in0.0 mm
04:02 AM 25.7°F-3.5°C 7.6°F-13.6°C 46% 2.0 mph W3.2 kmh W -- 30.00 in1015.9 mb 0.00 in0.0 mm 0.00 in0.0 mm 0.00 in0.0 mm
04:03 AM 25.7°F-3.5°C 7.1°F-13.8°C 45% 2.0 mph W3.2 kmh W -- 29.99 in1015.6 mb 0.00 in0.0 mm 0.00 in0.0 mm 0.00 in0.0 mm
04:04 AM 25.9°F-3.4°C 7.3°F-13.7°C 45% 3.0 mph W4.8 kmh W -- 30.00 in1015.9 mb 0.00 in0.0 mm 0.00 in0.0 mm 0.00 in0.0 mm
04:05 AM 25.9°F-3.4°C 7.3°F-13.7°C 45% 2.0 mph W3.2 kmh W -- 29.99 in1015.6 mb 0.00 in0.0 mm 0.00 in0.0 mm 0.00 in0.0 mm
04:06 AM 26.1°F-3.3°C 7.4°F-13.7°C 45% 2.0 mph WSW3.2 kmh WSW -- 29.99 in1015.6 mb 0.00 in0.0 mm 0.00 in0.0 mm 0.00 in0.0 mm
04:07 AM 26.2°F-3.2°C 7.1°F-13.8°C 44% 3.0 mph W4.8 kmh W -- 29.99 in1015.6 mb 0.00 in0.0 mm 0.00 in0.0 mm 0.00 in0.0 mm
04:08 AM 26.3°F-3.2°C 7.6°F-13.6°C 45% 4.0 mph WNW6.4 kmh WNW -- 30.00 in1015.9 mb 0.00 in0.0 mm 0.00 in0.0 mm 0.00 in0.0 mm
04:09 AM 26.3°F-3.2°C 7.6°F-13.6°C 45% 4.0 mph W6.4 kmh W -- 30.00 in1015.9 mb 0.00 in0.0 mm 0.00 in0.0 mm 0.00 in0.0 mm
04:10 AM 26.2°F-3.2°C 7.6°F-13.6°C 45% 3.0 mph W4.8 kmh W -- 30.00 in1015.9 mb 0.00 in0.0 mm 0.00 in0.0 mm 0.00 in0.0 mm
04:12 AM 26.2°F-3.2°C 7.6°F-13.6°C 45% 3.0 mph W4.8 kmh W -- 29.99 in1015.6 mb 0.00 in0.0 mm 0.00 in0.0 mm 0.00 in0.0 mm
04:13 AM 26.3°F-3.2°C 7.6°F-13.6°C 45% 2.0 mph W3.2 kmh W -- 29.99 in1015.6 mb 0.00 in0.0 mm 0.00 in0.0 mm 0.00 in0.0 mm
04:14 AM 26.3°F-3.2°C 7.6°F-13.6°C 45% 4.0 mph W6.4 kmh W -- 29.99 in1015.6 mb 0.00 in0.0 mm 0.00 in0.0 mm 0.00 in0.0 mm
04:15 AM 26.3°F-3.2°C 7.6°F-13.6°C 45% 3.0 mph W4.8 kmh W -- 29.99 in1015.6 mb 0.00 in0.0 mm 0.00 in0.0 mm 0.00 in0.0 mm
04:16 AM 26.6°F-3.0°C 7.9°F-13.4°C 45% 3.0 mph W4.8 kmh W -- 29.99 in1015.6 mb 0.00 in0.0 mm 0.00 in0.0 mm 0.00 in0.0 mm
04:17 AM 26.6°F-3.0°C 7.9°F-13.4°C 45% 4.0 mph W6.4 kmh W -- 29.99 in1015.6 mb 0.00 in0.0 mm 0.00 in0.0 mm 0.00 in0.0 mm
04:19 AM 26.6°F-3.0°C 7.9°F-13.4°C 45% 3.0 mph W4.8 kmh W -- 29.99 in1015.6 mb 0.00 in0.0 mm 0.00 in0.0 mm 0.00 in0.0 mm
04:21 AM 26.6°F-3.0°C 7.9°F-13.4°C 45% 3.0 mph SW4.8 kmh SW -- 29.99 in1015.6 mb 0.00 in0.0 mm 0.00 in0.0 mm 0.00 in0.0 mm
04:23 AM 26.6°F-3.0°C 7.9°F-13.4°C 45% 3.0 mph W4.8 kmh W -- 29.99 in1015.6 mb 0.00 in0.0 mm 0.00 in0.0 mm 0.00 in0.0 mm
04:24 AM 26.6°F-3.0°C 7.9°F-13.4°C 45% 3.0 mph SW4.8 kmh SW -- 29.99 in1015.6 mb 0.00 in0.0 mm 0.00 in0.0 mm 0.00 in0.0 mm
04:25 AM 26.6°F-3.0°C 7.9°F-13.4°C 45% 3.0 mph W4.8 kmh W -- 29.99 in1015.6 mb 0.00 in0.0 mm 0.00 in0.0 mm 0.00 in0.0 mm
04:26 AM 26.6°F-3.0°C 7.9°F-13.4°C 45% 2.0 mph WSW3.2 kmh WSW -- 29.99 in1015.6 mb 0.00 in0.0 mm 0.00 in0.0 mm 0.00 in0.0 mm
04:27 AM 26.6°F-3.0°C 7.9°F-13.4°C 45% 2.0 mph W3.2 kmh W -- 29.99 in1015.6 mb 0.00 in0.0 mm 0.00 in0.0 mm 0.00 in0.0 mm
04:28 AM 26.6°F-3.0°C 7.9°F-13.4°C 45% 2.0 mph SW3.2 kmh SW -- 29.99 in1015.6 mb 0.00 in0.0 mm 0.00 in0.0 mm 0.00 in0.0 mm
04:29 AM 26.3°F-3.2°C 7.6°F-13.6°C 45% 3.0 mph W4.8 kmh W -- 29.99 in1015.6 mb 0.00 in0.0 mm 0.00 in0.0 mm 0.00 in0.0 mm
04:31 AM 26.3°F-3.2°C 7.6°F-13.6°C 45% 2.0 mph W3.2 kmh W -- 29.99 in1015.6 mb 0.00 in0.0 mm 0.00 in0.0 mm 0.00 in0.0 mm
04:32 AM 26.2°F-3.2°C 7.6°F-13.6°C 45% 2.0 mph W3.2 kmh W -- 29.99 in1015.6 mb 0.00 in0.0 mm 0.00 in0.0 mm 0.00 in0.0 mm
04:34 AM 26.2°F-3.2°C 7.6°F-13.6°C 45% 2.0 mph NW3.2 kmh NW -- 30.00 in1015.9 mb 0.00 in0.0 mm 0.00 in0.0 mm 0.00 in0.0 mm
04:35 AM 25.9°F-3.4°C 7.7°F-13.5°C 46% 2.0 mph NW3.2 kmh NW -- 30.00 in1015.9 mb 0.00 in0.0 mm 0.00 in0.0 mm 0.00 in0.0 mm
04:36 AM 25.9°F-3.4°C 7.7°F-13.5°C 46% 2.0 mph NNW3.2 kmh NNW -- 30.00 in1015.9 mb 0.00 in0.0 mm 0.00 in0.0 mm 0.00 in0.0 mm
04:37 AM 25.7°F-3.5°C 7.6°F-13.6°C 46% 2.0 mph NW3.2 kmh NW -- 30.00 in1015.9 mb 0.00 in0.0 mm 0.00 in0.0 mm 0.00 in0.0 mm
04:38 AM 25.4°F-3.7°C 7.2°F-13.8°C 46% 3.0 mph W4.8 kmh W -- 30.00 in1015.9 mb 0.00 in0.0 mm 0.00 in0.0 mm 0.00 in0.0 mm
04:39 AM 25.4°F-3.7°C 7.2°F-13.8°C 46% 2.0 mph NW3.2 kmh NW -- 30.00 in1015.9 mb 0.00 in0.0 mm 0.00 in0.0 mm 0.00 in0.0 mm
04:40 AM 25.4°F-3.7°C 7.2°F-13.8°C 46% 2.0 mph NNW3.2 kmh NNW -- 30.00 in1015.9 mb 0.00 in0.0 mm 0.00 in0.0 mm 0.00 in0.0 mm
04:41 AM 25.4°F-3.7°C 7.2°F-13.8°C 46% 4.0 mph W6.4 kmh W -- 29.99 in1015.6 mb 0.00 in0.0 mm 0.00 in0.0 mm 0.00 in0.0 mm
04:42 AM 25.4°F-3.7°C 7.2°F-13.8°C 46% 2.0 mph W3.2 kmh W -- 29.99 in1015.6 mb 0.00 in0.0 mm 0.00 in0.0 mm 0.00 in0.0 mm
04:43 AM 25.4°F-3.7°C 7.2°F-13.8°C 46% 2.0 mph WNW3.2 kmh WNW -- 30.00 in1015.9 mb 0.00 in0.0 mm 0.00 in0.0 mm 0.00 in0.0 mm
04:44 AM 25.7°F-3.5°C 7.6°F-13.6°C 46% 2.0 mph WNW3.2 kmh WNW -- 29.99 in1015.6 mb 0.00 in0.0 mm 0.00 in0.0 mm 0.00 in0.0 mm
04:45 AM 25.7°F-3.5°C 7.6°F-13.6°C 46% 2.0 mph W3.2 kmh W -- 29.99 in1015.6 mb 0.00 in0.0 mm 0.00 in0.0 mm 0.00 in0.0 mm
04:48 AM 25.7°F-3.5°C 7.6°F-13.6°C 46% 2.0 mph WNW3.2 kmh WNW -- 29.99 in1015.6 mb 0.00 in0.0 mm 0.00 in0.0 mm 0.00 in0.0 mm
04:49 AM 25.9°F-3.4°C 7.7°F-13.5°C 46% 2.0 mph WNW3.2 kmh WNW -- 29.99 in1015.6 mb 0.00 in0.0 mm 0.00 in0.0 mm 0.00 in0.0 mm
04:50 AM 26.1°F-3.3°C 7.9°F-13.4°C 46% 3.0 mph WNW4.8 kmh WNW -- 29.99 in1015.6 mb 0.00 in0.0 mm 0.00 in0.0 mm 0.00 in0.0 mm
04:51 AM 26.1°F-3.3°C 7.9°F-13.4°C 46% 2.0 mph WNW3.2 kmh WNW -- 29.99 in1015.6 mb 0.00 in0.0 mm 0.00 in0.0 mm 0.00 in0.0 mm
04:52 AM 26.2°F-3.2°C 8.1°F-13.3°C 46% 2.0 mph WNW3.2 kmh WNW -- 29.99 in1015.6 mb 0.00 in0.0 mm 0.00 in0.0 mm 0.00 in0.0 mm
04:53 AM 26.2°F-3.2°C 7.6°F-13.6°C 45% 3.0 mph NW4.8 kmh NW -- 29.99 in1015.6 mb 0.00 in0.0 mm 0.00 in0.0 mm 0.00 in0.0 mm
04:54 AM 26.3°F-3.2°C 7.6°F-13.6°C 45% 3.0 mph W4.8 kmh W -- 29.99 in1015.6 mb 0.00 in0.0 mm 0.00 in0.0 mm 0.00 in0.0 mm
04:55 AM 26.6°F-3.0°C 7.9°F-13.4°C 45% 2.0 mph WNW3.2 kmh WNW -- 29.99 in1015.6 mb 0.00 in0.0 mm 0.00 in0.0 mm 0.00 in0.0 mm
04:56 AM 26.6°F-3.0°C 7.9°F-13.4°C 45% 3.0 mph W4.8 kmh W -- 29.99 in1015.6 mb 0.00 in0.0 mm 0.00 in0.0 mm 0.00 in0.0 mm
04:57 AM 26.6°F-3.0°C 7.9°F-13.4°C 45% 3.0 mph WNW4.8 kmh WNW -- 29.99 in1015.6 mb 0.00 in0.0 mm 0.00 in0.0 mm 0.00 in0.0 mm
04:58 AM 26.6°F-3.0°C 7.9°F-13.4°C 45% 2.0 mph W3.2 kmh W -- 29.99 in1015.6 mb 0.00 in0.0 mm 0.00 in0.0 mm 0.00 in0.0 mm
04:59 AM 26.6°F-3.0°C 7.9°F-13.4°C 45% 3.0 mph W4.8 kmh W -- 29.99 in1015.6 mb 0.00 in0.0 mm 0.00 in0.0 mm 0.00 in0.0 mm
05:00 AM 26.6°F-3.0°C 7.9°F-13.4°C 45% 2.0 mph W3.2 kmh W -- 29.99 in1015.6 mb 0.00 in0.0 mm 0.00 in0.0 mm 0.00 in0.0 mm
05:02 AM 26.6°F-3.0°C 7.9°F-13.4°C 45% 3.0 mph W4.8 kmh W -- 29.99 in1015.6 mb 0.00 in0.0 mm 0.00 in0.0 mm 0.00 in0.0 mm
05:03 AM 26.6°F-3.0°C 7.9°F-13.4°C 45% 2.0 mph WNW3.2 kmh WNW -- 29.99 in1015.6 mb 0.00 in0.0 mm 0.00 in0.0 mm 0.00 in0.0 mm
05:04 AM 26.6°F-3.0°C 7.9°F-13.4°C 45% 2.0 mph W3.2 kmh W -- 29.99 in1015.6 mb 0.00 in0.0 mm 0.00 in0.0 mm 0.00 in0.0 mm
05:05 AM 26.7°F-2.9°C 8.1°F-13.3°C 45% 3.0 mph W4.8 kmh W -- 29.99 in1015.6 mb 0.00 in0.0 mm 0.00 in0.0 mm 0.00 in0.0 mm
05:10 AM 26.7°F-2.9°C 8.1°F-13.3°C 45% 2.0 mph W3.2 kmh W -- 29.99 in1015.6 mb 0.00 in0.0 mm 0.00 in0.0 mm 0.00 in0.0 mm
05:11 AM 26.7°F-2.9°C 8.1°F-13.3°C 45% 2.0 mph WNW3.2 kmh WNW -- 29.99 in1015.6 mb 0.00 in0.0 mm 0.00 in0.0 mm 0.00 in0.0 mm
05:12 AM 26.7°F-2.9°C 8.1°F-13.3°C 45% 4.0 mph WNW6.4 kmh WNW -- 29.99 in1015.6 mb 0.00 in0.0 mm 0.00 in0.0 mm 0.00 in0.0 mm
05:13 AM 27.0°F-2.8°C 8.2°F-13.2°C 45% 3.0 mph W4.8 kmh W -- 29.99 in1015.6 mb 0.00 in0.0 mm 0.00 in0.0 mm 0.00 in0.0 mm
05:14 AM 27.0°F-2.8°C 8.2°F-13.2°C 45% 3.0 mph WNW4.8 kmh WNW -- 29.99 in1015.6 mb 0.00 in0.0 mm 0.00 in0.0 mm 0.00 in0.0 mm
05:15 AM 27.0°F-2.8°C 8.2°F-13.2°C 45% 2.0 mph WNW3.2 kmh WNW -- 29.99 in1015.6 mb 0.00 in0.0 mm 0.00 in0.0 mm 0.00 in0.0 mm
05:17 AM 26.7°F-2.9°C 8.1°F-13.3°C 45% 2.0 mph WNW3.2 kmh WNW -- 29.99 in1015.6 mb 0.00 in0.0 mm 0.00 in0.0 mm 0.00 in0.0 mm
05:18 AM 26.7°F-2.9°C 8.1°F-13.3°C 45% 2.0 mph W3.2 kmh W -- 29.99 in1015.6 mb 0.00 in0.0 mm 0.00 in0.0 mm 0.00 in0.0 mm
05:20 AM 26.6°F-3.0°C 7.9°F-13.4°C 45% 2.0 mph W3.2 kmh W -- 29.98 in1015.2 mb 0.00 in0.0 mm 0.00 in0.0 mm 0.00 in0.0 mm
05:21 AM 26.6°F-3.0°C 7.9°F-13.4°C 45% 1.0 mph WSW1.6 kmh WSW -- 29.98 in1015.2 mb 0.00 in0.0 mm 0.00 in0.0 mm 0.00 in0.0 mm
05:22 AM 26.6°F-3.0°C 7.9°F-13.4°C 45% 2.0 mph WSW3.2 kmh WSW -- 29.98 in1015.2 mb 0.00 in0.0 mm 0.00 in0.0 mm 0.00 in0.0 mm
05:24 AM 26.6°F-3.0°C 7.9°F-13.4°C 45% 2.0 mph W3.2 kmh W -- 29.98 in1015.2 mb 0.00 in0.0 mm 0.00 in0.0 mm 0.00 in0.0 mm
05:25 AM 26.6°F-3.0°C 7.9°F-13.4°C 45% 1.0 mph WSW1.6 kmh WSW -- 29.99 in1015.6 mb 0.00 in0.0 mm 0.00 in0.0 mm 0.00 in0.0 mm
05:26 AM 26.6°F-3.0°C 7.9°F-13.4°C 45% 2.0 mph W3.2 kmh W -- 29.99 in1015.6 mb 0.00 in0.0 mm 0.00 in0.0 mm 0.00 in0.0 mm
05:27 AM 26.6°F-3.0°C 7.9°F-13.4°C 45% 3.0 mph W4.8 kmh W -- 29.98 in1015.2 mb 0.00 in0.0 mm 0.00 in0.0 mm 0.00 in0.0 mm
05:28 AM 26.7°F-2.9°C 8.1°F-13.3°C 45% 3.0 mph W4.8 kmh W -- 29.99 in1015.6 mb 0.00 in0.0 mm 0.00 in0.0 mm 0.00 in0.0 mm
05:29 AM 27.0°F-2.8°C 8.2°F-13.2°C 45% 3.0 mph W4.8 kmh W -- 29.99 in1015.6 mb 0.00 in0.0 mm 0.00 in0.0 mm 0.00 in0.0 mm
05:30 AM 27.5°F-2.5°C 8.7°F-12.9°C 45% 6.0 mph WNW9.7 kmh WNW -- 29.98 in1015.2 mb 0.00 in0.0 mm 0.00 in0.0 mm 0.00 in0.0 mm
05:31 AM 27.8°F-2.3°C 9.1°F-12.7°C 45% 4.0 mph W6.4 kmh W -- 29.98 in1015.2 mb 0.00 in0.0 mm 0.00 in0.0 mm 0.00 in0.0 mm
05:32 AM 28.8°F-1.8°C 9.4°F-12.6°C 44% 7.0 mph WNW11.3 kmh WNW -- 29.98 in1015.2 mb 0.00 in0.0 mm 0.00 in0.0 mm 0.00 in0.0 mm
05:33 AM 29.5°F-1.4°C 9.5°F-12.5°C 43% 6.0 mph WNW9.7 kmh WNW -- 29.98 in1015.2 mb 0.00 in0.0 mm 0.00 in0.0 mm 0.00 in0.0 mm
05:34 AM 30.1°F-1.1°C 8.9°F-12.8°C 41% 7.0 mph NW11.3 kmh NW -- 29.98 in1015.2 mb 0.00 in0.0 mm 0.00 in0.0 mm 0.00 in0.0 mm
05:35 AM 30.5°F-0.8°C 9.4°F-12.6°C 41% 8.0 mph WNW12.9 kmh WNW -- 29.98 in1015.2 mb 0.00 in0.0 mm 0.00 in0.0 mm 0.00 in0.0 mm
05:36 AM 31.5°F-0.3°C 9.7°F-12.4°C 40% 9.0 mph W14.5 kmh W -- 29.98 in1015.2 mb 0.00 in0.0 mm 0.00 in0.0 mm 0.00 in0.0 mm
05:37 AM 32.2°F0.1°C 9.8°F-12.3°C 39% 7.0 mph NW11.3 kmh NW -- 29.98 in1015.2 mb 0.00 in0.0 mm 0.00 in0.0 mm 0.00 in0.0 mm
05:38 AM 32.5°F0.3°C 10.1°F-12.2°C 39% 7.0 mph W11.3 kmh W -- 29.98 in1015.2 mb 0.00 in0.0 mm 0.00 in0.0 mm 0.00 in0.0 mm
05:39 AM 33.0°F0.6°C 10.6°F-11.9°C 39% 8.0 mph NW12.9 kmh NW -- 29.98 in1015.2 mb 0.00 in0.0 mm 0.00 in0.0 mm 0.00 in0.0 mm
05:40 AM 33.2°F0.7°C 9.6°F-12.4°C 37% 7.0 mph WNW11.3 kmh WNW -- 29.98 in1015.2 mb 0.00 in0.0 mm 0.00 in0.0 mm 0.00 in0.0 mm
05:41 AM 33.4°F0.8°C 9.7°F-12.4°C 37% 9.0 mph WNW14.5 kmh WNW -- 29.98 in1015.2 mb 0.00 in0.0 mm 0.00 in0.0 mm 0.00 in0.0 mm
05:42 AM 33.8°F1.0°C 10.0°F-12.2°C 37% 7.0 mph W11.3 kmh W -- 29.98 in1015.2 mb 0.00 in0.0 mm 0.00 in0.0 mm 0.00 in0.0 mm
05:43 AM 33.8°F1.0°C 10.0°F-12.2°C 37% 8.0 mph WNW12.9 kmh WNW -- 29.98 in1015.2 mb 0.00 in0.0 mm 0.00 in0.0 mm 0.00 in0.0 mm
05:44 AM 34.0°F1.1°C 10.2°F-12.1°C 37% 7.0 mph NW11.3 kmh NW -- 29.99 in1015.6 mb 0.00 in0.0 mm 0.00 in0.0 mm 0.00 in0.0 mm
05:46 AM 34.2°F1.2°C 10.4°F-12.0°C 37% 7.0 mph NW11.3 kmh NW -- 29.99 in1015.6 mb 0.00 in0.0 mm 0.00 in0.0 mm 0.00 in0.0 mm
05:47 AM 34.2°F1.2°C 10.4°F-12.0°C 37% 9.0 mph NW14.5 kmh NW -- 29.99 in1015.6 mb 0.00 in0.0 mm 0.00 in0.0 mm 0.00 in0.0 mm
05:48 AM 34.2°F1.2°C 10.4°F-12.0°C 37% 9.0 mph W14.5 kmh W -- 29.99 in1015.6 mb 0.00 in0.0 mm 0.00 in0.0 mm 0.00 in0.0 mm
05:49 AM 34.5°F1.4°C 10.7°F-11.8°C 37% 10.0 mph WNW16.1 kmh WNW -- 29.99 in1015.6 mb 0.00 in0.0 mm 0.00 in0.0 mm 0.00 in0.0 mm
05:50 AM 34.7°F1.5°C 10.9°F-11.7°C 37% 9.0 mph WNW14.5 kmh WNW -- 29.99 in1015.6 mb 0.00 in0.0 mm 0.00 in0.0 mm 0.00 in0.0 mm
05:51 AM 34.7°F1.5°C 10.9°F-11.7°C 37% 8.0 mph WNW12.9 kmh WNW -- 29.99 in1015.6 mb 0.00 in0.0 mm 0.00 in0.0 mm 0.00 in0.0 mm
05:52 AM 34.7°F1.5°C 10.9°F-11.7°C 37% 10.0 mph WNW16.1 kmh WNW -- 29.99 in1015.6 mb 0.00 in0.0 mm 0.00 in0.0 mm 0.00 in0.0 mm
05:53 AM 34.7°F1.5°C 10.9°F-11.7°C 37% 9.0 mph WNW14.5 kmh WNW -- 29.99 in1015.6 mb 0.00 in0.0 mm 0.00 in0.0 mm 0.00 in0.0 mm
05:54 AM 34.7°F1.5°C 10.9°F-11.7°C 37% 9.0 mph NW14.5 kmh NW -- 29.99 in1015.6 mb 0.00 in0.0 mm 0.00 in0.0 mm 0.00 in0.0 mm
05:55 AM 34.7°F1.5°C 10.9°F-11.7°C 37% 8.0 mph WNW12.9 kmh WNW -- 29.99 in1015.6 mb 0.00 in0.0 mm 0.00 in0.0 mm 0.00 in0.0 mm
05:56 AM 34.7°F1.5°C 10.9°F-11.7°C 37% 9.0 mph WNW14.5 kmh WNW -- 29.99 in1015.6 mb 0.00 in0.0 mm 0.00 in0.0 mm 0.00 in0.0 mm
05:57 AM 34.5°F1.4°C 10.7°F-11.8°C 37% 9.0 mph NW14.5 kmh NW -- 29.99 in1015.6 mb 0.00 in0.0 mm 0.00 in0.0 mm 0.00 in0.0 mm
05:58 AM 34.5°F1.4°C 10.7°F-11.8°C 37% 8.0 mph WNW12.9 kmh WNW -- 29.99 in1015.6 mb 0.00 in0.0 mm 0.00 in0.0 mm 0.00 in0.0 mm
05:59 AM 34.5°F1.4°C 10.7°F-11.8°C 37% 9.0 mph W14.5 kmh W -- 29.99 in1015.6 mb 0.00 in0.0 mm 0.00 in0.0 mm 0.00 in0.0 mm
06:00 AM 34.5°F1.4°C 10.7°F-11.8°C 37% 11.0 mph WNW17.7 kmh WNW -- 29.99 in1015.6 mb 0.00 in0.0 mm 0.00 in0.0 mm 0.00 in0.0 mm
06:01 AM 34.5°F1.4°C 10.7°F-11.8°C 37% 8.0 mph WNW12.9 kmh WNW -- 29.99 in1015.6 mb 0.00 in0.0 mm 0.00 in0.0 mm 0.00 in0.0 mm
06:02 AM 34.2°F1.2°C 10.4°F-12.0°C 37% 8.0 mph W12.9 kmh W -- 29.99 in1015.6 mb 0.00 in0.0 mm 0.00 in0.0 mm 0.00 in0.0 mm
06:03 AM 34.2°F1.2°C 10.4°F-12.0°C 37% 9.0 mph WNW14.5 kmh WNW -- 29.99 in1015.6 mb 0.00 in0.0 mm 0.00 in0.0 mm 0.00 in0.0 mm
06:05 AM 34.2°F1.2°C 10.4°F-12.0°C 37% 7.0 mph W11.3 kmh W -- 29.99 in1015.6 mb 0.00 in0.0 mm 0.00 in0.0 mm 0.00 in0.0 mm
06:06 AM 34.0°F1.1°C 10.2°F-12.1°C 37% 8.0 mph NW12.9 kmh NW -- 29.99 in1015.6 mb 0.00 in0.0 mm 0.00 in0.0 mm 0.00 in0.0 mm
06:07 AM 34.0°F1.1°C 10.2°F-12.1°C 37% 9.0 mph W14.5 kmh W -- 29.99 in1015.6 mb 0.00 in0.0 mm 0.00 in0.0 mm 0.00 in0.0 mm
06:08 AM 34.0°F1.1°C 10.2°F-12.1°C 37% 8.0 mph WNW12.9 kmh WNW -- 29.99 in1015.6 mb 0.00 in0.0 mm 0.00 in0.0 mm 0.00 in0.0 mm
06:09 AM 34.0°F1.1°C 10.2°F-12.1°C 37% 7.0 mph W11.3 kmh W -- 29.99 in1015.6 mb 0.00 in0.0 mm 0.00 in0.0 mm 0.00 in0.0 mm
06:10 AM 34.0°F1.1°C 10.2°F-12.1°C 37% 8.0 mph WNW12.9 kmh WNW -- 29.99 in1015.6 mb 0.00 in0.0 mm 0.00 in0.0 mm 0.00 in0.0 mm
06:11 AM 34.0°F1.1°C 10.2°F-12.1°C 37% 9.0 mph WNW14.5 kmh WNW -- 29.99 in1015.6 mb 0.00 in0.0 mm 0.00 in0.0 mm 0.00 in0.0 mm
06:12 AM 34.0°F1.1°C 10.2°F-12.1°C 37% 8.0 mph WNW12.9 kmh WNW -- 29.99 in1015.6 mb 0.00 in0.0 mm 0.00 in0.0 mm 0.00 in0.0 mm
06:13 AM 34.0°F1.1°C 10.2°F-12.1°C 37% 9.0 mph NNW14.5 kmh NNW -- 29.99 in1015.6 mb 0.00 in0.0 mm 0.00 in0.0 mm 0.00 in0.0 mm
06:14 AM 34.2°F1.2°C 10.4°F-12.0°C 37% 9.0 mph WNW14.5 kmh WNW -- 30.00 in1015.9 mb 0.00 in0.0 mm 0.00 in0.0 mm 0.00 in0.0 mm
06:15 AM 34.2°F1.2°C 10.4°F-12.0°C 37% 10.0 mph WNW16.1 kmh WNW -- 29.99 in1015.6 mb 0.00 in0.0 mm 0.00 in0.0 mm 0.00 in0.0 mm
06:16 AM 34.2°F1.2°C 10.4°F-12.0°C 37% 8.0 mph WNW12.9 kmh WNW -- 29.99 in1015.6 mb 0.00 in0.0 mm 0.00 in0.0 mm 0.00 in0.0 mm
06:17 AM 34.2°F1.2°C 10.4°F-12.0°C 37% 7.0 mph NW11.3 kmh NW -- 29.99 in1015.6 mb 0.00 in0.0 mm 0.00 in0.0 mm 0.00 in0.0 mm
06:18 AM 34.2°F1.2°C 10.4°F-12.0°C 37% 9.0 mph W14.5 kmh W -- 29.99 in1015.6 mb 0.00 in0.0 mm 0.00 in0.0 mm 0.00 in0.0 mm
06:19 AM 34.2°F1.2°C 10.4°F-12.0°C 37% 7.0 mph NW11.3 kmh NW -- 29.99 in1015.6 mb 0.00 in0.0 mm 0.00 in0.0 mm 0.00 in0.0 mm
06:20 AM 34.2°F1.2°C 10.4°F-12.0°C 37% 10.0 mph W16.1 kmh W -- 30.00 in1015.9 mb 0.00 in0.0 mm 0.00 in0.0 mm 0.00 in0.0 mm
06:21 AM 34.5°F1.4°C 10.7°F-11.8°C 37% 7.0 mph WNW11.3 kmh WNW -- 30.00 in1015.9 mb 0.00 in0.0 mm 0.00 in0.0 mm 0.00 in0.0 mm
06:22 AM 34.5°F1.4°C 10.7°F-11.8°C 37% 9.0 mph W14.5 kmh W -- 30.00 in1015.9 mb 0.00 in0.0 mm 0.00 in0.0 mm 0.00 in0.0 mm
06:23 AM 34.5°F1.4°C 10.7°F-11.8°C 37% 8.0 mph WNW12.9 kmh WNW -- 30.00 in1015.9 mb 0.00 in0.0 mm 0.00 in0.0 mm 0.00 in0.0 mm
06:24 AM 34.5°F1.4°C 10.7°F-11.8°C 37% 9.0 mph NW14.5 kmh NW -- 30.00 in1015.9 mb 0.00 in0.0 mm 0.00 in0.0 mm 0.00 in0.0 mm
06:25 AM 34.5°F1.4°C 10.7°F-11.8°C 37% 9.0 mph NNW14.5 kmh NNW -- 30.00 in1015.9 mb 0.00 in0.0 mm 0.00 in0.0 mm 0.00 in0.0 mm
06:26 AM 34.5°F1.4°C 10.7°F-11.8°C 37% 8.0 mph NW12.9 kmh NW -- 30.00 in1015.9 mb 0.00 in0.0 mm 0.00 in0.0 mm 0.00 in0.0 mm
06:27 AM 34.2°F1.2°C 10.4°F-12.0°C 37% 9.0 mph WNW14.5 kmh WNW -- 30.00 in1015.9 mb 0.00 in0.0 mm 0.00 in0.0 mm 0.00 in0.0 mm
06:28 AM 34.2°F1.2°C 10.4°F-12.0°C 37% 9.0 mph W14.5 kmh W -- 30.00 in1015.9 mb 0.00 in0.0 mm 0.00 in0.0 mm 0.00 in0.0 mm
06:29 AM 34.2°F1.2°C 10.4°F-12.0°C 37% 10.0 mph NW16.1 kmh NW -- 30.00 in1015.9 mb 0.00 in0.0 mm 0.00 in0.0 mm 0.00 in0.0 mm
06:30 AM 34.2°F1.2°C 10.4°F-12.0°C 37% 8.0 mph W12.9 kmh W -- 29.99 in1015.6 mb 0.00 in0.0 mm 0.00 in0.0 mm 0.00 in0.0 mm
06:31 AM 34.2°F1.2°C 10.4°F-12.0°C 37% 8.0 mph WNW12.9 kmh WNW -- 29.99 in1015.6 mb 0.00 in0.0 mm 0.00 in0.0 mm 0.00 in0.0 mm
06:32 AM 34.2°F1.2°C 10.4°F-12.0°C 37% 10.0 mph W16.1 kmh W -- 29.99 in1015.6 mb 0.00 in0.0 mm 0.00 in0.0 mm 0.00 in0.0 mm
06:33 AM 34.2°F1.2°C 10.4°F-12.0°C 37% 9.0 mph WNW14.5 kmh WNW -- 29.99 in1015.6 mb 0.00 in0.0 mm 0.00 in0.0 mm 0.00 in0.0 mm
06:34 AM 34.2°F1.2°C 10.4°F-12.0°C 37% 8.0 mph WNW12.9 kmh WNW -- 30.00 in1015.9 mb 0.00 in0.0 mm 0.00 in0.0 mm 0.00 in0.0 mm
06:35 AM 34.0°F1.1°C 10.2°F-12.1°C 37% 7.0 mph WNW11.3 kmh WNW -- 30.00 in1015.9 mb 0.00 in0.0 mm 0.00 in0.0 mm 0.00 in0.0 mm
06:36 AM 34.0°F1.1°C 10.2°F-12.1°C 37% 7.0 mph NW11.3 kmh NW -- 30.00 in1015.9 mb 0.00 in0.0 mm 0.00 in0.0 mm 0.00 in0.0 mm
06:37 AM 33.8°F1.0°C 10.0°F-12.2°C 37% 10.0 mph W16.1 kmh W -- 30.00 in1015.9 mb 0.00 in0.0 mm 0.00 in0.0 mm 0.00 in0.0 mm
06:38 AM 33.5°F0.8°C 9.7°F-12.4°C 37% 7.0 mph W11.3 kmh W -- 30.00 in1015.9 mb 0.00 in0.0 mm 0.00 in0.0 mm 0.00 in0.0 mm
06:39 AM 33.5°F0.8°C 9.7°F-12.4°C 37% 7.0 mph NW11.3 kmh NW -- 30.00 in1015.9 mb 0.00 in0.0 mm 0.00 in0.0 mm 0.00 in0.0 mm
06:40 AM 33.5°F0.8°C 9.7°F-12.4°C 37% 7.0 mph NW11.3 kmh NW -- 29.99 in1015.6 mb 0.00 in0.0 mm 0.00 in0.0 mm 0.00 in0.0 mm
06:41 AM 33.5°F0.8°C 9.7°F-12.4°C 37% 7.0 mph WNW11.3 kmh WNW -- 29.99 in1015.6 mb 0.00 in0.0 mm 0.00 in0.0 mm 0.00 in0.0 mm
06:42 AM 33.4°F0.8°C 9.7°F-12.4°C 37% 7.0 mph W11.3 kmh W -- 30.00 in1015.9 mb 0.00 in0.0 mm 0.00 in0.0 mm 0.00 in0.0 mm
06:43 AM 33.4°F0.8°C 9.7°F-12.4°C 37% 9.0 mph NW14.5 kmh NW -- 30.00 in1015.9 mb 0.00 in0.0 mm 0.00 in0.0 mm 0.00 in0.0 mm
06:44 AM 33.4°F0.8°C 9.7°F-12.4°C 37% 7.0 mph NW11.3 kmh NW -- 29.99 in1015.6 mb 0.00 in0.0 mm 0.00 in0.0 mm 0.00 in0.0 mm
06:45 AM 33.2°F0.7°C 9.6°F-12.4°C 37% 5.0 mph WNW8.0 kmh WNW -- 29.99 in1015.6 mb 0.00 in0.0 mm 0.00 in0.0 mm 0.00 in0.0 mm
06:46 AM 33.2°F0.7°C 9.6°F-12.4°C 37% 7.0 mph WNW11.3 kmh WNW -- 29.99 in1015.6 mb 0.00 in0.0 mm 0.00 in0.0 mm 0.00 in0.0 mm
06:47 AM 33.2°F0.7°C 9.6°F-12.4°C 37% 6.0 mph WNW9.7 kmh WNW -- 29.99 in1015.6 mb 0.00 in0.0 mm 0.00 in0.0 mm 0.00 in0.0 mm
06:48 AM 33.2°F0.7°C 9.6°F-12.4°C 37% 8.0 mph WNW12.9 kmh WNW -- 29.99 in1015.6 mb 0.00 in0.0 mm 0.00 in0.0 mm 0.00 in0.0 mm
06:49 AM 33.2°F0.7°C 9.6°F-12.4°C 37% 7.0 mph NW11.3 kmh NW -- 29.99 in1015.6 mb 0.00 in0.0 mm 0.00 in0.0 mm 0.00 in0.0 mm
06:50 AM 33.2°F0.7°C 9.6°F-12.4°C 37% 9.0 mph WNW14.5 kmh WNW -- 29.99 in1015.6 mb 0.00 in0.0 mm 0.00 in0.0 mm 0.00 in0.0 mm
06:51 AM 33.2°F0.7°C 9.6°F-12.4°C 37% 7.0 mph NW11.3 kmh NW -- 29.99 in1015.6 mb 0.00 in0.0 mm 0.00 in0.0 mm 0.00 in0.0 mm
06:52 AM 33.2°F0.7°C 10.7°F-11.8°C 39% 7.0 mph W11.3 kmh W -- 30.00 in1015.9 mb 0.00 in0.0 mm 0.00 in0.0 mm 0.00 in0.0 mm
06:53 AM 33.2°F0.7°C 10.7°F-11.8°C 39% 8.0 mph WNW12.9 kmh WNW -- 30.00 in1015.9 mb 0.00 in0.0 mm 0.00 in0.0 mm 0.00 in0.0 mm
06:54 AM 33.2°F0.7°C 10.7°F-11.8°C 39% 7.0 mph WNW11.3 kmh WNW -- 29.99 in1015.6 mb 0.00 in0.0 mm 0.00 in0.0 mm 0.00 in0.0 mm
06:55 AM 33.2°F0.7°C 10.7°F-11.8°C 39% 9.0 mph W14.5 kmh W -- 29.99 in1015.6 mb 0.00 in0.0 mm 0.00 in0.0 mm 0.00 in0.0 mm
06:56 AM 33.4°F0.8°C 10.9°F-11.7°C 39% 7.0 mph W11.3 kmh W -- 29.99 in1015.6 mb 0.00 in0.0 mm 0.00 in0.0 mm 0.00 in0.0 mm
06:57 AM 33.4°F0.8°C 10.9°F-11.7°C 39% 7.0 mph WNW11.3 kmh WNW -- 30.00 in1015.9 mb 0.00 in0.0 mm 0.00 in0.0 mm 0.00 in0.0 mm
06:58 AM 33.4°F0.8°C 10.9°F-11.7°C 39% 9.0 mph WNW14.5 kmh WNW -- 29.99 in1015.6 mb 0.00 in0.0 mm 0.00 in0.0 mm 0.00 in0.0 mm
06:59 AM 33.4°F0.8°C 10.9°F-11.7°C 39% 8.0 mph W12.9 kmh W -- 30.00 in1015.9 mb 0.00 in0.0 mm 0.00 in0.0 mm 0.00 in0.0 mm
07:00 AM 33.4°F0.8°C 10.9°F-11.7°C 39% 9.0 mph NW14.5 kmh NW -- 29.99 in1015.6 mb 0.00 in0.0 mm 0.00 in0.0 mm 0.00 in0.0 mm
07:01 AM 33.4°F0.8°C 10.9°F-11.7°C 39% 8.0 mph WNW12.9 kmh WNW -- 29.99 in1015.6 mb 0.00 in0.0 mm 0.00 in0.0 mm 0.00 in0.0 mm
07:02 AM 33.4°F0.8°C 10.9°F-11.7°C 39% 6.0 mph WNW9.7 kmh WNW -- 29.99 in1015.6 mb 0.00 in0.0 mm 0.00 in0.0 mm 0.00 in0.0 mm
07:03 AM 33.4°F0.8°C 10.9°F-11.7°C 39% 7.0 mph WNW11.3 kmh WNW -- 30.00 in1015.9 mb 0.00 in0.0 mm 0.00 in0.0 mm 0.00 in0.0 mm
07:04 AM 33.5°F0.8°C 10.9°F-11.7°C 39% 7.0 mph W11.3 kmh W -- 30.00 in1015.9 mb 0.00 in0.0 mm 0.00 in0.0 mm 0.00 in0.0 mm
07:05 AM 33.5°F0.8°C 10.9°F-11.7°C 39% 5.0 mph W8.0 kmh W -- 30.00 in1015.9 mb 0.00 in0.0 mm 0.00 in0.0 mm 0.00 in0.0 mm
07:06 AM 33.5°F0.8°C 10.9°F-11.7°C 39% 8.0 mph WNW12.9 kmh WNW -- 30.00 in1015.9 mb 0.00 in0.0 mm 0.00 in0.0 mm 0.00 in0.0 mm
07:07 AM 33.5°F0.8°C 10.9°F-11.7°C 39% 7.0 mph W11.3 kmh W -- 30.00 in1015.9 mb 0.00 in0.0 mm 0.00 in0.0 mm 0.00 in0.0 mm
07:08 AM 33.5°F0.8°C 10.9°F-11.7°C 39% 8.0 mph WNW12.9 kmh WNW -- 30.00 in1015.9 mb 0.00 in0.0 mm 0.00 in0.0 mm 0.00 in0.0 mm
07:09 AM 33.8°F1.0°C 10.0°F-12.2°C 37% 6.0 mph NNW9.7 kmh NNW -- 30.00 in1015.9 mb 0.00 in0.0 mm 0.00 in0.0 mm 0.00 in0.0 mm
07:10 AM 33.8°F1.0°C 10.0°F-12.2°C 37% 7.0 mph WNW11.3 kmh WNW -- 30.00 in1015.9 mb 0.00 in0.0 mm 0.00 in0.0 mm 0.00 in0.0 mm
07:13 AM 33.8°F1.0°C 10.0°F-12.2°C 37% 8.0 mph WNW12.9 kmh WNW -- 30.00 in1015.9 mb 0.00 in0.0 mm 0.00 in0.0 mm 0.00 in0.0 mm
07:15 AM 33.8°F1.0°C 10.0°F-12.2°C 37% 7.0 mph WNW11.3 kmh WNW -- 30.00 in1015.9 mb 0.00 in0.0 mm 0.00 in0.0 mm 0.00 in0.0 mm
07:16 AM 33.8°F1.0°C 10.0°F-12.2°C 37% 5.0 mph WNW8.0 kmh WNW -- 30.00 in1015.9 mb 0.00 in0.0 mm 0.00 in0.0 mm 0.00 in0.0 mm
07:17 AM 33.8°F1.0°C 10.0°F-12.2°C 37% 7.0 mph WNW11.3 kmh WNW -- 30.00 in1015.9 mb 0.00 in0.0 mm 0.00 in0.0 mm 0.00 in0.0 mm
07:18 AM 33.8°F1.0°C 10.0°F-12.2°C 37% 6.0 mph W9.7 kmh W -- 30.00 in1015.9 mb 0.00 in0.0 mm 0.00 in0.0 mm 0.00 in0.0 mm
07:19 AM 34.0°F1.1°C 10.2°F-12.1°C 37% 6.0 mph W9.7 kmh W -- 30.00 in1015.9 mb 0.00 in0.0 mm 0.00 in0.0 mm 0.00 in0.0 mm
07:20 AM 34.0°F1.1°C 10.2°F-12.1°C 37% 7.0 mph WNW11.3 kmh WNW -- 30.00 in1015.9 mb 0.00 in0.0 mm 0.00 in0.0 mm 0.00 in0.0 mm
07:21 AM 34.0°F1.1°C 10.2°F-12.1°C 37% 4.0 mph W6.4 kmh W -- 30.00 in1015.9 mb 0.00 in0.0 mm 0.00 in0.0 mm 0.00 in0.0 mm
07:22 AM 34.0°F1.1°C 10.2°F-12.1°C 37% 6.0 mph W9.7 kmh W -- 30.00 in1015.9 mb 0.00 in0.0 mm 0.00 in0.0 mm 0.00 in0.0 mm
07:23 AM 34.2°F1.2°C 10.4°F-12.0°C 37% 7.0 mph W11.3 kmh W -- 30.00 in1015.9 mb 0.00 in0.0 mm 0.00 in0.0 mm 0.00 in0.0 mm
07:24 AM 34.2°F1.2°C 10.4°F-12.0°C 37% 5.0 mph NW8.0 kmh NW -- 30.00 in1015.9 mb 0.00 in0.0 mm 0.00 in0.0 mm 0.00 in0.0 mm
07:25 AM 34.2°F1.2°C 10.4°F-12.0°C 37% 5.0 mph W8.0 kmh W -- 30.00 in1015.9 mb 0.00 in0.0 mm 0.00 in0.0 mm 0.00 in0.0 mm
07:27 AM 34.2°F1.2°C 10.4°F-12.0°C 37% 4.0 mph WNW6.4 kmh WNW -- 30.00 in1015.9 mb 0.00 in0.0 mm 0.00 in0.0 mm 0.00 in0.0 mm
07:28 AM 34.2°F1.2°C 10.4°F-12.0°C 37% 5.0 mph W8.0 kmh W -- 30.00 in1015.9 mb 0.00 in0.0 mm 0.00 in0.0 mm 0.00 in0.0 mm
07:29 AM 34.2°F1.2°C 10.4°F-12.0°C 37% 5.0 mph NW8.0 kmh NW -- 30.00 in1015.9 mb 0.00 in0.0 mm 0.00 in0.0 mm 0.00 in0.0 mm
07:30 AM 34.0°F1.1°C 10.2°F-12.1°C 37% 4.0 mph WNW6.4 kmh WNW -- 30.00 in1015.9 mb 0.00 in0.0 mm 0.00 in0.0 mm 0.00 in0.0 mm
07:33 AM 33.8°F1.0°C 10.0°F-12.2°C 37% 4.0 mph W6.4 kmh W -- 30.00 in1015.9 mb 0.00 in0.0 mm 0.00 in0.0 mm 0.00 in0.0 mm
07:35 AM 33.5°F0.8°C 9.7°F-12.4°C 37% 4.0 mph W6.4 kmh W -- 30.00 in1015.9 mb 0.00 in0.0 mm 0.00 in0.0 mm 0.00 in0.0 mm
07:36 AM 33.5°F0.8°C 9.7°F-12.4°C 37% 4.0 mph NW6.4 kmh NW -- 30.00 in1015.9 mb 0.00 in0.0 mm 0.00 in0.0 mm 0.00 in0.0 mm
07:37 AM 33.2°F0.7°C 9.6°F-12.4°C 37% 4.0 mph WNW6.4 kmh WNW -- 30.01 in1016.3 mb 0.00 in0.0 mm 0.00 in0.0 mm 0.00 in0.0 mm
07:38 AM 33.2°F0.7°C 9.6°F-12.4°C 37% 6.0 mph NW9.7 kmh NW -- 30.00 in1015.9 mb 0.00 in0.0 mm 0.00 in0.0 mm 0.00 in0.0 mm
07:39 AM 33.2°F0.7°C 9.6°F-12.4°C 37% 3.0 mph W4.8 kmh W -- 30.01 in1016.3 mb 0.00 in0.0 mm 0.00 in0.0 mm 0.00 in0.0 mm
07:40 AM 33.2°F0.7°C 9.6°F-12.4°C 37% 5.0 mph NW8.0 kmh NW -- 30.01 in1016.3 mb 0.00 in0.0 mm 0.00 in0.0 mm 0.00 in0.0 mm
07:42 AM 33.2°F0.7°C 9.6°F-12.4°C 37% 4.0 mph NW6.4 kmh NW -- 30.01 in1016.3 mb 0.00 in0.0 mm 0.00 in0.0 mm 0.00 in0.0 mm
07:43 AM 33.2°F0.7°C 9.6°F-12.4°C 37% 5.0 mph WNW8.0 kmh WNW -- 30.01 in1016.3 mb 0.00 in0.0 mm 0.00 in0.0 mm 0.00 in0.0 mm
07:44 AM 33.2°F0.7°C 9.6°F-12.4°C 37% 5.0 mph NW8.0 kmh NW -- 30.01 in1016.3 mb 0.00 in0.0 mm 0.00 in0.0 mm 0.00 in0.0 mm
07:45 AM 33.2°F0.7°C 9.6°F-12.4°C 37% 4.0 mph WNW6.4 kmh WNW -- 30.01 in1016.3 mb 0.00 in0.0 mm 0.00 in0.0 mm 0.00 in0.0 mm
07:46 AM 33.0°F0.6°C 9.4°F-12.6°C 37% 5.0 mph W8.0 kmh W -- 30.01 in1016.3 mb 0.00 in0.0 mm 0.00 in0.0 mm 0.00 in0.0 mm
07:47 AM 33.0°F0.6°C 9.4°F-12.6°C 37% 4.0 mph NW6.4 kmh NW -- 30.00 in1015.9 mb 0.00 in0.0 mm 0.00 in0.0 mm 0.00 in0.0 mm
07:48 AM 33.0°F0.6°C 9.4°F-12.6°C 37% 4.0 mph NNW6.4 kmh NNW -- 30.01 in1016.3 mb 0.00 in0.0 mm 0.00 in0.0 mm 0.00 in0.0 mm
07:49 AM 32.9°F0.5°C 9.2°F-12.7°C 37% 3.0 mph NW4.8 kmh NW -- 30.01 in1016.3 mb 0.00 in0.0 mm 0.00 in0.0 mm 0.00 in0.0 mm
07:50 AM 32.9°F0.5°C 10.4°F-12.0°C 39% 3.0 mph NW4.8 kmh NW -- 30.01 in1016.3 mb 0.00 in0.0 mm 0.00 in0.0 mm 0.00 in0.0 mm
07:51 AM 32.9°F0.5°C 10.4°F-12.0°C 39% 4.0 mph WNW6.4 kmh WNW -- 30.01 in1016.3 mb 0.00 in0.0 mm 0.00 in0.0 mm 0.00 in0.0 mm
07:52 AM 32.6°F0.3°C 10.1°F-12.2°C 39% 3.0 mph WNW4.8 kmh WNW -- 30.01 in1016.3 mb 0.00 in0.0 mm 0.00 in0.0 mm 0.00 in0.0 mm
07:53 AM 32.6°F0.3°C 10.1°F-12.2°C 39% 4.0 mph 6.4 kmh -- 30.01 in1016.3 mb 0.00 in0.0 mm 0.00 in0.0 mm 0.00 in0.0 mm
07:54 AM 32.6°F0.3°C 10.1°F-12.2°C 39% 5.0 mph W8.0 kmh W -- 30.01 in1016.3 mb 0.00 in0.0 mm 0.00 in0.0 mm 0.00 in0.0 mm
07:55 AM 32.6°F0.3°C 10.1°F-12.2°C 39% 5.0 mph WNW8.0 kmh WNW -- 30.01 in1016.3 mb 0.00 in0.0 mm 0.00 in0.0 mm 0.00 in0.0 mm
07:56 AM 32.6°F0.3°C 10.1°F-12.2°C 39% 5.0 mph W8.0 kmh W -- 30.01 in1016.3 mb 0.00 in0.0 mm 0.00 in0.0 mm 0.00 in0.0 mm
07:57 AM 32.9°F0.5°C 10.4°F-12.0°C 39% 5.0 mph WNW8.0 kmh WNW -- 30.01 in1016.3 mb 0.00 in0.0 mm 0.00 in0.0 mm 0.00 in0.0 mm
07:58 AM 33.0°F0.6°C 10.6°F-11.9°C 39% 6.0 mph W9.7 kmh W -- 30.01 in1016.3 mb 0.00 in0.0 mm 0.00 in0.0 mm 0.00 in0.0 mm
07:59 AM 33.0°F0.6°C 10.6°F-11.9°C 39% 6.0 mph WNW9.7 kmh WNW -- 30.01 in1016.3 mb 0.00 in0.0 mm 0.00 in0.0 mm 0.00 in0.0 mm
08:00 AM 33.0°F0.6°C 10.6°F-11.9°C 39% 6.0 mph W9.7 kmh W -- 30.01 in1016.3 mb 0.00 in0.0 mm 0.00 in0.0 mm 0.00 in0.0 mm
08:01 AM 33.2°F0.7°C 10.7°F-11.8°C 39% 6.0 mph WNW9.7 kmh WNW -- 30.01 in1016.3 mb 0.00 in0.0 mm 0.00 in0.0 mm 0.00 in0.0 mm
08:02 AM 33.4°F0.8°C 10.9°F-11.7°C 39% 7.0 mph W11.3 kmh W -- 30.01 in1016.3 mb 0.00 in0.0 mm 0.00 in0.0 mm 0.00 in0.0 mm
08:03 AM 33.4°F0.8°C 10.9°F-11.7°C 39% 5.0 mph W8.0 kmh W -- 30.01 in1016.3 mb 0.00 in0.0 mm 0.00 in0.0 mm 0.00 in0.0 mm
08:04 AM 33.5°F0.8°C 10.9°F-11.7°C 39% 7.0 mph W11.3 kmh W -- 30.01 in1016.3 mb 0.00 in0.0 mm 0.00 in0.0 mm 0.00 in0.0 mm
08:05 AM 33.5°F0.8°C 10.9°F-11.7°C 39% 6.0 mph WNW9.7 kmh WNW -- 30.01 in1016.3 mb 0.00 in0.0 mm 0.00 in0.0 mm 0.00 in0.0 mm
08:06 AM 33.5°F0.8°C 10.9°F-11.7°C 39% 7.0 mph WNW11.3 kmh WNW -- 30.01 in1016.3 mb 0.00 in0.0 mm 0.00 in0.0 mm 0.00 in0.0 mm
08:07 AM 33.5°F0.8°C 10.9°F-11.7°C 39% 5.0 mph W8.0 kmh W -- 30.01 in1016.3 mb 0.00 in0.0 mm 0.00 in0.0 mm 0.00 in0.0 mm
08:09 AM 33.5°F0.8°C 10.9°F-11.7°C 39% 7.0 mph WNW11.3 kmh WNW -- 30.01 in1016.3 mb 0.00 in0.0 mm 0.00 in0.0 mm 0.00 in0.0 mm
08:10 AM 33.8°F1.0°C 10.0°F-12.2°C 37% 7.0 mph W11.3 kmh W -- 30.01 in1016.3 mb 0.00 in0.0 mm 0.00 in0.0 mm 0.00 in0.0 mm
08:11 AM 33.8°F1.0°C 10.0°F-12.2°C 37% 6.0 mph WNW9.7 kmh WNW -- 30.01 in1016.3 mb 0.00 in0.0 mm 0.00 in0.0 mm 0.00 in0.0 mm
08:12 AM 34.2°F1.2°C 10.4°F-12.0°C 37% 6.0 mph WNW9.7 kmh WNW -- 30.01 in1016.3 mb 0.00 in0.0 mm 0.00 in0.0 mm 0.00 in0.0 mm
08:13 AM 34.2°F1.2°C 10.4°F-12.0°C 37% 4.0 mph NW6.4 kmh NW -- 30.01 in1016.3 mb 0.00 in0.0 mm 0.00 in0.0 mm 0.00 in0.0 mm
08:14 AM 34.2°F1.2°C 10.4°F-12.0°C 37% 5.0 mph WNW8.0 kmh WNW -- 30.01 in1016.3 mb 0.00 in0.0 mm 0.00 in0.0 mm 0.00 in0.0 mm
08:15 AM 34.2°F1.2°C 10.4°F-12.0°C 37% 6.0 mph WNW9.7 kmh WNW -- 30.01 in1016.3 mb 0.00 in0.0 mm 0.00 in0.0 mm 0.00 in0.0 mm
08:16 AM 34.2°F1.2°C 10.4°F-12.0°C 37% 5.0 mph W8.0 kmh W -- 30.01 in1016.3 mb 0.00 in0.0 mm 0.00 in0.0 mm 0.00 in0.0 mm
08:17 AM 34.2°F1.2°C 10.4°F-12.0°C 37% 4.0 mph NNW6.4 kmh NNW -- 30.01 in1016.3 mb 0.00 in0.0 mm 0.00 in0.0 mm 0.00 in0.0 mm
08:18 AM 34.5°F1.4°C 10.7°F-11.8°C 37% 6.0 mph W9.7 kmh W -- 30.01 in1016.3 mb 0.00 in0.0 mm 0.00 in0.0 mm 0.00 in0.0 mm
08:19 AM 34.7°F1.5°C 10.9°F-11.7°C 37% 6.0 mph W9.7 kmh W -- 30.02 in1016.6 mb 0.00 in0.0 mm 0.00 in0.0 mm 0.00 in0.0 mm
08:20 AM 34.7°F1.5°C 10.9°F-11.7°C 37% 5.0 mph WNW8.0 kmh WNW -- 30.02 in1016.6 mb 0.00 in0.0 mm 0.00 in0.0 mm 0.00 in0.0 mm
08:21 AM 34.9°F1.6°C 11.0°F-11.7°C 37% 6.0 mph NW9.7 kmh NW -- 30.02 in1016.6 mb 0.00 in0.0 mm 0.00 in0.0 mm 0.00 in0.0 mm
08:22 AM 34.9°F1.6°C 11.0°F-11.7°C 37% 4.0 mph WNW6.4 kmh WNW -- 30.01 in1016.3 mb 0.00 in0.0 mm 0.00 in0.0 mm 0.00 in0.0 mm
08:23 AM 35.0°F1.7°C 11.2°F-11.6°C 37% 4.0 mph WNW6.4 kmh WNW -- 30.01 in1016.3 mb 0.00 in0.0 mm 0.00 in0.0 mm 0.00 in0.0 mm
08:24 AM 35.0°F1.7°C 11.2°F-11.6°C 37% 4.0 mph W6.4 kmh W -- 30.01 in1016.3 mb 0.00 in0.0 mm 0.00 in0.0 mm 0.00 in0.0 mm
08:25 AM 35.0°F1.7°C 11.2°F-11.6°C 37% 7.0 mph W11.3 kmh W -- 30.01 in1016.3 mb 0.00 in0.0 mm 0.00 in0.0 mm 0.00 in0.0 mm
08:26 AM 35.1°F1.7°C 11.2°F-11.6°C 37% 5.0 mph W8.0 kmh W -- 30.01 in1016.3 mb 0.00 in0.0 mm 0.00 in0.0 mm 0.00 in0.0 mm
08:27 AM 35.1°F1.7°C 11.2°F-11.6°C 37% 4.0 mph NW6.4 kmh NW -- 30.01 in1016.3 mb 0.00 in0.0 mm 0.00 in0.0 mm 0.00 in0.0 mm
08:28 AM 35.1°F1.7°C 11.2°F-11.6°C 37% 5.0 mph NW8.0 kmh NW -- 30.02 in1016.6 mb 0.00 in0.0 mm 0.00 in0.0 mm 0.00 in0.0 mm
08:29 AM 35.4°F1.9°C 11.5°F-11.4°C 37% 6.0 mph W9.7 kmh W -- 30.02 in1016.6 mb 0.00 in0.0 mm 0.00 in0.0 mm 0.00 in0.0 mm
08:30 AM 35.5°F1.9°C 11.5°F-11.4°C 37% 7.0 mph WNW11.3 kmh WNW -- 30.02 in1016.6 mb 0.00 in0.0 mm 0.00 in0.0 mm 0.00 in0.0 mm
08:31 AM 35.7°F2.1°C 11.8°F-11.2°C 37% 6.0 mph W9.7 kmh W -- 30.02 in1016.6 mb 0.00 in0.0 mm 0.00 in0.0 mm 0.00 in0.0 mm
08:32 AM 35.7°F2.1°C 11.8°F-11.2°C 37% 6.0 mph NNW9.7 kmh NNW -- 30.02 in1016.6 mb 0.00 in0.0 mm 0.00 in0.0 mm 0.00 in0.0 mm
08:33 AM 35.7°F2.1°C 11.8°F-11.2°C 37% 6.0 mph WNW9.7 kmh WNW -- 30.02 in1016.6 mb 0.00 in0.0 mm 0.00 in0.0 mm 0.00 in0.0 mm
08:34 AM 36.1°F2.3°C 10.9°F-11.7°C 35% 8.0 mph WNW12.9 kmh WNW -- 30.02 in1016.6 mb 0.00 in0.0 mm 0.00 in0.0 mm 0.00 in0.0 mm
08:35 AM 36.2°F2.3°C 10.9°F-11.7°C 35% 6.0 mph W9.7 kmh W -- 30.02 in1016.6 mb 0.00 in0.0 mm 0.00 in0.0 mm 0.00 in0.0 mm
08:36 AM 36.2°F2.3°C 10.9°F-11.7°C 35% 7.0 mph NW11.3 kmh NW -- 30.02 in1016.6 mb 0.00 in0.0 mm 0.00 in0.0 mm 0.00 in0.0 mm
08:37 AM 36.5°F2.5°C 11.2°F-11.6°C 35% 6.0 mph WNW9.7 kmh WNW -- 30.01 in1016.3 mb 0.00 in0.0 mm 0.00 in0.0 mm 0.00 in0.0 mm
08:38 AM 36.5°F2.5°C 11.2°F-11.6°C 35% 6.0 mph WNW9.7 kmh WNW -- 30.02 in1016.6 mb 0.00 in0.0 mm 0.00 in0.0 mm 0.00 in0.0 mm
08:41 AM 36.5°F2.5°C 11.2°F-11.6°C 35% 5.0 mph WNW8.0 kmh WNW -- 30.02 in1016.6 mb 0.00 in0.0 mm 0.00 in0.0 mm 0.00 in0.0 mm
08:42 AM 36.7°F2.6°C 11.4°F-11.4°C 35% 6.0 mph WNW9.7 kmh WNW -- 30.02 in1016.6 mb 0.00 in0.0 mm 0.00 in0.0 mm 0.00 in0.0 mm
08:43 AM 36.7°F2.6°C 11.4°F-11.4°C 35% 3.0 mph NNW4.8 kmh NNW -- 30.02 in1016.6 mb 0.00 in0.0 mm 0.00 in0.0 mm 0.00 in0.0 mm
08:44 AM 36.5°F2.5°C 11.2°F-11.6°C 35% 4.0 mph W6.4 kmh W -- 30.02 in1016.6 mb 0.00 in0.0 mm 0.00 in0.0 mm 0.00 in0.0 mm
08:45 AM 36.5°F2.5°C 11.2°F-11.6°C 35% 5.0 mph NNW8.0 kmh NNW -- 30.02 in1016.6 mb 0.00 in0.0 mm 0.00 in0.0 mm 0.00 in0.0 mm
08:46 AM 36.9°F2.7°C 11.5°F-11.4°C 35% 5.0 mph NNW8.0 kmh NNW -- 30.02 in1016.6 mb 0.00 in0.0 mm 0.00 in0.0 mm 0.00 in0.0 mm
08:47 AM 36.9°F2.7°C 11.5°F-11.4°C 35% 4.0 mph W6.4 kmh W -- 30.02 in1016.6 mb 0.00 in0.0 mm 0.00 in0.0 mm 0.00 in0.0 mm
08:48 AM 36.9°F2.7°C 11.5°F-11.4°C 35% 6.0 mph NW9.7 kmh NW -- 30.02 in1016.6 mb 0.00 in0.0 mm 0.00 in0.0 mm 0.00 in0.0 mm
08:49 AM 37.0°F2.8°C 11.7°F-11.3°C 35% 4.0 mph WNW6.4 kmh WNW -- 30.02 in1016.6 mb 0.00 in0.0 mm 0.00 in0.0 mm 0.00 in0.0 mm
08:50 AM 37.0°F2.8°C 11.7°F-11.3°C 35% 4.0 mph WNW6.4 kmh WNW -- 30.01 in1016.3 mb 0.00 in0.0 mm 0.00 in0.0 mm 0.00 in0.0 mm
08:51 AM 37.2°F2.9°C 11.8°F-11.2°C 35% 5.0 mph WNW8.0 kmh WNW -- 30.01 in1016.3 mb 0.00 in0.0 mm 0.00 in0.0 mm 0.00 in0.0 mm
08:52 AM 37.2°F2.9°C 11.8°F-11.2°C 35% 6.0 mph WNW9.7 kmh WNW -- 30.02 in1016.6 mb 0.00 in0.0 mm 0.00 in0.0 mm 0.00 in0.0 mm
08:53 AM 37.5°F3.1°C 12.2°F-11.0°C 35% 6.0 mph WNW9.7 kmh WNW -- 30.02 in1016.6 mb 0.00 in0.0 mm 0.00 in0.0 mm 0.00 in0.0 mm
08:54 AM 37.7°F3.2°C 12.3°F-10.9°C 35% 5.0 mph WNW8.0 kmh WNW -- 30.02 in1016.6 mb 0.00 in0.0 mm 0.00 in0.0 mm 0.00 in0.0 mm
08:55 AM 37.8°F3.2°C 12.3°F-10.9°C 35% 6.0 mph NW9.7 kmh NW -- 30.02 in1016.6 mb 0.00 in0.0 mm 0.00 in0.0 mm 0.00 in0.0 mm
08:56 AM 37.8°F3.2°C 12.3°F-10.9°C 35% 5.0 mph WNW8.0 kmh WNW -- 30.02 in1016.6 mb 0.00 in0.0 mm 0.00 in0.0 mm 0.00 in0.0 mm
08:57 AM 38.0°F3.3°C 12.5°F-10.8°C 35% 5.0 mph W8.0 kmh W -- 30.02 in1016.6 mb 0.00 in0.0 mm 0.00 in0.0 mm 0.00 in0.0 mm
08:58 AM 38.2°F3.4°C 12.0°F-11.1°C 34% 7.0 mph WNW11.3 kmh WNW -- 30.02 in1016.6 mb 0.00 in0.0 mm 0.00 in0.0 mm 0.00 in0.0 mm
08:59 AM 38.2°F3.4°C 12.0°F-11.1°C 34% 5.0 mph W8.0 kmh W -- 30.02 in1016.6 mb 0.00 in0.0 mm 0.00 in0.0 mm 0.00 in0.0 mm
09:00 AM 38.4°F3.6°C 12.3°F-10.9°C 34% 7.0 mph NW11.3 kmh NW -- 30.02 in1016.6 mb 0.00 in0.0 mm 0.00 in0.0 mm 0.00 in0.0 mm
09:01 AM 38.4°F3.6°C 12.3°F-10.9°C 34% 5.0 mph WNW8.0 kmh WNW -- 30.02 in1016.6 mb 0.00 in0.0 mm 0.00 in0.0 mm 0.00 in0.0 mm
09:02 AM 38.7°F3.7°C 12.5°F-10.8°C 34% 6.0 mph WNW9.7 kmh WNW -- 30.02 in1016.6 mb 0.00 in0.0 mm 0.00 in0.0 mm 0.00 in0.0 mm
09:03 AM 38.7°F3.7°C 11.1°F-11.6°C 32% 5.0 mph NW8.0 kmh NW -- 30.03 in1016.9 mb 0.00 in0.0 mm 0.00 in0.0 mm 0.00 in0.0 mm
09:04 AM 38.7°F3.7°C 11.1°F-11.6°C 32% 6.0 mph WNW9.7 kmh WNW -- 30.02 in1016.6 mb 0.00 in0.0 mm 0.00 in0.0 mm 0.00 in0.0 mm
09:05 AM 39.0°F3.9°C 11.4°F-11.4°C 32% 5.0 mph W8.0 kmh W -- 30.02 in1016.6 mb 0.00 in0.0 mm 0.00 in0.0 mm 0.00 in0.0 mm
09:06 AM 39.2°F4.0°C 11.6°F-11.3°C 32% 6.0 mph WNW9.7 kmh WNW -- 30.02 in1016.6 mb 0.00 in0.0 mm 0.00 in0.0 mm 0.00 in0.0 mm
09:07 AM 39.4°F4.1°C 11.7°F-11.3°C 32% 4.0 mph W6.4 kmh W -- 30.02 in1016.6 mb 0.00 in0.0 mm 0.00 in0.0 mm 0.00 in0.0 mm
09:08 AM 39.4°F4.1°C 11.7°F-11.3°C 32% 6.0 mph NW9.7 kmh NW -- 30.02 in1016.6 mb 0.00 in0.0 mm 0.00 in0.0 mm 0.00 in0.0 mm
09:09 AM 39.5°F4.2°C 11.9°F-11.2°C 32% 6.0 mph W9.7 kmh W -- 30.02 in1016.6 mb 0.00 in0.0 mm 0.00 in0.0 mm 0.00 in0.0 mm
09:10 AM 39.5°F4.2°C 11.9°F-11.2°C 32% 5.0 mph W8.0 kmh W -- 30.02 in1016.6 mb 0.00 in0.0 mm 0.00 in0.0 mm 0.00 in0.0 mm
09:11 AM 39.7°F4.3°C 12.1°F-11.1°C 32% 6.0 mph W9.7 kmh W -- 30.02 in1016.6 mb 0.00 in0.0 mm 0.00 in0.0 mm 0.00 in0.0 mm
09:12 AM 40.0°F4.4°C 11.5°F-11.4°C 31% 6.0 mph WNW9.7 kmh WNW -- 30.03 in1016.9 mb 0.00 in0.0 mm 0.00 in0.0 mm 0.00 in0.0 mm
09:13 AM 40.2°F4.6°C 11.8°F-11.2°C 31% 4.0 mph W6.4 kmh W -- 30.03 in1016.9 mb 0.00 in0.0 mm 0.00 in0.0 mm 0.00 in0.0 mm
09:14 AM 40.2°F4.6°C 11.8°F-11.2°C 31% 5.0 mph NNW8.0 kmh NNW -- 30.02 in1016.6 mb 0.00 in0.0 mm 0.00 in0.0 mm 0.00 in0.0 mm
09:15 AM 40.2°F4.6°C 11.8°F-11.2°C 31% 5.0 mph W8.0 kmh W -- 30.02 in1016.6 mb 0.00 in0.0 mm 0.00 in0.0 mm 0.00 in0.0 mm
09:17 AM 40.5°F4.7°C 12.0°F-11.1°C 31% 5.0 mph W8.0 kmh W -- 30.03 in1016.9 mb 0.00 in0.0 mm 0.00 in0.0 mm 0.00 in0.0 mm
09:18 AM 40.7°F4.8°C 11.4°F-11.4°C 30% 5.0 mph W8.0 kmh W -- 30.03 in1016.9 mb 0.00 in0.0 mm 0.00 in0.0 mm 0.00 in0.0 mm
09:19 AM 40.7°F4.8°C 11.4°F-11.4°C 30% 6.0 mph W9.7 kmh W -- 30.03 in1016.9 mb 0.00 in0.0 mm 0.00 in0.0 mm 0.00 in0.0 mm
09:20 AM 40.7°F4.8°C 11.4°F-11.4°C 30% 5.0 mph W8.0 kmh W -- 30.03 in1016.9 mb 0.00 in0.0 mm 0.00 in0.0 mm 0.00 in0.0 mm
09:21 AM 40.7°F4.8°C 11.4°F-11.4°C 30% 4.0 mph WNW6.4 kmh WNW -- 30.03 in1016.9 mb 0.00 in0.0 mm 0.00 in0.0 mm 0.00 in0.0 mm
09:22 AM 40.7°F4.8°C 11.4°F-11.4°C 30% 5.0 mph 8.0 kmh -- 30.03 in1016.9 mb 0.00 in0.0 mm 0.00 in0.0 mm 0.00 in0.0 mm
09:23 AM 41.1°F5.1°C 11.9°F-11.2°C 30% 7.0 mph WNW11.3 kmh WNW -- 30.03 in1016.9 mb 0.00 in0.0 mm 0.00 in0.0 mm 0.00 in0.0 mm
09:24 AM 41.4°F5.2°C 12.0°F-11.1°C 30% 4.0 mph NNW6.4 kmh NNW -- 30.03 in1016.9 mb 0.00 in0.0 mm 0.00 in0.0 mm 0.00 in0.0 mm
09:25 AM 41.1°F5.1°C 11.9°F-11.2°C 30% 4.0 mph 6.4 kmh -- 30.03 in1016.9 mb 0.00 in0.0 mm 0.00 in0.0 mm 0.00 in0.0 mm
09:26 AM 41.1°F5.1°C 11.9°F-11.2°C 30% 5.0 mph W8.0 kmh W -- 30.03 in1016.9 mb 0.00 in0.0 mm 0.00 in0.0 mm 0.00 in0.0 mm
09:27 AM 41.1°F5.1°C 11.9°F-11.2°C 30% 4.0 mph WNW6.4 kmh WNW -- 30.03 in1016.9 mb 0.00 in0.0 mm 0.00 in0.0 mm 0.00 in0.0 mm
09:28 AM 41.1°F5.1°C 11.9°F-11.2°C 30% 4.0 mph NW6.4 kmh NW -- 30.03 in1016.9 mb 0.00 in0.0 mm 0.00 in0.0 mm 0.00 in0.0 mm
09:29 AM 41.4°F5.2°C 12.0°F-11.1°C 30% 5.0 mph NNW8.0 kmh NNW -- 30.03 in1016.9 mb 0.00 in0.0 mm 0.00 in0.0 mm 0.00 in0.0 mm
09:30 AM 41.7°F5.4°C 12.3°F-10.9°C 30% 4.0 mph NNW6.4 kmh NNW -- 30.03 in1016.9 mb 0.00 in0.0 mm 0.00 in0.0 mm 0.00 in0.0 mm
09:31 AM 41.9°F5.5°C 12.5°F-10.8°C 30% 4.0 mph NNW6.4 kmh NNW -- 30.03 in1016.9 mb 0.00 in0.0 mm 0.00 in0.0 mm 0.00 in0.0 mm
09:32 AM 41.9°F5.5°C 12.5°F-10.8°C 30% 4.0 mph WNW6.4 kmh WNW -- 30.03 in1016.9 mb 0.00 in0.0 mm 0.00 in0.0 mm 0.00 in0.0 mm
09:33 AM 42.1°F5.6°C 12.6°F-10.8°C 30% 5.0 mph WNW8.0 kmh WNW -- 30.03 in1016.9 mb 0.00 in0.0 mm 0.00 in0.0 mm 0.00 in0.0 mm
09:34 AM 42.3°F5.7°C 12.8°F-10.7°C 30% 4.0 mph WNW6.4 kmh WNW -- 30.03 in1016.9 mb 0.00 in0.0 mm 0.00 in0.0 mm 0.00 in0.0 mm
09:35 AM 42.3°F5.7°C 12.8°F-10.7°C 30% 4.0 mph NW6.4 kmh NW -- 30.03 in1016.9 mb 0.00 in0.0 mm 0.00 in0.0 mm 0.00 in0.0 mm
09:36 AM 42.3°F5.7°C 12.8°F-10.7°C 30% 5.0 mph NNW8.0 kmh NNW -- 30.03 in1016.9 mb 0.00 in0.0 mm 0.00 in0.0 mm 0.00 in0.0 mm
09:37 AM 42.4°F5.8°C 13.0°F-10.6°C 30% 4.0 mph NNW6.4 kmh NNW -- 30.03 in1016.9 mb 0.00 in0.0 mm 0.00 in0.0 mm 0.00 in0.0 mm
09:38 AM 42.5°F5.8°C 13.0°F-10.6°C 30% 7.0 mph NNW11.3 kmh NNW -- 30.03 in1016.9 mb 0.00 in0.0 mm 0.00 in0.0 mm 0.00 in0.0 mm
09:39 AM 43.2°F6.2°C 13.6°F-10.2°C 30% 6.0 mph NW9.7 kmh NW -- 30.02 in1016.6 mb 0.00 in0.0 mm 0.00 in0.0 mm 0.00 in0.0 mm
09:40 AM 43.2°F6.2°C 13.6°F-10.2°C 30% 6.0 mph W9.7 kmh W -- 30.02 in1016.6 mb 0.00 in0.0 mm 0.00 in0.0 mm 0.00 in0.0 mm
09:41 AM 43.2°F6.2°C 13.6°F-10.2°C 30% 7.0 mph NW11.3 kmh NW -- 30.02 in1016.6 mb 0.00 in0.0 mm 0.00 in0.0 mm 0.00 in0.0 mm
09:42 AM 43.2°F6.2°C 13.6°F-10.2°C 30% 4.0 mph NW6.4 kmh NW -- 30.02 in1016.6 mb 0.00 in0.0 mm 0.00 in0.0 mm 0.00 in0.0 mm
09:43 AM 43.2°F6.2°C 12.8°F-10.7°C 29% 5.0 mph WNW8.0 kmh WNW -- 30.03 in1016.9 mb 0.00 in0.0 mm 0.00 in0.0 mm 0.00 in0.0 mm
09:44 AM 43.2°F6.2°C 12.8°F-10.7°C 29% 4.0 mph WNW6.4 kmh WNW -- 30.03 in1016.9 mb 0.00 in0.0 mm 0.00 in0.0 mm 0.00 in0.0 mm
09:45 AM 43.4°F6.3°C 13.0°F-10.6°C 29% 4.0 mph W6.4 kmh W -- 30.03 in1016.9 mb 0.00 in0.0 mm 0.00 in0.0 mm 0.00 in0.0 mm
09:46 AM 43.6°F6.4°C 13.1°F-10.5°C 29% 5.0 mph NW8.0 kmh NW -- 30.03 in1016.9 mb 0.00 in0.0 mm 0.00 in0.0 mm 0.00 in0.0 mm
09:47 AM 43.9°F6.6°C 13.4°F-10.3°C 29% 5.0 mph WNW8.0 kmh WNW -- 30.03 in1016.9 mb 0.00 in0.0 mm 0.00 in0.0 mm 0.00 in0.0 mm
09:48 AM 44.2°F6.8°C 12.1°F-11.1°C 27% 4.0 mph W6.4 kmh W -- 30.03 in1016.9 mb 0.00 in0.0 mm 0.00 in0.0 mm 0.00 in0.0 mm
09:49 AM 44.0°F6.7°C 12.0°F-11.1°C 27% 4.0 mph WNW6.4 kmh WNW -- 30.03 in1016.9 mb 0.00 in0.0 mm 0.00 in0.0 mm 0.00 in0.0 mm
09:50 AM 44.0°F6.7°C 12.0°F-11.1°C 27% 6.0 mph WNW9.7 kmh WNW -- 30.03 in1016.9 mb 0.00 in0.0 mm 0.00 in0.0 mm 0.00 in0.0 mm
09:51 AM 44.2°F6.8°C 12.1°F-11.1°C 27% 6.0 mph WNW9.7 kmh WNW -- 30.03 in1016.9 mb 0.00 in0.0 mm 0.00 in0.0 mm 0.00 in0.0 mm
09:52 AM 44.6°F7.0°C 12.5°F-10.8°C 27% 5.0 mph NNW8.0 kmh NNW -- 30.03 in1016.9 mb 0.00 in0.0 mm 0.00 in0.0 mm 0.00 in0.0 mm
09:53 AM 44.8°F7.1°C 12.6°F-10.8°C 27% 6.0 mph NNW9.7 kmh NNW -- 30.03 in1016.9 mb 0.00 in0.0 mm 0.00 in0.0 mm 0.00 in0.0 mm
09:54 AM 45.0°F7.2°C 12.8°F-10.7°C 27% 5.0 mph WNW8.0 kmh WNW -- 30.03 in1016.9 mb 0.00 in0.0 mm 0.00 in0.0 mm 0.00 in0.0 mm
09:55 AM 45.0°F7.2°C 12.8°F-10.7°C 27% 4.0 mph NW6.4 kmh NW -- 30.03 in1016.9 mb 0.00 in0.0 mm 0.00 in0.0 mm 0.00 in0.0 mm
09:56 AM 45.0°F7.2°C 12.8°F-10.7°C 27% 5.0 mph NW8.0 kmh NW -- 30.03 in1016.9 mb 0.00 in0.0 mm 0.00 in0.0 mm 0.00 in0.0 mm
09:57 AM 45.0°F7.2°C 12.8°F-10.7°C 27% 3.0 mph 4.8 kmh -- 30.03 in1016.9 mb 0.00 in0.0 mm 0.00 in0.0 mm 0.00 in0.0 mm
09:58 AM 45.0°F7.2°C 12.8°F-10.7°C 27% 5.0 mph WNW8.0 kmh WNW -- 30.03 in1016.9 mb 0.00 in0.0 mm 0.00 in0.0 mm 0.00 in0.0 mm
09:59 AM 45.5°F7.5°C 13.2°F-10.4°C 27% 4.0 mph WNW6.4 kmh WNW -- 30.03 in1016.9 mb 0.00 in0.0 mm 0.00 in0.0 mm 0.00 in0.0 mm
10:00 AM 45.5°F7.5°C 13.2°F-10.4°C 27% 2.0 mph NNW3.2 kmh NNW -- 30.03 in1016.9 mb 0.00 in0.0 mm 0.00 in0.0 mm 0.00 in0.0 mm
10:01 AM 45.9°F7.7°C 13.5°F-10.3°C 27% 3.0 mph NNW4.8 kmh NNW -- 30.03 in1016.9 mb 0.00 in0.0 mm 0.00 in0.0 mm 0.00 in0.0 mm
10:02 AM 45.9°F7.7°C 11.8°F-11.2°C 25% 3.0 mph NW4.8 kmh NW -- 30.03 in1016.9 mb 0.00 in0.0 mm 0.00 in0.0 mm 0.00 in0.0 mm
10:03 AM 46.4°F8.0°C 12.3°F-10.9°C 25% 5.0 mph 8.0 kmh -- 30.03 in1016.9 mb 0.00 in0.0 mm 0.00 in0.0 mm 0.00 in0.0 mm
10:04 AM 46.7°F8.2°C 11.7°F-11.3°C 24% 5.0 mph NNW8.0 kmh NNW -- 30.03 in1016.9 mb 0.00 in0.0 mm 0.00 in0.0 mm 0.00 in0.0 mm
10:05 AM 46.5°F8.1°C 11.5°F-11.4°C 24% 4.0 mph NNW6.4 kmh NNW -- 30.03 in1016.9 mb 0.00 in0.0 mm 0.00 in0.0 mm 0.00 in0.0 mm
10:06 AM 46.7°F8.2°C 11.7°F-11.3°C 24% 3.0 mph NW4.8 kmh NW -- 30.03 in1016.9 mb 0.00 in0.0 mm 0.00 in0.0 mm 0.00 in0.0 mm
10:07 AM 46.5°F8.1°C 11.5°F-11.4°C 24% 3.0 mph NW4.8 kmh NW -- 30.03 in1016.9 mb 0.00 in0.0 mm 0.00 in0.0 mm 0.00 in0.0 mm
10:08 AM 46.7°F8.2°C 12.6°F-10.8°C 25% 2.0 mph NNW3.2 kmh NNW -- 30.03 in1016.9 mb 0.00 in0.0 mm 0.00 in0.0 mm 0.00 in0.0 mm
10:09 AM 47.1°F8.4°C 12.9°F-10.6°C 25% 3.0 mph NE4.8 kmh NE -- 30.03 in1016.9 mb 0.00 in0.0 mm 0.00 in0.0 mm 0.00 in0.0 mm
10:10 AM 47.3°F8.5°C 12.1°F-11.1°C 24% 3.0 mph NNW4.8 kmh NNW -- 30.03 in1016.9 mb 0.00 in0.0 mm 0.00 in0.0 mm 0.00 in0.0 mm
10:11 AM 47.5°F8.6°C 12.3°F-10.9°C 24% 3.0 mph NW4.8 kmh NW -- 30.03 in1016.9 mb 0.00 in0.0 mm 0.00 in0.0 mm 0.00 in0.0 mm
10:12 AM 47.6°F8.7°C 12.4°F-10.9°C 24% 2.0 mph WNW3.2 kmh WNW -- 30.03 in1016.9 mb 0.00 in0.0 mm 0.00 in0.0 mm 0.00 in0.0 mm
10:13 AM 48.0°F8.9°C 10.8°F-11.8°C 22% 4.0 mph NE6.4 kmh NE -- 30.03 in1016.9 mb 0.00 in0.0 mm 0.00 in0.0 mm 0.00 in0.0 mm
10:14 AM 48.0°F8.9°C 10.8°F-11.8°C 22% 3.0 mph NNW4.8 kmh NNW -- 30.03 in1016.9 mb 0.00 in0.0 mm 0.00 in0.0 mm 0.00 in0.0 mm
10:15 AM 48.0°F8.9°C 10.8°F-11.8°C 22% 5.0 mph 8.0 kmh -- 30.03 in1016.9 mb 0.00 in0.0 mm 0.00 in0.0 mm 0.00 in0.0 mm
10:16 AM 48.0°F8.9°C 10.8°F-11.8°C 22% 3.0 mph 4.8 kmh -- 30.03 in1016.9 mb 0.00 in0.0 mm 0.00 in0.0 mm 0.00 in0.0 mm
10:17 AM 48.2°F9.0°C 10.9°F-11.7°C 22% 5.0 mph NW8.0 kmh NW -- 30.03 in1016.9 mb 0.00 in0.0 mm 0.00 in0.0 mm 0.00 in0.0 mm
10:19 AM 48.0°F8.9°C 10.8°F-11.8°C 22% 4.0 mph 6.4 kmh -- 30.03 in1016.9 mb 0.00 in0.0 mm 0.00 in0.0 mm 0.00 in0.0 mm
10:20 AM 48.0°F8.9°C 10.8°F-11.8°C 22% 4.0 mph NNE6.4 kmh NNE -- 30.03 in1016.9 mb 0.00 in0.0 mm 0.00 in0.0 mm 0.00 in0.0 mm
10:21 AM 48.2°F9.0°C 10.9°F-11.7°C 22% 4.0 mph NW6.4 kmh NW -- 30.03 in1016.9 mb 0.00 in0.0 mm 0.00 in0.0 mm 0.00 in0.0 mm
10:22 AM 48.2°F9.0°C 10.9°F-11.7°C 22% 4.0 mph NNW6.4 kmh NNW -- 30.03 in1016.9 mb 0.00 in0.0 mm 0.00 in0.0 mm 0.00 in0.0 mm
10:23 AM 48.2°F9.0°C 10.9°F-11.7°C 22% 4.0 mph WNW6.4 kmh WNW -- 30.03 in1016.9 mb 0.00 in0.0 mm 0.00 in0.0 mm 0.00 in0.0 mm
10:24 AM 48.2°F9.0°C 10.9°F-11.7°C 22% 4.0 mph NNE6.4 kmh NNE -- 30.03 in1016.9 mb 0.00 in0.0 mm 0.00 in0.0 mm 0.00 in0.0 mm
10:25 AM 48.2°F9.0°C 10.9°F-11.7°C 22% 4.0 mph 6.4 kmh -- 30.03 in1016.9 mb 0.00 in0.0 mm 0.00 in0.0 mm 0.00 in0.0 mm
10:26 AM 48.4°F9.1°C 9.0°F-12.8°C 20% 4.0 mph NNE6.4 kmh NNE -- 30.03 in1016.9 mb 0.00 in0.0 mm 0.00 in0.0 mm 0.00 in0.0 mm
10:27 AM 48.5°F9.2°C 9.1°F-12.7°C 20% 5.0 mph NNE8.0 kmh NNE -- 30.03 in1016.9 mb 0.00 in0.0 mm 0.00 in0.0 mm 0.00 in0.0 mm
10:28 AM 48.6°F9.2°C 9.1°F-12.7°C 20% 4.0 mph NNE6.4 kmh NNE -- 30.03 in1016.9 mb 0.00 in0.0 mm 0.00 in0.0 mm 0.00 in0.0 mm
10:29 AM 48.9°F9.4°C 9.4°F-12.6°C 20% 4.0 mph NNE6.4 kmh NNE -- 30.03 in1016.9 mb 0.00 in0.0 mm 0.00 in0.0 mm 0.00 in0.0 mm
10:30 AM 48.6°F9.2°C 11.2°F-11.6°C 22% 4.0 mph NNE6.4 kmh NNE -- 30.03 in1016.9 mb 0.00 in0.0 mm 0.00 in0.0 mm 0.00 in0.0 mm
10:31 AM 48.6°F9.2°C 11.2°F-11.6°C 22% 3.0 mph 4.8 kmh -- 30.03 in1016.9 mb 0.00 in0.0 mm 0.00 in0.0 mm 0.00 in0.0 mm
10:32 AM 48.9°F9.4°C 11.5°F-11.4°C 22% 4.0 mph NE6.4 kmh NE -- 30.03 in1016.9 mb 0.00 in0.0 mm 0.00 in0.0 mm 0.00 in0.0 mm
10:33 AM 49.2°F9.6°C 11.8°F-11.2°C 22% 5.0 mph NNW8.0 kmh NNW -- 30.03 in1016.9 mb 0.00 in0.0 mm 0.00 in0.0 mm 0.00 in0.0 mm
10:34 AM 49.0°F9.4°C 11.5°F-11.4°C 22% 4.0 mph NNE6.4 kmh NNE -- 30.03 in1016.9 mb 0.00 in0.0 mm 0.00 in0.0 mm 0.00 in0.0 mm
10:35 AM 49.2°F9.6°C 11.8°F-11.2°C 22% 6.0 mph NNE9.7 kmh NNE -- 30.03 in1016.9 mb 0.00 in0.0 mm 0.00 in0.0 mm 0.00 in0.0 mm
10:36 AM 49.2°F9.6°C 11.8°F-11.2°C 22% 3.0 mph 4.8 kmh -- 30.03 in1016.9 mb 0.00 in0.0 mm 0.00 in0.0 mm 0.00 in0.0 mm
10:37 AM 49.2°F9.6°C 11.8°F-11.2°C 22% 4.0 mph NE6.4 kmh NE -- 30.03 in1016.9 mb 0.00 in0.0 mm 0.00 in0.0 mm 0.00 in0.0 mm
10:38 AM 49.2°F9.6°C 11.8°F-11.2°C 22% 4.0 mph NNE6.4 kmh NNE -- 30.03 in1016.9 mb 0.00 in0.0 mm 0.00 in0.0 mm 0.00 in0.0 mm
10:39 AM 49.4°F9.7°C 12.0°F-11.1°C 22% 4.0 mph NE6.4 kmh NE -- 30.03 in1016.9 mb 0.00 in0.0 mm 0.00 in0.0 mm 0.00 in0.0 mm
10:40 AM 49.4°F9.7°C 12.0°F-11.1°C 22% 3.0 mph 4.8 kmh -- 30.03 in1016.9 mb 0.00 in0.0 mm 0.00 in0.0 mm 0.00 in0.0 mm
10:41 AM 49.2°F9.6°C 11.8°F-11.2°C 22% 3.0 mph NNE4.8 kmh NNE -- 30.03 in1016.9 mb 0.00 in0.0 mm 0.00 in0.0 mm 0.00 in0.0 mm
10:42 AM 49.2°F9.6°C 11.8°F-11.2°C 22% 5.0 mph NNE8.0 kmh NNE -- 30.03 in1016.9 mb 0.00 in0.0 mm 0.00 in0.0 mm 0.00 in0.0 mm
10:43 AM 49.8°F9.9°C 10.2°F-12.1°C 20% 4.0 mph NNE6.4 kmh NNE -- 30.03 in1016.9 mb 0.00 in0.0 mm 0.00 in0.0 mm 0.00 in0.0 mm
10:44 AM 50.0°F10.0°C 10.3°F-12.1°C 20% 4.0 mph NE6.4 kmh NE -- 30.03 in1016.9 mb 0.00 in0.0 mm 0.00 in0.0 mm 0.00 in0.0 mm
10:45 AM 49.8°F9.9°C 10.2°F-12.1°C 20% 4.0 mph WNW6.4 kmh WNW -- 30.03 in1016.9 mb 0.00 in0.0 mm 0.00 in0.0 mm 0.00 in0.0 mm
10:46 AM 49.6°F9.8°C 12.1°F-11.1°C 22% 6.0 mph NE9.7 kmh NE -- 30.03 in1016.9 mb 0.00 in0.0 mm 0.00 in0.0 mm 0.00 in0.0 mm
10:47 AM 49.6°F9.8°C 12.1°F-11.1°C 22% 5.0 mph ENE8.0 kmh ENE -- 30.03 in1016.9 mb 0.00 in0.0 mm 0.00 in0.0 mm 0.00 in0.0 mm
10:48 AM 50.1°F10.1°C 12.6°F-10.8°C 22% 5.0 mph NNE8.0 kmh NNE -- 30.03 in1016.9 mb 0.00 in0.0 mm 0.00 in0.0 mm 0.00 in0.0 mm
10:49 AM 50.1°F10.1°C 12.6°F-10.8°C 22% 4.0 mph NNE6.4 kmh NNE -- 30.04 in1017.3 mb 0.00 in0.0 mm 0.00 in0.0 mm 0.00 in0.0 mm
10:50 AM 50.1°F10.1°C 12.6°F-10.8°C 22% 5.0 mph NNE8.0 kmh NNE -- 30.03 in1016.9 mb 0.00 in0.0 mm 0.00 in0.0 mm 0.00 in0.0 mm
10:51 AM 49.8°F9.9°C 12.3°F-10.9°C 22% 4.0 mph NNE6.4 kmh NNE -- 30.03 in1016.9 mb 0.00 in0.0 mm 0.00 in0.0 mm 0.00 in0.0 mm
10:52 AM 49.8°F9.9°C 12.3°F-10.9°C 22% 6.0 mph ENE9.7 kmh ENE -- 30.03 in1016.9 mb 0.00 in0.0 mm 0.00 in0.0 mm 0.00 in0.0 mm
10:53 AM 50.1°F10.1°C 12.6°F-10.8°C 22% 3.0 mph NE4.8 kmh NE -- 30.03 in1016.9 mb 0.00 in0.0 mm 0.00 in0.0 mm 0.00 in0.0 mm
10:54 AM 50.1°F10.1°C 12.6°F-10.8°C 22% 5.0 mph NNE8.0 kmh NNE -- 30.03 in1016.9 mb 0.00 in0.0 mm 0.00 in0.0 mm 0.00 in0.0 mm
10:56 AM 50.0°F10.0°C 12.4°F-10.9°C 22% 7.0 mph NNE11.3 kmh NNE -- 30.03 in1016.9 mb 0.00 in0.0 mm 0.00 in0.0 mm 0.00 in0.0 mm
10:57 AM 49.8°F9.9°C 12.3°F-10.9°C 22% 7.0 mph E11.3 kmh E -- 30.03 in1016.9 mb 0.00 in0.0 mm 0.00 in0.0 mm 0.00 in0.0 mm
10:58 AM 49.6°F9.8°C 12.1°F-11.1°C 22% 7.0 mph NNE11.3 kmh NNE -- 30.03 in1016.9 mb 0.00 in0.0 mm 0.00 in0.0 mm 0.00 in0.0 mm
10:59 AM 50.0°F10.0°C 12.4°F-10.9°C 22% 8.0 mph ENE12.9 kmh ENE -- 30.03 in1016.9 mb 0.00 in0.0 mm 0.00 in0.0 mm 0.00 in0.0 mm
11:00 AM 50.7°F10.4°C 13.1°F-10.5°C 22% 6.0 mph NE9.7 kmh NE -- 30.03 in1016.9 mb 0.00 in0.0 mm 0.00 in0.0 mm 0.00 in0.0 mm
11:01 AM 51.0°F10.6°C 13.4°F-10.3°C 22% 6.0 mph NE9.7 kmh NE -- 30.03 in1016.9 mb 0.00 in0.0 mm 0.00 in0.0 mm 0.00 in0.0 mm
11:02 AM 51.0°F10.6°C 13.4°F-10.3°C 22% 4.0 mph NNE6.4 kmh NNE -- 30.03 in1016.9 mb 0.00 in0.0 mm 0.00 in0.0 mm 0.00 in0.0 mm
11:03 AM 50.3°F10.2°C 12.7°F-10.7°C 22% 4.0 mph ESE6.4 kmh ESE -- 30.03 in1016.9 mb 0.00 in0.0 mm 0.00 in0.0 mm 0.00 in0.0 mm
11:04 AM 50.0°F10.0°C 12.4°F-10.9°C 22% 5.0 mph ENE8.0 kmh ENE -- 30.03 in1016.9 mb 0.00 in0.0 mm 0.00 in0.0 mm 0.00 in0.0 mm
11:05 AM 50.1°F10.1°C 12.6°F-10.8°C 22% 5.0 mph NNE8.0 kmh NNE -- 30.03 in1016.9 mb 0.00 in0.0 mm 0.00 in0.0 mm 0.00 in0.0 mm
11:06 AM 50.0°F10.0°C 12.4°F-10.9°C 22% 4.0 mph NNE6.4 kmh NNE -- 30.03 in1016.9 mb 0.00 in0.0 mm 0.00 in0.0 mm 0.00 in0.0 mm
11:07 AM 50.0°F10.0°C 12.4°F-10.9°C 22% 5.0 mph NNE8.0 kmh NNE -- 30.03 in1016.9 mb 0.00 in0.0 mm 0.00 in0.0 mm 0.00 in0.0 mm
11:08 AM 50.1°F10.1°C 12.6°F-10.8°C 22% 5.0 mph NE8.0 kmh NE -- 30.04 in1017.3 mb 0.00 in0.0 mm 0.00 in0.0 mm 0.00 in0.0 mm
11:09 AM 50.3°F10.2°C 12.7°F-10.7°C 22% 5.0 mph NNE8.0 kmh NNE -- 30.04 in1017.3 mb 0.00 in0.0 mm 0.00 in0.0 mm 0.00 in0.0 mm
11:10 AM 50.3°F10.2°C 12.7°F-10.7°C 22% 7.0 mph NNE11.3 kmh NNE -- 30.04 in1017.3 mb 0.00 in0.0 mm 0.00 in0.0 mm 0.00 in0.0 mm
11:11 AM 50.1°F10.1°C 12.6°F-10.8°C 22% 6.0 mph NE9.7 kmh NE -- 30.04 in1017.3 mb 0.00 in0.0 mm 0.00 in0.0 mm 0.00 in0.0 mm
11:12 AM 50.0°F10.0°C 12.4°F-10.9°C 22% 6.0 mph ENE9.7 kmh ENE -- 30.04 in1017.3 mb 0.00 in0.0 mm 0.00 in0.0 mm 0.00 in0.0 mm
11:13 AM 49.6°F9.8°C 12.1°F-11.1°C 22% 6.0 mph NNW9.7 kmh NNW -- 30.04 in1017.3 mb 0.00 in0.0 mm 0.00 in0.0 mm 0.00 in0.0 mm
11:14 AM 49.6°F9.8°C 12.1°F-11.1°C 22% 4.0 mph 6.4 kmh -- 30.04 in1017.3 mb 0.00 in0.0 mm 0.00 in0.0 mm 0.00 in0.0 mm
11:15 AM 49.6°F9.8°C 12.1°F-11.1°C 22% 8.0 mph NNE12.9 kmh NNE -- 30.04 in1017.3 mb 0.00 in0.0 mm 0.00 in0.0 mm 0.00 in0.0 mm
11:16 AM 49.8°F9.9°C 12.3°F-10.9°C 22% 5.0 mph ENE8.0 kmh ENE -- 30.04 in1017.3 mb 0.00 in0.0 mm 0.00 in0.0 mm 0.00 in0.0 mm
11:17 AM 49.6°F9.8°C 12.1°F-11.1°C 22% 7.0 mph NNE11.3 kmh NNE -- 30.04 in1017.3 mb 0.00 in0.0 mm 0.00 in0.0 mm 0.00 in0.0 mm
11:18 AM 49.8°F9.9°C 12.3°F-10.9°C 22% 7.0 mph NE11.3 kmh NE -- 30.04 in1017.3 mb 0.00 in0.0 mm 0.00 in0.0 mm 0.00 in0.0 mm
11:19 AM 49.8°F9.9°C 12.3°F-10.9°C 22% 4.0 mph NNE6.4 kmh NNE -- 30.04 in1017.3 mb 0.00 in0.0 mm 0.00 in0.0 mm 0.00 in0.0 mm
11:20 AM 49.8°F9.9°C 12.3°F-10.9°C 22% 6.0 mph NNE9.7 kmh NNE -- 30.03 in1016.9 mb 0.00 in0.0 mm 0.00 in0.0 mm 0.00 in0.0 mm
11:21 AM 50.0°F10.0°C 12.4°F-10.9°C 22% 3.0 mph NNE4.8 kmh NNE -- 30.03 in1016.9 mb 0.00 in0.0 mm 0.00 in0.0 mm 0.00 in0.0 mm
11:22 AM 50.3°F10.2°C 12.7°F-10.7°C 22% 3.0 mph E4.8 kmh E -- 30.03 in1016.9 mb 0.00 in0.0 mm 0.00 in0.0 mm 0.00 in0.0 mm
11:23 AM 50.1°F10.1°C 12.6°F-10.8°C 22% 4.0 mph NNW6.4 kmh NNW -- 30.04 in1017.3 mb 0.00 in0.0 mm 0.00 in0.0 mm 0.00 in0.0 mm
11:24 AM 50.3°F10.2°C 12.7°F-10.7°C 22% 8.0 mph NNE12.9 kmh NNE -- 30.03 in1016.9 mb 0.00 in0.0 mm 0.00 in0.0 mm 0.00 in0.0 mm
11:25 AM 50.1°F10.1°C 12.6°F-10.8°C 22% 5.0 mph NNE8.0 kmh NNE -- 30.03 in1016.9 mb 0.00 in0.0 mm 0.00 in0.0 mm 0.00 in0.0 mm
11:26 AM 50.1°F10.1°C 12.6°F-10.8°C 22% 3.0 mph ENE4.8 kmh ENE -- 30.03 in1016.9 mb 0.00 in0.0 mm 0.00 in0.0 mm 0.00 in0.0 mm
11:27 AM 50.1°F10.1°C 12.6°F-10.8°C 22% 4.0 mph WNW6.4 kmh WNW -- 30.04 in1017.3 mb 0.00 in0.0 mm 0.00 in0.0 mm 0.00 in0.0 mm
11:28 AM 50.3°F10.2°C 12.7°F-10.7°C 22% 3.0 mph NNE4.8 kmh NNE -- 30.04 in1017.3 mb 0.00 in0.0 mm 0.00 in0.0 mm 0.00 in0.0 mm
11:29 AM 50.3°F10.2°C 12.7°F-10.7°C 22% 7.0 mph 11.3 kmh -- 30.04 in1017.3 mb 0.00 in0.0 mm 0.00 in0.0 mm 0.00 in0.0 mm
11:30 AM 50.5°F10.3°C 12.9°F-10.6°C 22% 5.0 mph NNE8.0 kmh NNE -- 30.03 in1016.9 mb 0.00 in0.0 mm 0.00 in0.0 mm 0.00 in0.0 mm
11:31 AM 50.3°F10.2°C 12.7°F-10.7°C 22% 4.0 mph NNE6.4 kmh NNE -- 30.03 in1016.9 mb 0.00 in0.0 mm 0.00 in0.0 mm 0.00 in0.0 mm
11:32 AM 50.5°F10.3°C 12.9°F-10.6°C 22% 4.0 mph ENE6.4 kmh ENE -- 30.03 in1016.9 mb 0.00 in0.0 mm 0.00 in0.0 mm 0.00 in0.0 mm
11:33 AM 50.5°F10.3°C 12.9°F-10.6°C 22% 3.0 mph ESE4.8 kmh ESE -- 30.03 in1016.9 mb 0.00 in0.0 mm 0.00 in0.0 mm 0.00 in0.0 mm
11:34 AM 51.0°F10.6°C 13.4°F-10.3°C 22% 4.0 mph NE6.4 kmh NE -- 30.04 in1017.3 mb 0.00 in0.0 mm 0.00 in0.0 mm 0.00 in0.0 mm
11:35 AM 50.9°F10.5°C 13.2°F-10.4°C 22% 6.0 mph NE9.7 kmh NE -- 30.04 in1017.3 mb 0.00 in0.0 mm 0.00 in0.0 mm 0.00 in0.0 mm
11:36 AM 50.5°F10.3°C 12.9°F-10.6°C 22% 4.0 mph NNE6.4 kmh NNE -- 30.04 in1017.3 mb 0.00 in0.0 mm 0.00 in0.0 mm 0.00 in0.0 mm
11:37 AM 50.5°F10.3°C 12.9°F-10.6°C 22% 3.0 mph ENE4.8 kmh ENE -- 30.04 in1017.3 mb 0.00 in0.0 mm 0.00 in0.0 mm 0.00 in0.0 mm
11:38 AM 50.9°F10.5°C 13.2°F-10.4°C 22% 6.0 mph NNE9.7 kmh NNE -- 30.03 in1016.9 mb 0.00 in0.0 mm 0.00 in0.0 mm 0.00 in0.0 mm
11:39 AM 50.9°F10.5°C 13.2°F-10.4°C 22% 5.0 mph ENE8.0 kmh ENE -- 30.03 in1016.9 mb 0.00 in0.0 mm 0.00 in0.0 mm 0.00 in0.0 mm
11:40 AM 50.9°F10.5°C 13.2°F-10.4°C 22% 4.0 mph 6.4 kmh -- 30.04 in1017.3 mb 0.00 in0.0 mm 0.00 in0.0 mm 0.00 in0.0 mm
11:41 AM 50.7°F10.4°C 13.1°F-10.5°C 22% 3.0 mph NNE4.8 kmh NNE -- 30.04 in1017.3 mb 0.00 in0.0 mm 0.00 in0.0 mm 0.00 in0.0 mm
11:42 AM 50.7°F10.4°C 13.1°F-10.5°C 22% 6.0 mph NNW9.7 kmh NNW -- 30.04 in1017.3 mb 0.00 in0.0 mm 0.00 in0.0 mm 0.00 in0.0 mm
11:43 AM 50.5°F10.3°C 12.9°F-10.6°C 22% 6.0 mph NE9.7 kmh NE -- 30.03 in1016.9 mb 0.00 in0.0 mm 0.00 in0.0 mm 0.00 in0.0 mm
11:44 AM 51.0°F10.6°C 13.4°F-10.3°C 22% 6.0 mph E9.7 kmh E -- 30.04 in1017.3 mb 0.00 in0.0 mm 0.00 in0.0 mm 0.00 in0.0 mm
11:45 AM 51.4°F10.8°C 13.7°F-10.2°C 22% 4.0 mph E6.4 kmh E -- 30.03 in1016.9 mb 0.00 in0.0 mm 0.00 in0.0 mm 0.00 in0.0 mm
11:46 AM 51.4°F10.8°C 13.7°F-10.2°C 22% 5.0 mph NNE8.0 kmh NNE -- 30.03 in1016.9 mb 0.00 in0.0 mm 0.00 in0.0 mm 0.00 in0.0 mm
11:47 AM 51.0°F10.6°C 13.4°F-10.3°C 22% 4.0 mph 6.4 kmh -- 30.03 in1016.9 mb 0.00 in0.0 mm 0.00 in0.0 mm 0.00 in0.0 mm
11:48 AM 50.7°F10.4°C 13.1°F-10.5°C 22% 4.0 mph NNE6.4 kmh NNE -- 30.04 in1017.3 mb 0.00 in0.0 mm 0.00 in0.0 mm 0.00 in0.0 mm
11:49 AM 50.5°F10.3°C 12.9°F-10.6°C 22% 6.0 mph NNW9.7 kmh NNW -- 30.04 in1017.3 mb 0.00 in0.0 mm 0.00 in0.0 mm 0.00 in0.0 mm
11:50 AM 50.7°F10.4°C 13.1°F-10.5°C 22% 8.0 mph NNE12.9 kmh NNE -- 30.04 in1017.3 mb 0.00 in0.0 mm 0.00 in0.0 mm 0.00 in0.0 mm
11:51 AM 50.9°F10.5°C 13.2°F-10.4°C 22% 6.0 mph NE9.7 kmh NE -- 30.04 in1017.3 mb 0.00 in0.0 mm 0.00 in0.0 mm 0.00 in0.0 mm
11:52 AM 51.3°F10.7°C 13.5°F-10.3°C 22% 7.0 mph NE11.3 kmh NE -- 30.03 in1016.9 mb 0.00 in0.0 mm 0.00 in0.0 mm 0.00 in0.0 mm
11:53 AM 51.8°F11.0°C 14.0°F-10.0°C 22% 6.0 mph NE9.7 kmh NE -- 30.03 in1016.9 mb 0.00 in0.0 mm 0.00 in0.0 mm 0.00 in0.0 mm
11:54 AM 52.2°F11.2°C 14.3°F-9.8°C 22% 5.0 mph NE8.0 kmh NE -- 30.03 in1016.9 mb 0.00 in0.0 mm 0.00 in0.0 mm 0.00 in0.0 mm
11:55 AM 51.4°F10.8°C 13.7°F-10.2°C 22% 3.0 mph NE4.8 kmh NE -- 30.04 in1017.3 mb 0.00 in0.0 mm 0.00 in0.0 mm 0.00 in0.0 mm
11:56 AM 51.5°F10.8°C 13.7°F-10.2°C 22% 3.0 mph NNE4.8 kmh NNE -- 30.04 in1017.3 mb 0.00 in0.0 mm 0.00 in0.0 mm 0.00 in0.0 mm
11:57 AM 51.3°F10.7°C 13.5°F-10.3°C 22% 6.0 mph ENE9.7 kmh ENE -- 30.04 in1017.3 mb 0.00 in0.0 mm 0.00 in0.0 mm 0.00 in0.0 mm
11:58 AM 50.9°F10.5°C 13.2°F-10.4°C 22% 6.0 mph 9.7 kmh -- 30.03 in1016.9 mb 0.00 in0.0 mm 0.00 in0.0 mm 0.00 in0.0 mm
11:59 AM 50.7°F10.4°C 13.1°F-10.5°C 22% 7.0 mph NE11.3 kmh NE -- 30.03 in1016.9 mb 0.00 in0.0 mm 0.00 in0.0 mm 0.00 in0.0 mm
12:00 PM 51.5°F10.8°C 13.7°F-10.2°C 22% 6.0 mph ENE9.7 kmh ENE -- 30.03 in1016.9 mb 0.00 in0.0 mm 0.00 in0.0 mm 0.00 in0.0 mm
12:01 PM 51.5°F10.8°C 13.7°F-10.2°C 22% 7.0 mph NE11.3 kmh NE -- 30.03 in1016.9 mb 0.00 in0.0 mm 0.00 in0.0 mm 0.00 in0.0 mm
12:02 PM 51.4°F10.8°C 11.5°F-11.4°C 20% 6.0 mph NNE9.7 kmh NNE -- 30.03 in1016.9 mb 0.00 in0.0 mm 0.00 in0.0 mm 0.00 in0.0 mm
12:03 PM 51.3°F10.7°C 11.4°F-11.4°C 20% 5.0 mph ENE8.0 kmh ENE -- 30.04 in1017.3 mb 0.00 in0.0 mm 0.00 in0.0 mm 0.00 in0.0 mm
12:04 PM 51.0°F10.6°C 13.4°F-10.3°C 22% 4.0 mph ESE6.4 kmh ESE -- 30.04 in1017.3 mb 0.00 in0.0 mm 0.00 in0.0 mm 0.00 in0.0 mm
12:05 PM 50.7°F10.4°C 13.1°F-10.5°C 22% 5.0 mph 8.0 kmh -- 30.04 in1017.3 mb 0.00 in0.0 mm 0.00 in0.0 mm 0.00 in0.0 mm
12:06 PM 50.7°F10.4°C 13.1°F-10.5°C 22% 2.0 mph NNE3.2 kmh NNE -- 30.04 in1017.3 mb 0.00 in0.0 mm 0.00 in0.0 mm 0.00 in0.0 mm
12:07 PM 50.3°F10.2°C 12.7°F-10.7°C 22% 3.0 mph ENE4.8 kmh ENE -- 30.03 in1016.9 mb 0.00 in0.0 mm 0.00 in0.0 mm 0.00 in0.0 mm
12:08 PM 50.9°F10.5°C 13.2°F-10.4°C 22% 4.0 mph E6.4 kmh E -- 30.04 in1017.3 mb 0.00 in0.0 mm 0.00 in0.0 mm 0.00 in0.0 mm
12:09 PM 51.0°F10.6°C 13.4°F-10.3°C 22% 6.0 mph E9.7 kmh E -- 30.04 in1017.3 mb 0.00 in0.0 mm 0.00 in0.0 mm 0.00 in0.0 mm
12:10 PM 51.4°F10.8°C 13.7°F-10.2°C 22% 4.0 mph NE6.4 kmh NE -- 30.04 in1017.3 mb 0.00 in0.0 mm 0.00 in0.0 mm 0.00 in0.0 mm
12:11 PM 51.4°F10.8°C 13.7°F-10.2°C 22% 4.0 mph NNE6.4 kmh NNE -- 30.04 in1017.3 mb 0.00 in0.0 mm 0.00 in0.0 mm 0.00 in0.0 mm
12:12 PM 51.8°F11.0°C 14.0°F-10.0°C 22% 6.0 mph NE9.7 kmh NE -- 30.04 in1017.3 mb 0.00 in0.0 mm 0.00 in0.0 mm 0.00 in0.0 mm
12:13 PM 51.9°F11.1°C 12.0°F-11.1°C 20% 5.0 mph ENE8.0 kmh ENE -- 30.03 in1016.9 mb 0.00 in0.0 mm 0.00 in0.0 mm 0.00 in0.0 mm
12:14 PM 51.8°F11.0°C 11.8°F-11.2°C 20% 5.0 mph ESE8.0 kmh ESE -- 30.03 in1016.9 mb 0.00 in0.0 mm 0.00 in0.0 mm 0.00 in0.0 mm
12:15 PM 51.5°F10.8°C 11.5°F-11.4°C 20% 6.0 mph NE9.7 kmh NE -- 30.03 in1016.9 mb 0.00 in0.0 mm 0.00 in0.0 mm 0.00 in0.0 mm
12:16 PM 52.3°F11.3°C 12.3°F-10.9°C 20% 7.0 mph NE11.3 kmh NE -- 30.03 in1016.9 mb 0.00 in0.0 mm 0.00 in0.0 mm 0.00 in0.0 mm
12:17 PM 52.5°F11.4°C 12.4°F-10.9°C 20% 6.0 mph NE9.7 kmh NE -- 30.04 in1017.3 mb 0.00 in0.0 mm 0.00 in0.0 mm 0.00 in0.0 mm
12:18 PM 51.8°F11.0°C 11.8°F-11.2°C 20% 3.0 mph ENE4.8 kmh ENE -- 30.04 in1017.3 mb 0.00 in0.0 mm 0.00 in0.0 mm 0.00 in0.0 mm
12:19 PM 51.3°F10.7°C 13.5°F-10.3°C 22% 3.0 mph 4.8 kmh -- 30.04 in1017.3 mb 0.00 in0.0 mm 0.00 in0.0 mm 0.00 in0.0 mm
12:20 PM 51.3°F10.7°C 13.5°F-10.3°C 22% 3.0 mph ENE4.8 kmh ENE -- 30.04 in1017.3 mb 0.00 in0.0 mm 0.00 in0.0 mm 0.00 in0.0 mm
12:21 PM 51.4°F10.8°C 11.5°F-11.4°C 20% 5.0 mph ENE8.0 kmh ENE -- 30.04 in1017.3 mb 0.00 in0.0 mm 0.00 in0.0 mm 0.00 in0.0 mm
12:22 PM 51.3°F10.7°C 11.4°F-11.4°C 20% 5.0 mph NE8.0 kmh NE -- 30.04 in1017.3 mb 0.00 in0.0 mm 0.00 in0.0 mm 0.00 in0.0 mm
12:23 PM 50.9°F10.5°C 11.1°F-11.6°C 20% 3.0 mph NNE4.8 kmh NNE -- 30.04 in1017.3 mb 0.00 in0.0 mm 0.00 in0.0 mm 0.00 in0.0 mm
12:24 PM 50.7°F10.4°C 10.9°F-11.7°C 20% 5.0 mph NNE8.0 kmh NNE -- 30.03 in1016.9 mb 0.00 in0.0 mm 0.00 in0.0 mm 0.00 in0.0 mm
12:25 PM 50.7°F10.4°C 10.9°F-11.7°C 20% 4.0 mph 6.4 kmh -- 30.04 in1017.3 mb 0.00 in0.0 mm 0.00 in0.0 mm 0.00 in0.0 mm
12:26 PM 51.3°F10.7°C 11.4°F-11.4°C 20% 7.0 mph 11.3 kmh -- 30.04 in1017.3 mb 0.00 in0.0 mm 0.00 in0.0 mm 0.00 in0.0 mm
12:27 PM 51.8°F11.0°C 11.8°F-11.2°C 20% 5.0 mph NNE8.0 kmh NNE -- 30.04 in1017.3 mb 0.00 in0.0 mm 0.00 in0.0 mm 0.00 in0.0 mm
12:28 PM 51.3°F10.7°C 13.5°F-10.3°C 22% 4.0 mph NNE6.4 kmh NNE -- 30.04 in1017.3 mb 0.00 in0.0 mm 0.00 in0.0 mm 0.00 in0.0 mm
12:29 PM 51.0°F10.6°C 13.4°F-10.3°C 22% 3.0 mph NE4.8 kmh NE -- 30.04 in1017.3 mb 0.00 in0.0 mm 0.00 in0.0 mm 0.00 in0.0 mm
12:30 PM 51.0°F10.6°C 13.4°F-10.3°C 22% 3.0 mph NE4.8 kmh NE -- 30.03 in1016.9 mb 0.00 in0.0 mm 0.00 in0.0 mm 0.00 in0.0 mm
12:32 PM 51.0°F10.6°C 13.4°F-10.3°C 22% 6.0 mph ENE9.7 kmh ENE -- 30.03 in1016.9 mb 0.00 in0.0 mm 0.00 in0.0 mm 0.00 in0.0 mm
12:33 PM 51.0°F10.6°C 11.2°F-11.6°C 20% 5.0 mph NNE8.0 kmh NNE -- 30.03 in1016.9 mb 0.00 in0.0 mm 0.00 in0.0 mm 0.00 in0.0 mm
12:34 PM 51.0°F10.6°C 11.2°F-11.6°C 20% 3.0 mph NNW4.8 kmh NNW -- 30.03 in1016.9 mb 0.00 in0.0 mm 0.00 in0.0 mm 0.00 in0.0 mm
12:35 PM 51.0°F10.6°C 11.2°F-11.6°C 20% 4.0 mph NE6.4 kmh NE -- 30.03 in1016.9 mb 0.00 in0.0 mm 0.00 in0.0 mm 0.00 in0.0 mm
12:36 PM 51.3°F10.7°C 11.4°F-11.4°C 20% 5.0 mph NE8.0 kmh NE -- 30.03 in1016.9 mb 0.00 in0.0 mm 0.00 in0.0 mm 0.00 in0.0 mm
12:37 PM 51.0°F10.6°C 11.2°F-11.6°C 20% 5.0 mph 8.0 kmh -- 30.03 in1016.9 mb 0.00 in0.0 mm 0.00 in0.0 mm 0.00 in0.0 mm
12:38 PM 51.3°F10.7°C 11.4°F-11.4°C 20% 5.0 mph NE8.0 kmh NE -- 30.03 in1016.9 mb 0.00 in0.0 mm 0.00 in0.0 mm 0.00 in0.0 mm
12:40 PM 51.0°F10.6°C 11.2°F-11.6°C 20% 3.0 mph NE4.8 kmh NE -- 30.03 in1016.9 mb 0.00 in0.0 mm 0.00 in0.0 mm 0.00 in0.0 mm
12:41 PM 51.0°F10.6°C 11.2°F-11.6°C 20% 6.0 mph NE9.7 kmh NE -- 30.03 in1016.9 mb 0.00 in0.0 mm 0.00 in0.0 mm 0.00 in0.0 mm
12:42 PM 50.9°F10.5°C 11.1°F-11.6°C 20% 5.0 mph NNE8.0 kmh NNE -- 30.03 in1016.9 mb 0.00 in0.0 mm 0.00 in0.0 mm 0.00 in0.0 mm
12:43 PM 50.9°F10.5°C 11.1°F-11.6°C 20% 5.0 mph NE8.0 kmh NE -- 30.03 in1016.9 mb 0.00 in0.0 mm 0.00 in0.0 mm 0.00 in0.0 mm
12:44 PM 50.7°F10.4°C 10.9°F-11.7°C 20% 4.0 mph E6.4 kmh E -- 30.03 in1016.9 mb 0.00 in0.0 mm 0.00 in0.0 mm 0.00 in0.0 mm
12:45 PM 50.7°F10.4°C 10.9°F-11.7°C 20% 5.0 mph ENE8.0 kmh ENE -- 30.03 in1016.9 mb 0.00 in0.0 mm 0.00 in0.0 mm 0.00 in0.0 mm
12:46 PM 51.3°F10.7°C 11.4°F-11.4°C 20% 9.0 mph ENE14.5 kmh ENE -- 30.03 in1016.9 mb 0.00 in0.0 mm 0.00 in0.0 mm 0.00 in0.0 mm
12:47 PM 51.3°F10.7°C 11.4°F-11.4°C 20% 4.0 mph ENE6.4 kmh ENE -- 30.03 in1016.9 mb 0.00 in0.0 mm 0.00 in0.0 mm 0.00 in0.0 mm
12:48 PM 50.9°F10.5°C 11.1°F-11.6°C 20% 6.0 mph NNE9.7 kmh NNE -- 30.03 in1016.9 mb 0.00 in0.0 mm 0.00 in0.0 mm 0.00 in0.0 mm
12:49 PM 50.9°F10.5°C 11.1°F-11.6°C 20% 5.0 mph W8.0 kmh W -- 30.03 in1016.9 mb 0.00 in0.0 mm 0.00 in0.0 mm 0.00 in0.0 mm
12:50 PM 51.0°F10.6°C 11.2°F-11.6°C 20% 6.0 mph NNE9.7 kmh NNE -- 30.03 in1016.9 mb 0.00 in0.0 mm 0.00 in0.0 mm 0.00 in0.0 mm
12:51 PM 51.0°F10.6°C 11.2°F-11.6°C 20% 6.0 mph 9.7 kmh -- 30.03 in1016.9 mb 0.00 in0.0 mm 0.00 in0.0 mm 0.00 in0.0 mm
12:52 PM 51.0°F10.6°C 11.2°F-11.6°C 20% 5.0 mph NNE8.0 kmh NNE -- 30.03 in1016.9 mb 0.00 in0.0 mm 0.00 in0.0 mm 0.00 in0.0 mm
12:53 PM 50.9°F10.5°C 11.1°F-11.6°C 20% 5.0 mph 8.0 kmh -- 30.03 in1016.9 mb 0.00 in0.0 mm 0.00 in0.0 mm 0.00 in0.0 mm
12:54 PM 50.7°F10.4°C 10.9°F-11.7°C 20% 5.0 mph NNE8.0 kmh NNE -- 30.03 in1016.9 mb 0.00 in0.0 mm 0.00 in0.0 mm 0.00 in0.0 mm
12:55 PM 50.9°F10.5°C 11.1°F-11.6°C 20% 7.0 mph 11.3 kmh -- 30.03 in1016.9 mb 0.00 in0.0 mm 0.00 in0.0 mm 0.00 in0.0 mm
12:56 PM 50.7°F10.4°C 10.9°F-11.7°C 20% 4.0 mph NNW6.4 kmh NNW -- 30.03 in1016.9 mb 0.00 in0.0 mm 0.00 in0.0 mm 0.00 in0.0 mm
12:57 PM 50.7°F10.4°C 10.9°F-11.7°C 20% 7.0 mph 11.3 kmh -- 30.02 in1016.6 mb 0.00 in0.0 mm 0.00 in0.0 mm 0.00 in0.0 mm
12:58 PM 51.0°F10.6°C 11.2°F-11.6°C 20% 7.0 mph 11.3 kmh -- 30.03 in1016.9 mb 0.00 in0.0 mm 0.00 in0.0 mm 0.00 in0.0 mm
12:59 PM 51.0°F10.6°C 11.2°F-11.6°C 20% 6.0 mph 9.7 kmh -- 30.03 in1016.9 mb 0.00 in0.0 mm 0.00 in0.0 mm 0.00 in0.0 mm
01:00 PM 50.9°F10.5°C 11.1°F-11.6°C 20% 6.0 mph NE9.7 kmh NE -- 30.02 in1016.6 mb 0.00 in0.0 mm 0.00 in0.0 mm 0.00 in0.0 mm
01:01 PM 50.5°F10.3°C 10.8°F-11.8°C 20% 4.0 mph NNE6.4 kmh NNE -- 30.02 in1016.6 mb 0.00 in0.0 mm 0.00 in0.0 mm 0.00 in0.0 mm
01:02 PM 50.3°F10.2°C 10.6°F-11.9°C 20% 4.0 mph ENE6.4 kmh ENE -- 30.03 in1016.9 mb 0.00 in0.0 mm 0.00 in0.0 mm 0.00 in0.0 mm
01:03 PM 50.5°F10.3°C 10.8°F-11.8°C 20% 6.0 mph NNE9.7 kmh NNE -- 30.02 in1016.6 mb 0.00 in0.0 mm 0.00 in0.0 mm 0.00 in0.0 mm
01:04 PM 50.3°F10.2°C 10.6°F-11.9°C 20% 7.0 mph NNE11.3 kmh NNE -- 30.03 in1016.9 mb 0.00 in0.0 mm 0.00 in0.0 mm 0.00 in0.0 mm
01:05 PM 50.3°F10.2°C 12.7°F-10.7°C 22% 5.0 mph NNE8.0 kmh NNE -- 30.03 in1016.9 mb 0.00 in0.0 mm 0.00 in0.0 mm 0.00 in0.0 mm
01:06 PM 50.3°F10.2°C 12.7°F-10.7°C 22% 6.0 mph 9.7 kmh -- 30.03 in1016.9 mb 0.00 in0.0 mm 0.00 in0.0 mm 0.00 in0.0 mm
01:07 PM 50.1°F10.1°C 12.6°F-10.8°C 22% 4.0 mph 6.4 kmh -- 30.02 in1016.6 mb 0.00 in0.0 mm 0.00 in0.0 mm 0.00 in0.0 mm
01:08 PM 50.3°F10.2°C 12.7°F-10.7°C 22% 8.0 mph NNW12.9 kmh NNW -- 30.02 in1016.6 mb 0.00 in0.0 mm 0.00 in0.0 mm 0.00 in0.0 mm
01:09 PM 50.5°F10.3°C 12.9°F-10.6°C 22% 5.0 mph NNE8.0 kmh NNE -- 30.02 in1016.6 mb 0.00 in0.0 mm 0.00 in0.0 mm 0.00 in0.0 mm
01:10 PM 50.5°F10.3°C 12.9°F-10.6°C 22% 4.0 mph 6.4 kmh -- 30.02 in1016.6 mb 0.00 in0.0 mm 0.00 in0.0 mm 0.00 in0.0 mm
01:11 PM 50.7°F10.4°C 13.1°F-10.5°C 22% 7.0 mph 11.3 kmh -- 30.02 in1016.6 mb 0.00 in0.0 mm 0.00 in0.0 mm 0.00 in0.0 mm
01:12 PM 51.0°F10.6°C 11.2°F-11.6°C 20% 6.0 mph 9.7 kmh -- 30.02 in1016.6 mb 0.00 in0.0 mm 0.00 in0.0 mm 0.00 in0.0 mm
01:13 PM 50.9°F10.5°C 11.1°F-11.6°C 20% 8.0 mph NNE12.9 kmh NNE -- 30.02 in1016.6 mb 0.00 in0.0 mm 0.00 in0.0 mm 0.00 in0.0 mm
01:14 PM 51.4°F10.8°C 11.5°F-11.4°C 20% 8.0 mph NE12.9 kmh NE -- 30.02 in1016.6 mb 0.00 in0.0 mm 0.00 in0.0 mm 0.00 in0.0 mm
01:15 PM 51.5°F10.8°C 11.5°F-11.4°C 20% 6.0 mph NE9.7 kmh NE -- 30.02 in1016.6 mb 0.00 in0.0 mm 0.00 in0.0 mm 0.00 in0.0 mm
01:16 PM 51.4°F10.8°C 11.5°F-11.4°C 20% 6.0 mph E9.7 kmh E -- 30.02 in1016.6 mb 0.00 in0.0 mm 0.00 in0.0 mm 0.00 in0.0 mm
01:17 PM 51.4°F10.8°C 11.5°F-11.4°C 20% 4.0 mph E6.4 kmh E -- 30.02 in1016.6 mb 0.00 in0.0 mm 0.00 in0.0 mm 0.00 in0.0 mm
01:18 PM 51.3°F10.7°C 13.5°F-10.3°C 22% 6.0 mph NE9.7 kmh NE -- 30.02 in1016.6 mb 0.00 in0.0 mm 0.00 in0.0 mm 0.00 in0.0 mm
01:19 PM 51.5°F10.8°C 11.5°F-11.4°C 20% 7.0 mph ESE11.3 kmh ESE -- 30.02 in1016.6 mb 0.00 in0.0 mm 0.00 in0.0 mm 0.00 in0.0 mm
01:20 PM 51.9°F11.1°C 12.0°F-11.1°C 20% 6.0 mph NE9.7 kmh NE -- 30.02 in1016.6 mb 0.00 in0.0 mm 0.00 in0.0 mm 0.00 in0.0 mm
01:21 PM 51.5°F10.8°C 11.5°F-11.4°C 20% 6.0 mph NE9.7 kmh NE -- 30.02 in1016.6 mb 0.00 in0.0 mm 0.00 in0.0 mm 0.00 in0.0 mm
01:22 PM 51.4°F10.8°C 11.5°F-11.4°C 20% 8.0 mph NE12.9 kmh NE -- 30.02 in1016.6 mb 0.00 in0.0 mm 0.00 in0.0 mm 0.00 in0.0 mm
01:23 PM 51.4°F10.8°C 11.5°F-11.4°C 20% 5.0 mph NNE8.0 kmh NNE -- 30.02 in1016.6 mb 0.00 in0.0 mm 0.00 in0.0 mm 0.00 in0.0 mm
01:24 PM 51.4°F10.8°C 11.5°F-11.4°C 20% 6.0 mph ESE9.7 kmh ESE -- 30.02 in1016.6 mb 0.00 in0.0 mm 0.00 in0.0 mm 0.00 in0.0 mm
01:25 PM 50.9°F10.5°C 13.2°F-10.4°C 22% 4.0 mph E6.4 kmh E -- 30.02 in1016.6 mb 0.00 in0.0 mm 0.00 in0.0 mm 0.00 in0.0 mm
01:26 PM 50.7°F10.4°C 13.1°F-10.5°C 22% 4.0 mph E6.4 kmh E -- 30.02 in1016.6 mb 0.00 in0.0 mm 0.00 in0.0 mm 0.00 in0.0 mm
01:27 PM 51.0°F10.6°C 13.4°F-10.3°C 22% 6.0 mph E9.7 kmh E -- 30.01 in1016.3 mb 0.00 in0.0 mm 0.00 in0.0 mm 0.00 in0.0 mm
01:28 PM 51.3°F10.7°C 13.5°F-10.3°C 22% 8.0 mph NE12.9 kmh NE -- 30.01 in1016.3 mb 0.00 in0.0 mm 0.00 in0.0 mm 0.00 in0.0 mm
01:29 PM 51.4°F10.8°C 11.5°F-11.4°C 20% 6.0 mph NNE9.7 kmh NNE -- 30.02 in1016.6 mb 0.00 in0.0 mm 0.00 in0.0 mm 0.00 in0.0 mm
01:30 PM 51.0°F10.6°C 11.2°F-11.6°C 20% 4.0 mph ENE6.4 kmh ENE -- 30.01 in1016.3 mb 0.00 in0.0 mm 0.00 in0.0 mm 0.00 in0.0 mm
01:31 PM 50.7°F10.4°C 13.1°F-10.5°C 22% 6.0 mph NNE9.7 kmh NNE -- 30.01 in1016.3 mb 0.00 in0.0 mm 0.00 in0.0 mm 0.00 in0.0 mm
01:32 PM 50.3°F10.2°C 12.7°F-10.7°C 22% 5.0 mph NNE8.0 kmh NNE -- 30.01 in1016.3 mb 0.00 in0.0 mm 0.00 in0.0 mm 0.00 in0.0 mm
01:33 PM 50.1°F10.1°C 12.6°F-10.8°C 22% 6.0 mph NE9.7 kmh NE -- 30.01 in1016.3 mb 0.00 in0.0 mm 0.00 in0.0 mm 0.00 in0.0 mm
01:34 PM 50.1°F10.1°C 12.6°F-10.8°C 22% 5.0 mph NNE8.0 kmh NNE -- 30.01 in1016.3 mb 0.00 in0.0 mm 0.00 in0.0 mm 0.00 in0.0 mm
01:35 PM 50.1°F10.1°C 12.6°F-10.8°C 22% 4.0 mph NNE6.4 kmh NNE -- 30.01 in1016.3 mb 0.00 in0.0 mm 0.00 in0.0 mm 0.00 in0.0 mm
01:36 PM 50.3°F10.2°C 12.7°F-10.7°C 22% 5.0 mph NE8.0 kmh NE -- 30.01 in1016.3 mb 0.00 in0.0 mm 0.00 in0.0 mm 0.00 in0.0 mm
01:37 PM 50.7°F10.4°C 13.1°F-10.5°C 22% 5.0 mph ENE8.0 kmh ENE -- 30.01 in1016.3 mb 0.00 in0.0 mm 0.00 in0.0 mm 0.00 in0.0 mm
01:38 PM 50.9°F10.5°C 13.2°F-10.4°C 22% 7.0 mph NNE11.3 kmh NNE -- 30.01 in1016.3 mb 0.00 in0.0 mm 0.00 in0.0 mm 0.00 in0.0 mm
01:39 PM 50.7°F10.4°C 13.1°F-10.5°C 22% 5.0 mph E8.0 kmh E -- 30.01 in1016.3 mb 0.00 in0.0 mm 0.00 in0.0 mm 0.00 in0.0 mm
01:40 PM 51.3°F10.7°C 11.4°F-11.4°C 20% 6.0 mph E9.7 kmh E -- 30.01 in1016.3 mb 0.00 in0.0 mm 0.00 in0.0 mm 0.00 in0.0 mm
01:41 PM 51.4°F10.8°C 11.5°F-11.4°C 20% 7.0 mph NE11.3 kmh NE -- 30.01 in1016.3 mb 0.00 in0.0 mm 0.00 in0.0 mm 0.00 in0.0 mm
01:42 PM 50.9°F10.5°C 13.2°F-10.4°C 22% 3.0 mph E4.8 kmh E -- 30.01 in1016.3 mb 0.00 in0.0 mm 0.00 in0.0 mm 0.00 in0.0 mm
01:43 PM 50.3°F10.2°C 12.7°F-10.7°C 22% 4.0 mph ENE6.4 kmh ENE -- 30.01 in1016.3 mb 0.00 in0.0 mm 0.00 in0.0 mm 0.00 in0.0 mm
01:44 PM 50.1°F10.1°C 12.6°F-10.8°C 22% 6.0 mph ENE9.7 kmh ENE -- 30.01 in1016.3 mb 0.00 in0.0 mm 0.00 in0.0 mm 0.00 in0.0 mm
01:45 PM 50.7°F10.4°C 13.1°F-10.5°C 22% 7.0 mph NNE11.3 kmh NNE -- 30.01 in1016.3 mb 0.00 in0.0 mm 0.00 in0.0 mm 0.00 in0.0 mm
01:46 PM 50.7°F10.4°C 13.1°F-10.5°C 22% 6.0 mph ENE9.7 kmh ENE -- 30.01 in1016.3 mb 0.00 in0.0 mm 0.00 in0.0 mm 0.00 in0.0 mm
01:47 PM 50.7°F10.4°C 13.1°F-10.5°C 22% 3.0 mph NE4.8 kmh NE -- 30.01 in1016.3 mb 0.00 in0.0 mm 0.00 in0.0 mm 0.00 in0.0 mm
01:48 PM 50.3°F10.2°C 12.7°F-10.7°C 22% 3.0 mph NE4.8 kmh NE -- 30.01 in1016.3 mb 0.00 in0.0 mm 0.00 in0.0 mm 0.00 in0.0 mm
01:49 PM 50.7°F10.4°C 13.1°F-10.5°C 22% 6.0 mph NE9.7 kmh NE -- 30.01 in1016.3 mb 0.00 in0.0 mm 0.00 in0.0 mm 0.00 in0.0 mm
01:50 PM 50.7°F10.4°C 13.1°F-10.5°C 22% 4.0 mph NE6.4 kmh NE -- 30.01 in1016.3 mb 0.00 in0.0 mm 0.00 in0.0 mm 0.00 in0.0 mm
01:51 PM 50.5°F10.3°C 12.9°F-10.6°C 22% 4.0 mph NNE6.4 kmh NNE -- 30.01 in1016.3 mb 0.00 in0.0 mm 0.00 in0.0 mm 0.00 in0.0 mm
01:52 PM 50.9°F10.5°C 13.2°F-10.4°C 22% 6.0 mph NNE9.7 kmh NNE -- 30.01 in1016.3 mb 0.00 in0.0 mm 0.00 in0.0 mm 0.00 in0.0 mm
01:53 PM 51.0°F10.6°C 11.2°F-11.6°C 20% 2.0 mph ENE3.2 kmh ENE -- 30.01 in1016.3 mb 0.00 in0.0 mm 0.00 in0.0 mm 0.00 in0.0 mm
01:54 PM 50.5°F10.3°C 12.9°F-10.6°C 22% 3.0 mph NE4.8 kmh NE -- 30.01 in1016.3 mb 0.00 in0.0 mm 0.00 in0.0 mm 0.00 in0.0 mm
01:55 PM 50.5°F10.3°C 12.9°F-10.6°C 22% 5.0 mph NE8.0 kmh NE -- 30.01 in1016.3 mb 0.00 in0.0 mm 0.00 in0.0 mm 0.00 in0.0 mm
01:56 PM 50.9°F10.5°C 11.1°F-11.6°C 20% 4.0 mph ESE6.4 kmh ESE -- 30.01 in1016.3 mb 0.00 in0.0 mm 0.00 in0.0 mm 0.00 in0.0 mm
01:57 PM 50.5°F10.3°C 12.9°F-10.6°C 22% 8.0 mph NE12.9 kmh NE -- 30.01 in1016.3 mb 0.00 in0.0 mm 0.00 in0.0 mm 0.00 in0.0 mm
01:58 PM 50.9°F10.5°C 13.2°F-10.4°C 22% 3.0 mph NNE4.8 kmh NNE -- 30.01 in1016.3 mb 0.00 in0.0 mm 0.00 in0.0 mm 0.00 in0.0 mm
01:59 PM 50.1°F10.1°C 12.6°F-10.8°C 22% 6.0 mph NNE9.7 kmh NNE -- 30.01 in1016.3 mb 0.00 in0.0 mm 0.00 in0.0 mm 0.00 in0.0 mm
02:00 PM 50.1°F10.1°C 12.6°F-10.8°C 22% 5.0 mph NE8.0 kmh NE -- 30.01 in1016.3 mb 0.00 in0.0 mm 0.00 in0.0 mm 0.00 in0.0 mm
02:01 PM 50.3°F10.2°C 12.7°F-10.7°C 22% 6.0 mph NE9.7 kmh NE -- 30.01 in1016.3 mb 0.00 in0.0 mm 0.00 in0.0 mm 0.00 in0.0 mm
02:02 PM 50.7°F10.4°C 13.1°F-10.5°C 22% 6.0 mph E9.7 kmh E -- 30.01 in1016.3 mb 0.00 in0.0 mm 0.00 in0.0 mm 0.00 in0.0 mm
02:03 PM 50.9°F10.5°C 13.2°F-10.4°C 22% 6.0 mph E9.7 kmh E -- 30.00 in1015.9 mb 0.00 in0.0 mm 0.00 in0.0 mm 0.00 in0.0 mm
02:04 PM 50.9°F10.5°C 13.2°F-10.4°C 22% 5.0 mph NE8.0 kmh NE -- 30.01 in1016.3 mb 0.00 in0.0 mm 0.00 in0.0 mm 0.00 in0.0 mm
02:05 PM 50.5°F10.3°C 12.9°F-10.6°C 22% 4.0 mph ENE6.4 kmh ENE -- 30.01 in1016.3 mb 0.00 in0.0 mm 0.00 in0.0 mm 0.00 in0.0 mm
02:06 PM 50.0°F10.0°C 14.4°F-9.8°C 24% 5.0 mph NE8.0 kmh NE -- 30.01 in1016.3 mb 0.00 in0.0 mm 0.00 in0.0 mm 0.00 in0.0 mm
02:07 PM 50.0°F10.0°C 14.4°F-9.8°C 24% 5.0 mph E8.0 kmh E -- 30.00 in1015.9 mb 0.00 in0.0 mm 0.00 in0.0 mm 0.00 in0.0 mm
02:08 PM 50.5°F10.3°C 12.9°F-10.6°C 22% 5.0 mph E8.0 kmh E -- 30.00 in1015.9 mb 0.00 in0.0 mm 0.00 in0.0 mm 0.00 in0.0 mm
02:09 PM 50.0°F10.0°C 12.4°F-10.9°C 22% 2.0 mph E3.2 kmh E -- 30.01 in1016.3 mb 0.00 in0.0 mm 0.00 in0.0 mm 0.00 in0.0 mm
02:10 PM 50.0°F10.0°C 12.4°F-10.9°C 22% 3.0 mph ENE4.8 kmh ENE -- 30.01 in1016.3 mb 0.00 in0.0 mm 0.00 in0.0 mm 0.00 in0.0 mm
02:11 PM 50.1°F10.1°C 14.6°F-9.7°C 24% 7.0 mph E11.3 kmh E -- 30.01 in1016.3 mb 0.00 in0.0 mm 0.00 in0.0 mm 0.00 in0.0 mm
02:12 PM 50.5°F10.3°C 14.9°F-9.5°C 24% 5.0 mph NE8.0 kmh NE -- 30.00 in1015.9 mb 0.00 in0.0 mm 0.00 in0.0 mm 0.00 in0.0 mm
02:13 PM 50.5°F10.3°C 14.9°F-9.5°C 24% 6.0 mph ENE9.7 kmh ENE -- 30.00 in1015.9 mb 0.00 in0.0 mm 0.00 in0.0 mm 0.00 in0.0 mm
02:14 PM 50.7°F10.4°C 15.0°F-9.4°C 24% 4.0 mph NE6.4 kmh NE -- 30.00 in1015.9 mb 0.00 in0.0 mm 0.00 in0.0 mm 0.00 in0.0 mm
02:15 PM 50.3°F10.2°C 14.7°F-9.6°C 24% 4.0 mph ENE6.4 kmh ENE -- 30.00 in1015.9 mb 0.00 in0.0 mm 0.00 in0.0 mm 0.00 in0.0 mm
02:16 PM 50.1°F10.1°C 14.6°F-9.7°C 24% 5.0 mph NE8.0 kmh NE -- 30.00 in1015.9 mb 0.00 in0.0 mm 0.00 in0.0 mm 0.00 in0.0 mm
02:17 PM 50.0°F10.0°C 14.4°F-9.8°C 24% 4.0 mph ENE6.4 kmh ENE -- 30.00 in1015.9 mb 0.00 in0.0 mm 0.00 in0.0 mm 0.00 in0.0 mm
02:18 PM 50.0°F10.0°C 15.3°F-9.3°C 25% 5.0 mph NE8.0 kmh NE -- 30.00 in1015.9 mb 0.00 in0.0 mm 0.00 in0.0 mm 0.00 in0.0 mm
02:19 PM 50.0°F10.0°C 15.3°F-9.3°C 25% 3.0 mph NE4.8 kmh NE -- 30.00 in1015.9 mb 0.00 in0.0 mm 0.00 in0.0 mm 0.00 in0.0 mm
02:20 PM 49.8°F9.9°C 15.2°F-9.3°C 25% 4.0 mph ESE6.4 kmh ESE -- 30.00 in1015.9 mb 0.00 in0.0 mm 0.00 in0.0 mm 0.00 in0.0 mm
02:21 PM 50.1°F10.1°C 14.6°F-9.7°C 24% 6.0 mph ESE9.7 kmh ESE -- 30.00 in1015.9 mb 0.00 in0.0 mm 0.00 in0.0 mm 0.00 in0.0 mm
02:22 PM 49.8°F9.9°C 14.3°F-9.8°C 24% 3.0 mph ESE4.8 kmh ESE -- 30.00 in1015.9 mb 0.00 in0.0 mm 0.00 in0.0 mm 0.00 in0.0 mm
02:23 PM 49.8°F9.9°C 14.3°F-9.8°C 24% 4.0 mph ESE6.4 kmh ESE -- 30.00 in1015.9 mb 0.00 in0.0 mm 0.00 in0.0 mm 0.00 in0.0 mm
02:24 PM 49.8°F9.9°C 15.2°F-9.3°C 25% 4.0 mph NNE6.4 kmh NNE -- 30.00 in1015.9 mb 0.00 in0.0 mm 0.00 in0.0 mm 0.00 in0.0 mm
02:25 PM 50.0°F10.0°C 15.3°F-9.3°C 25% 5.0 mph 8.0 kmh -- 30.00 in1015.9 mb 0.00 in0.0 mm 0.00 in0.0 mm 0.00 in0.0 mm
02:26 PM 49.6°F9.8°C 14.1°F-9.9°C 24% 4.0 mph NNE6.4 kmh NNE -- 30.00 in1015.9 mb 0.00 in0.0 mm 0.00 in0.0 mm 0.00 in0.0 mm
02:27 PM 49.4°F9.7°C 12.0°F-11.1°C 22% 5.0 mph E8.0 kmh E -- 30.00 in1015.9 mb 0.00 in0.0 mm 0.00 in0.0 mm 0.00 in0.0 mm
02:28 PM 49.8°F9.9°C 14.3°F-9.8°C 24% 6.0 mph E9.7 kmh E -- 30.00 in1015.9 mb 0.00 in0.0 mm 0.00 in0.0 mm 0.00 in0.0 mm
02:29 PM 50.1°F10.1°C 14.6°F-9.7°C 24% 6.0 mph ENE9.7 kmh ENE -- 30.00 in1015.9 mb 0.00 in0.0 mm 0.00 in0.0 mm 0.00 in0.0 mm
02:30 PM 50.5°F10.3°C 14.9°F-9.5°C 24% 5.0 mph NE8.0 kmh NE -- 30.00 in1015.9 mb 0.00 in0.0 mm 0.00 in0.0 mm 0.00 in0.0 mm
02:31 PM 50.3°F10.2°C 14.7°F-9.6°C 24% 4.0 mph ENE6.4 kmh ENE -- 30.00 in1015.9 mb 0.00 in0.0 mm 0.00 in0.0 mm 0.00 in0.0 mm
02:32 PM 50.0°F10.0°C 14.4°F-9.8°C 24% 6.0 mph NE9.7 kmh NE -- 30.00 in1015.9 mb 0.00 in0.0 mm 0.00 in0.0 mm 0.00 in0.0 mm
02:33 PM 50.3°F10.2°C 12.7°F-10.7°C 22% 6.0 mph NE9.7 kmh NE -- 30.00 in1015.9 mb 0.00 in0.0 mm 0.00 in0.0 mm 0.00 in0.0 mm
02:34 PM 50.3°F10.2°C 12.7°F-10.7°C 22% 5.0 mph NNE8.0 kmh NNE -- 30.00 in1015.9 mb 0.00 in0.0 mm 0.00 in0.0 mm 0.00 in0.0 mm
02:35 PM 50.1°F10.1°C 12.6°F-10.8°C 22% 6.0 mph ESE9.7 kmh ESE -- 30.00 in1015.9 mb 0.00 in0.0 mm 0.00 in0.0 mm 0.00 in0.0 mm
02:36 PM 50.3°F10.2°C 12.7°F-10.7°C 22% 6.0 mph E9.7 kmh E -- 30.00 in1015.9 mb 0.00 in0.0 mm 0.00 in0.0 mm 0.00 in0.0 mm
02:37 PM 50.7°F10.4°C 13.1°F-10.5°C 22% 5.0 mph E8.0 kmh E -- 30.00 in1015.9 mb 0.00 in0.0 mm 0.00 in0.0 mm 0.00 in0.0 mm
02:38 PM 50.3°F10.2°C 12.7°F-10.7°C 22% 3.0 mph ESE4.8 kmh ESE -- 30.00 in1015.9 mb 0.00 in0.0 mm 0.00 in0.0 mm 0.00 in0.0 mm
02:39 PM 49.4°F9.7°C 14.0°F-10.0°C 24% 4.0 mph ENE6.4 kmh ENE -- 30.00 in1015.9 mb 0.00 in0.0 mm 0.00 in0.0 mm 0.00 in0.0 mm
02:40 PM 49.2°F9.6°C 13.8°F-10.1°C 24% 6.0 mph ENE9.7 kmh ENE -- 30.00 in1015.9 mb 0.00 in0.0 mm 0.00 in0.0 mm 0.00 in0.0 mm
02:41 PM 49.4°F9.7°C 14.9°F-9.5°C 25% 3.0 mph E4.8 kmh E -- 30.00 in1015.9 mb 0.00 in0.0 mm 0.00 in0.0 mm 0.00 in0.0 mm
02:42 PM 49.2°F9.6°C 14.7°F-9.6°C 25% 3.0 mph NNE4.8 kmh NNE -- 30.00 in1015.9 mb 0.00 in0.0 mm 0.00 in0.0 mm 0.00 in0.0 mm
02:43 PM 49.4°F9.7°C 14.9°F-9.5°C 25% 5.0 mph NW8.0 kmh NW -- 30.00 in1015.9 mb 0.00 in0.0 mm 0.00 in0.0 mm 0.00 in0.0 mm
02:44 PM 49.4°F9.7°C 14.9°F-9.5°C 25% 4.0 mph NNE6.4 kmh NNE -- 30.00 in1015.9 mb 0.00 in0.0 mm 0.00 in0.0 mm 0.00 in0.0 mm
02:45 PM 49.4°F9.7°C 14.9°F-9.5°C 25% 3.0 mph NE4.8 kmh NE -- 30.00 in1015.9 mb 0.00 in0.0 mm 0.00 in0.0 mm 0.00 in0.0 mm
02:46 PM 49.4°F9.7°C 14.9°F-9.5°C 25% 4.0 mph NNE6.4 kmh NNE -- 30.00 in1015.9 mb 0.00 in0.0 mm 0.00 in0.0 mm 0.00 in0.0 mm
02:47 PM 49.4°F9.7°C 14.0°F-10.0°C 24% 4.0 mph NNE6.4 kmh NNE -- 30.00 in1015.9 mb 0.00 in0.0 mm 0.00 in0.0 mm 0.00 in0.0 mm
02:48 PM 49.2°F9.6°C 13.8°F-10.1°C 24% 3.0 mph NNE4.8 kmh NNE -- 30.00 in1015.9 mb 0.00 in0.0 mm 0.00 in0.0 mm 0.00 in0.0 mm
02:49 PM 49.0°F9.4°C 11.5°F-11.4°C 22% 4.0 mph NNE6.4 kmh NNE -- 30.00 in1015.9 mb 0.00 in0.0 mm 0.00 in0.0 mm 0.00 in0.0 mm
02:50 PM 49.0°F9.4°C 11.5°F-11.4°C 22% 2.0 mph NE3.2 kmh NE -- 30.00 in1015.9 mb 0.00 in0.0 mm 0.00 in0.0 mm 0.00 in0.0 mm
02:51 PM 49.0°F9.4°C 13.5°F-10.3°C 24% 3.0 mph NNW4.8 kmh NNW -- 30.00 in1015.9 mb 0.00 in0.0 mm 0.00 in0.0 mm 0.00 in0.0 mm
02:52 PM 49.2°F9.6°C 14.7°F-9.6°C 25% 6.0 mph NE9.7 kmh NE -- 30.00 in1015.9 mb 0.00 in0.0 mm 0.00 in0.0 mm 0.00 in0.0 mm
02:53 PM 50.3°F10.2°C 12.7°F-10.7°C 22% 5.0 mph NE8.0 kmh NE -- 30.00 in1015.9 mb 0.00 in0.0 mm 0.00 in0.0 mm 0.00 in0.0 mm
02:54 PM 49.8°F9.9°C 14.3°F-9.8°C 24% 4.0 mph NE6.4 kmh NE -- 30.00 in1015.9 mb 0.00 in0.0 mm 0.00 in0.0 mm 0.00 in0.0 mm
02:55 PM 49.6°F9.8°C 14.1°F-9.9°C 24% 4.0 mph E6.4 kmh E -- 30.00 in1015.9 mb 0.00 in0.0 mm 0.00 in0.0 mm 0.00 in0.0 mm
02:56 PM 49.8°F9.9°C 14.3°F-9.8°C 24% 5.0 mph E8.0 kmh E -- 30.00 in1015.9 mb 0.00 in0.0 mm 0.00 in0.0 mm 0.00 in0.0 mm
02:57 PM 49.4°F9.7°C 14.0°F-10.0°C 24% 5.0 mph E8.0 kmh E -- 30.00 in1015.9 mb 0.00 in0.0 mm 0.00 in0.0 mm 0.00 in0.0 mm
02:58 PM 49.2°F9.6°C 13.8°F-10.1°C 24% 2.0 mph E3.2 kmh E -- 30.00 in1015.9 mb 0.00 in0.0 mm 0.00 in0.0 mm 0.00 in0.0 mm
02:59 PM 49.0°F9.4°C 13.5°F-10.3°C 24% 4.0 mph ESE6.4 kmh ESE -- 30.00 in1015.9 mb 0.00 in0.0 mm 0.00 in0.0 mm 0.00 in0.0 mm
03:00 PM 49.4°F9.7°C 14.9°F-9.5°C 25% 4.0 mph ENE6.4 kmh ENE -- 30.00 in1015.9 mb 0.00 in0.0 mm 0.00 in0.0 mm 0.00 in0.0 mm
03:01 PM 50.1°F10.1°C 15.5°F-9.2°C 25% 7.0 mph E11.3 kmh E -- 30.00 in1015.9 mb 0.00 in0.0 mm 0.00 in0.0 mm 0.00 in0.0 mm
03:02 PM 50.5°F10.3°C 14.9°F-9.5°C 24% 5.0 mph ENE8.0 kmh ENE -- 30.00 in1015.9 mb 0.00 in0.0 mm 0.00 in0.0 mm 0.00 in0.0 mm
03:03 PM 50.7°F10.4°C 15.0°F-9.4°C 24% 5.0 mph E8.0 kmh E -- 29.99 in1015.6 mb 0.00 in0.0 mm 0.00 in0.0 mm 0.00 in0.0 mm
03:04 PM 50.0°F10.0°C 14.4°F-9.8°C 24% 4.0 mph E6.4 kmh E -- 29.99 in1015.6 mb 0.00 in0.0 mm 0.00 in0.0 mm 0.00 in0.0 mm
03:05 PM 49.6°F9.8°C 14.1°F-9.9°C 24% 3.0 mph E4.8 kmh E -- 30.00 in1015.9 mb 0.00 in0.0 mm 0.00 in0.0 mm 0.00 in0.0 mm
03:06 PM 48.9°F9.4°C 14.4°F-9.8°C 25% 2.0 mph ENE3.2 kmh ENE -- 30.00 in1015.9 mb 0.00 in0.0 mm 0.00 in0.0 mm 0.00 in0.0 mm
03:07 PM 48.5°F9.2°C 14.1°F-9.9°C 25% 3.0 mph ENE4.8 kmh ENE -- 29.99 in1015.6 mb 0.00 in0.0 mm 0.00 in0.0 mm 0.00 in0.0 mm
03:08 PM 48.6°F9.2°C 14.1°F-9.9°C 25% 4.0 mph NE6.4 kmh NE -- 30.00 in1015.9 mb 0.00 in0.0 mm 0.00 in0.0 mm 0.00 in0.0 mm
03:09 PM 48.9°F9.4°C 14.4°F-9.8°C 25% 3.0 mph ENE4.8 kmh ENE -- 29.99 in1015.6 mb 0.00 in0.0 mm 0.00 in0.0 mm 0.00 in0.0 mm
03:10 PM 49.2°F9.6°C 14.7°F-9.6°C 25% 5.0 mph E8.0 kmh E -- 29.99 in1015.6 mb 0.00 in0.0 mm 0.00 in0.0 mm 0.00 in0.0 mm
03:11 PM 49.4°F9.7°C 14.0°F-10.0°C 24% 3.0 mph ESE4.8 kmh ESE -- 29.99 in1015.6 mb 0.00 in0.0 mm 0.00 in0.0 mm 0.00 in0.0 mm
03:12 PM 49.4°F9.7°C 14.0°F-10.0°C 24% 4.0 mph ESE6.4 kmh ESE -- 30.00 in1015.9 mb 0.00 in0.0 mm 0.00 in0.0 mm 0.00 in0.0 mm
03:13 PM 48.4°F9.1°C 13.0°F-10.6°C 24% Calm Calm -- 29.99 in1015.6 mb 0.00 in0.0 mm 0.00 in0.0 mm 0.00 in0.0 mm
03:14 PM 48.5°F9.2°C 14.1°F-9.9°C 25% 4.0 mph ESE6.4 kmh ESE -- 30.00 in1015.9 mb 0.00 in0.0 mm 0.00 in0.0 mm 0.00 in0.0 mm
03:15 PM 48.6°F9.2°C 14.1°F-9.9°C 25% 3.0 mph NE4.8 kmh NE -- 30.00 in1015.9 mb 0.00 in0.0 mm 0.00 in0.0 mm 0.00 in0.0 mm
03:16 PM 48.9°F9.4°C 14.4°F-9.8°C 25% 4.0 mph ENE6.4 kmh ENE -- 30.00 in1015.9 mb 0.00 in0.0 mm 0.00 in0.0 mm 0.00 in0.0 mm
03:17 PM 48.6°F9.2°C 14.1°F-9.9°C 25% 1.0 mph ENE1.6 kmh ENE -- 30.00 in1015.9 mb 0.00 in0.0 mm 0.00 in0.0 mm 0.00 in0.0 mm
03:18 PM 48.5°F9.2°C 14.1°F-9.9°C 25% 4.0 mph NE6.4 kmh NE -- 30.00 in1015.9 mb 0.00 in0.0 mm 0.00 in0.0 mm 0.00 in0.0 mm
03:19 PM 48.9°F9.4°C 14.4°F-9.8°C 25% 3.0 mph ENE4.8 kmh ENE -- 30.00 in1015.9 mb 0.00 in0.0 mm 0.00 in0.0 mm 0.00 in0.0 mm
03:20 PM 49.2°F9.6°C 14.7°F-9.6°C 25% 4.0 mph E6.4 kmh E -- 30.00 in1015.9 mb 0.00 in0.0 mm 0.00 in0.0 mm 0.00 in0.0 mm
03:21 PM 49.6°F9.8°C 15.0°F-9.4°C 25% 4.0 mph ESE6.4 kmh ESE -- 30.00 in1015.9 mb 0.00 in0.0 mm 0.00 in0.0 mm 0.00 in0.0 mm
03:22 PM 49.4°F9.7°C 14.9°F-9.5°C 25% 5.0 mph ESE8.0 kmh ESE -- 30.00 in1015.9 mb 0.00 in0.0 mm 0.00 in0.0 mm 0.00 in0.0 mm
03:23 PM 49.4°F9.7°C 14.9°F-9.5°C 25% 4.0 mph NE6.4 kmh NE -- 30.00 in1015.9 mb 0.00 in0.0 mm 0.00 in0.0 mm 0.00 in0.0 mm
03:24 PM 49.0°F9.4°C 14.4°F-9.8°C 25% 4.0 mph NNE6.4 kmh NNE -- 30.00 in1015.9 mb 0.00 in0.0 mm 0.00 in0.0 mm 0.00 in0.0 mm
03:25 PM 49.0°F9.4°C 14.4°F-9.8°C 25% 4.0 mph NNE6.4 kmh NNE -- 29.99 in1015.6 mb 0.00 in0.0 mm 0.00 in0.0 mm 0.00 in0.0 mm
03:26 PM 48.9°F9.4°C 14.4°F-9.8°C 25% 3.0 mph NE4.8 kmh NE -- 29.99 in1015.6 mb 0.00 in0.0 mm 0.00 in0.0 mm 0.00 in0.0 mm
03:27 PM 48.9°F9.4°C 14.4°F-9.8°C 25% 3.0 mph ESE4.8 kmh ESE -- 30.00 in1015.9 mb 0.00 in0.0 mm 0.00 in0.0 mm 0.00 in0.0 mm
03:28 PM 49.0°F9.4°C 14.4°F-9.8°C 25% 4.0 mph NE6.4 kmh NE -- 30.00 in1015.9 mb 0.00 in0.0 mm 0.00 in0.0 mm 0.00 in0.0 mm
03:29 PM 49.0°F9.4°C 14.4°F-9.8°C 25% 3.0 mph E4.8 kmh E -- 29.99 in1015.6 mb 0.00 in0.0 mm 0.00 in0.0 mm 0.00 in0.0 mm
03:30 PM 49.0°F9.4°C 14.4°F-9.8°C 25% 3.0 mph ESE4.8 kmh ESE -- 29.99 in1015.6 mb 0.00 in0.0 mm 0.00 in0.0 mm 0.00 in0.0 mm
03:31 PM 48.6°F9.2°C 14.1°F-9.9°C 25% 3.0 mph NE4.8 kmh NE -- 29.99 in1015.6 mb 0.00 in0.0 mm 0.00 in0.0 mm 0.00 in0.0 mm
03:32 PM 48.6°F9.2°C 14.1°F-9.9°C 25% 2.0 mph ESE3.2 kmh ESE -- 29.99 in1015.6 mb 0.00 in0.0 mm 0.00 in0.0 mm 0.00 in0.0 mm
03:33 PM 48.6°F9.2°C 14.1°F-9.9°C 25% 4.0 mph ENE6.4 kmh ENE -- 29.99 in1015.6 mb 0.00 in0.0 mm 0.00 in0.0 mm 0.00 in0.0 mm
03:34 PM 49.2°F9.6°C 14.7°F-9.6°C 25% 4.0 mph ENE6.4 kmh ENE -- 29.99 in1015.6 mb 0.00 in0.0 mm 0.00 in0.0 mm 0.00 in0.0 mm
03:35 PM 49.2°F9.6°C 14.7°F-9.6°C 25% 3.0 mph NE4.8 kmh NE -- 29.99 in1015.6 mb 0.00 in0.0 mm 0.00 in0.0 mm 0.00 in0.0 mm
03:36 PM 49.0°F9.4°C 14.4°F-9.8°C 25% 4.0 mph E6.4 kmh E -- 29.99 in1015.6 mb 0.00 in0.0 mm 0.00 in0.0 mm 0.00 in0.0 mm
03:38 PM 49.2°F9.6°C 14.7°F-9.6°C 25% 4.0 mph E6.4 kmh E -- 30.00 in1015.9 mb 0.00 in0.0 mm 0.00 in0.0 mm 0.00 in0.0 mm
03:39 PM 49.0°F9.4°C 14.4°F-9.8°C 25% 4.0 mph NE6.4 kmh NE -- 30.00 in1015.9 mb 0.00 in0.0 mm 0.00 in0.0 mm 0.00 in0.0 mm
03:40 PM 48.6°F9.2°C 14.1°F-9.9°C 25% 3.0 mph NE4.8 kmh NE -- 30.00 in1015.9 mb 0.00 in0.0 mm 0.00 in0.0 mm 0.00 in0.0 mm
03:41 PM 48.9°F9.4°C 14.4°F-9.8°C 25% 3.0 mph ESE4.8 kmh ESE -- 30.00 in1015.9 mb 0.00 in0.0 mm 0.00 in0.0 mm 0.00 in0.0 mm
03:42 PM 48.9°F9.4°C 14.4°F-9.8°C 25% 5.0 mph E8.0 kmh E -- 30.00 in1015.9 mb 0.00 in0.0 mm 0.00 in0.0 mm 0.00 in0.0 mm
03:43 PM 49.4°F9.7°C 14.9°F-9.5°C 25% 6.0 mph ESE9.7 kmh ESE -- 29.99 in1015.6 mb 0.00 in0.0 mm 0.00 in0.0 mm 0.00 in0.0 mm
03:44 PM 49.4°F9.7°C 14.9°F-9.5°C 25% 4.0 mph ENE6.4 kmh ENE -- 30.00 in1015.9 mb 0.00 in0.0 mm 0.00 in0.0 mm 0.00 in0.0 mm
03:45 PM 49.0°F9.4°C 14.4°F-9.8°C 25% 3.0 mph ENE4.8 kmh ENE -- 30.00 in1015.9 mb 0.00 in0.0 mm 0.00 in0.0 mm 0.00 in0.0 mm
03:46 PM 48.5°F9.2°C 14.1°F-9.9°C 25% 4.0 mph ESE6.4 kmh ESE -- 30.00 in1015.9 mb 0.00 in0.0 mm 0.00 in0.0 mm 0.00 in0.0 mm
03:47 PM 48.4°F9.1°C 14.0°F-10.0°C 25% 3.0 mph ESE4.8 kmh ESE -- 29.99 in1015.6 mb 0.00 in0.0 mm 0.00 in0.0 mm 0.00 in0.0 mm
03:48 PM 48.2°F9.0°C 13.8°F-10.1°C 25% 2.0 mph NE3.2 kmh NE -- 29.99 in1015.6 mb 0.00 in0.0 mm 0.00 in0.0 mm 0.00 in0.0 mm
03:49 PM 48.5°F9.2°C 14.1°F-9.9°C 25% 4.0 mph E6.4 kmh E -- 30.00 in1015.9 mb 0.00 in0.0 mm 0.00 in0.0 mm 0.00 in0.0 mm
03:50 PM 48.6°F9.2°C 14.1°F-9.9°C 25% 3.0 mph ESE4.8 kmh ESE -- 30.00 in1015.9 mb 0.00 in0.0 mm 0.00 in0.0 mm 0.00 in0.0 mm
03:51 PM 48.5°F9.2°C 14.1°F-9.9°C 25% 3.0 mph ESE4.8 kmh ESE -- 30.00 in1015.9 mb 0.00 in0.0 mm 0.00 in0.0 mm 0.00 in0.0 mm
03:52 PM 48.5°F9.2°C 14.1°F-9.9°C 25% 5.0 mph ESE8.0 kmh ESE -- 30.00 in1015.9 mb 0.00 in0.0 mm 0.00 in0.0 mm 0.00 in0.0 mm
03:53 PM 49.0°F9.4°C 14.4°F-9.8°C 25% 3.0 mph E4.8 kmh E -- 29.99 in1015.6 mb 0.00 in0.0 mm 0.00 in0.0 mm 0.00 in0.0 mm
03:54 PM 48.4°F9.1°C 14.0°F-10.0°C 25% 3.0 mph ESE4.8 kmh ESE -- 30.00 in1015.9 mb 0.00 in0.0 mm 0.00 in0.0 mm 0.00 in0.0 mm
03:55 PM 48.5°F9.2°C 15.9°F-8.9°C 27% 4.0 mph E6.4 kmh E -- 29.99 in1015.6 mb 0.00 in0.0 mm 0.00 in0.0 mm 0.00 in0.0 mm
03:56 PM 48.4°F9.1°C 15.7°F-9.1°C 27% 3.0 mph ESE4.8 kmh ESE -- 29.99 in1015.6 mb 0.00 in0.0 mm 0.00 in0.0 mm 0.00 in0.0 mm
03:57 PM 48.5°F9.2°C 14.1°F-9.9°C 25% 4.0 mph NE6.4 kmh NE -- 30.00 in1015.9 mb 0.00 in0.0 mm 0.00 in0.0 mm 0.00 in0.0 mm
03:58 PM 48.5°F9.2°C 14.1°F-9.9°C 25% 2.0 mph NE3.2 kmh NE -- 29.99 in1015.6 mb 0.00 in0.0 mm 0.00 in0.0 mm 0.00 in0.0 mm
03:59 PM 48.6°F9.2°C 14.1°F-9.9°C 25% 4.0 mph E6.4 kmh E -- 29.99 in1015.6 mb 0.00 in0.0 mm 0.00 in0.0 mm 0.00 in0.0 mm
04:00 PM 48.6°F9.2°C 14.1°F-9.9°C 25% 4.0 mph ESE6.4 kmh ESE -- 29.99 in1015.6 mb 0.00 in0.0 mm 0.00 in0.0 mm 0.00 in0.0 mm
04:01 PM 48.2°F9.0°C 13.8°F-10.1°C 25% 2.0 mph E3.2 kmh E -- 29.99 in1015.6 mb 0.00 in0.0 mm 0.00 in0.0 mm 0.00 in0.0 mm
04:02 PM 48.2°F9.0°C 13.8°F-10.1°C 25% 3.0 mph ESE4.8 kmh ESE -- 29.99 in1015.6 mb 0.00 in0.0 mm 0.00 in0.0 mm 0.00 in0.0 mm
04:03 PM 48.0°F8.9°C 13.7°F-10.2°C 25% 3.0 mph ESE4.8 kmh ESE -- 29.99 in1015.6 mb 0.00 in0.0 mm 0.00 in0.0 mm 0.00 in0.0 mm
04:04 PM 48.0°F8.9°C 13.7°F-10.2°C 25% 4.0 mph ESE6.4 kmh ESE -- 29.99 in1015.6 mb 0.00 in0.0 mm 0.00 in0.0 mm 0.00 in0.0 mm
04:05 PM 48.0°F8.9°C 13.7°F-10.2°C 25% 2.0 mph ESE3.2 kmh ESE -- 29.99 in1015.6 mb 0.00 in0.0 mm 0.00 in0.0 mm 0.00 in0.0 mm
04:06 PM 47.6°F8.7°C 13.3°F-10.4°C 25% 2.0 mph ESE3.2 kmh ESE -- 29.99 in1015.6 mb 0.00 in0.0 mm 0.00 in0.0 mm 0.00 in0.0 mm
04:07 PM 47.5°F8.6°C 13.2°F-10.4°C 25% 4.0 mph NNE6.4 kmh NNE -- 29.99 in1015.6 mb 0.00 in0.0 mm 0.00 in0.0 mm 0.00 in0.0 mm
04:08 PM 48.0°F8.9°C 13.7°F-10.2°C 25% 4.0 mph NE6.4 kmh NE -- 29.99 in1015.6 mb 0.00 in0.0 mm 0.00 in0.0 mm 0.00 in0.0 mm
04:09 PM 48.2°F9.0°C 13.8°F-10.1°C 25% 4.0 mph ESE6.4 kmh ESE -- 29.99 in1015.6 mb 0.00 in0.0 mm 0.00 in0.0 mm 0.00 in0.0 mm
04:10 PM 48.2°F9.0°C 13.8°F-10.1°C 25% 2.0 mph ESE3.2 kmh ESE -- 29.99 in1015.6 mb 0.00 in0.0 mm 0.00 in0.0 mm 0.00 in0.0 mm
04:11 PM 47.6°F8.7°C 13.3°F-10.4°C 25% 3.0 mph E4.8 kmh E -- 29.99 in1015.6 mb 0.00 in0.0 mm 0.00 in0.0 mm 0.00 in0.0 mm
04:12 PM 47.6°F8.7°C 13.3°F-10.4°C 25% 2.0 mph ESE3.2 kmh ESE -- 29.99 in1015.6 mb 0.00 in0.0 mm 0.00 in0.0 mm 0.00 in0.0 mm
04:13 PM 47.7°F8.7°C 13.3°F-10.4°C 25% 4.0 mph E6.4 kmh E -- 29.99 in1015.6 mb 0.00 in0.0 mm 0.00 in0.0 mm 0.00 in0.0 mm
04:14 PM 47.7°F8.7°C 13.3°F-10.4°C 25% 3.0 mph E4.8 kmh E -- 29.99 in1015.6 mb 0.00 in0.0 mm 0.00 in0.0 mm 0.00 in0.0 mm
04:15 PM 47.7°F8.7°C 15.1°F-9.4°C 27% 5.0 mph ESE8.0 kmh ESE -- 29.99 in1015.6 mb 0.00 in0.0 mm 0.00 in0.0 mm 0.00 in0.0 mm
04:16 PM 48.0°F8.9°C 13.7°F-10.2°C 25% 3.0 mph ESE4.8 kmh ESE -- 29.99 in1015.6 mb 0.00 in0.0 mm 0.00 in0.0 mm 0.00 in0.0 mm
04:17 PM 47.7°F8.7°C 15.1°F-9.4°C 27% 4.0 mph E6.4 kmh E -- 29.99 in1015.6 mb 0.00 in0.0 mm 0.00 in0.0 mm 0.00 in0.0 mm
04:18 PM 47.3°F8.5°C 13.0°F-10.6°C 25% 2.0 mph ESE3.2 kmh ESE -- 29.99 in1015.6 mb 0.00 in0.0 mm 0.00 in0.0 mm 0.00 in0.0 mm
04:19 PM 47.1°F8.4°C 14.6°F-9.7°C 27% 1.0 mph ESE1.6 kmh ESE -- 29.99 in1015.6 mb 0.00 in0.0 mm 0.00 in0.0 mm 0.00 in0.0 mm
04:20 PM 47.3°F8.5°C 16.4°F-8.7°C 29% 1.0 mph NNE1.6 kmh NNE -- 29.99 in1015.6 mb 0.00 in0.0 mm 0.00 in0.0 mm 0.00 in0.0 mm
04:21 PM 47.5°F8.6°C 14.9°F-9.5°C 27% 3.0 mph NNE4.8 kmh NNE -- 29.99 in1015.6 mb 0.00 in0.0 mm 0.00 in0.0 mm 0.00 in0.0 mm
04:22 PM 47.5°F8.6°C 14.9°F-9.5°C 27% 3.0 mph ESE4.8 kmh ESE -- 29.99 in1015.6 mb 0.00 in0.0 mm 0.00 in0.0 mm 0.00 in0.0 mm
04:23 PM 47.3°F8.5°C 14.8°F-9.6°C 27% 4.0 mph ESE6.4 kmh ESE -- 29.99 in1015.6 mb 0.00 in0.0 mm 0.00 in0.0 mm 0.00 in0.0 mm
04:24 PM 47.3°F8.5°C 14.8°F-9.6°C 27% 3.0 mph ESE4.8 kmh ESE -- 29.99 in1015.6 mb 0.00 in0.0 mm 0.00 in0.0 mm 0.00 in0.0 mm
04:25 PM 47.1°F8.4°C 14.6°F-9.7°C 27% 3.0 mph NE4.8 kmh NE -- 29.99 in1015.6 mb 0.00 in0.0 mm 0.00 in0.0 mm 0.00 in0.0 mm
04:26 PM 47.1°F8.4°C 14.6°F-9.7°C 27% 3.0 mph NE4.8 kmh NE -- 29.98 in1015.2 mb 0.00 in0.0 mm 0.00 in0.0 mm 0.00 in0.0 mm
04:27 PM 47.1°F8.4°C 14.6°F-9.7°C 27% 2.0 mph ESE3.2 kmh ESE -- 29.99 in1015.6 mb 0.00 in0.0 mm 0.00 in0.0 mm 0.00 in0.0 mm
04:28 PM 47.1°F8.4°C 14.6°F-9.7°C 27% 4.0 mph NE6.4 kmh NE -- 29.98 in1015.2 mb 0.00 in0.0 mm 0.00 in0.0 mm 0.00 in0.0 mm
04:29 PM 47.1°F8.4°C 14.6°F-9.7°C 27% 4.0 mph ESE6.4 kmh ESE -- 29.98 in1015.2 mb 0.00 in0.0 mm 0.00 in0.0 mm 0.00 in0.0 mm
04:30 PM 46.9°F8.3°C 14.5°F-9.7°C 27% 2.0 mph ESE3.2 kmh ESE -- 29.98 in1015.2 mb 0.00 in0.0 mm 0.00 in0.0 mm 0.00 in0.0 mm
04:31 PM 46.9°F8.3°C 14.5°F-9.7°C 27% 4.0 mph ESE6.4 kmh ESE -- 29.98 in1015.2 mb 0.00 in0.0 mm 0.00 in0.0 mm 0.00 in0.0 mm
04:32 PM 46.9°F8.3°C 14.5°F-9.7°C 27% 4.0 mph ESE6.4 kmh ESE -- 29.99 in1015.6 mb 0.00 in0.0 mm 0.00 in0.0 mm 0.00 in0.0 mm
04:33 PM 46.9°F8.3°C 14.5°F-9.7°C 27% 5.0 mph E8.0 kmh E -- 29.99 in1015.6 mb 0.00 in0.0 mm 0.00 in0.0 mm 0.00 in0.0 mm
04:34 PM 46.9°F8.3°C 14.5°F-9.7°C 27% 4.0 mph E6.4 kmh E -- 29.99 in1015.6 mb 0.00 in0.0 mm 0.00 in0.0 mm 0.00 in0.0 mm
04:35 PM 46.9°F8.3°C 14.5°F-9.7°C 27% 3.0 mph ENE4.8 kmh ENE -- 29.98 in1015.2 mb 0.00 in0.0 mm 0.00 in0.0 mm 0.00 in0.0 mm
04:36 PM 46.7°F8.2°C 14.3°F-9.8°C 27% 3.0 mph ESE4.8 kmh ESE -- 29.99 in1015.6 mb 0.00 in0.0 mm 0.00 in0.0 mm 0.00 in0.0 mm
04:37 PM 46.9°F8.3°C 14.5°F-9.7°C 27% 2.0 mph ESE3.2 kmh ESE -- 29.99 in1015.6 mb 0.00 in0.0 mm 0.00 in0.0 mm 0.00 in0.0 mm
04:38 PM 46.7°F8.2°C 16.0°F-8.9°C 29% 3.0 mph ESE4.8 kmh ESE -- 29.99 in1015.6 mb 0.00 in0.0 mm 0.00 in0.0 mm 0.00 in0.0 mm
04:39 PM 46.9°F8.3°C 14.5°F-9.7°C 27% 5.0 mph ESE8.0 kmh ESE -- 29.99 in1015.6 mb 0.00 in0.0 mm 0.00 in0.0 mm 0.00 in0.0 mm
04:40 PM 46.9°F8.3°C 14.5°F-9.7°C 27% 3.0 mph ESE4.8 kmh ESE -- 29.99 in1015.6 mb 0.00 in0.0 mm 0.00 in0.0 mm 0.00 in0.0 mm
04:41 PM 46.5°F8.1°C 14.2°F-9.9°C 27% 2.0 mph ESE3.2 kmh ESE -- 29.99 in1015.6 mb 0.00 in0.0 mm 0.00 in0.0 mm 0.00 in0.0 mm
04:43 PM 46.7°F8.2°C 14.3°F-9.8°C 27% 5.0 mph ESE8.0 kmh ESE -- 29.99 in1015.6 mb 0.00 in0.0 mm 0.00 in0.0 mm 0.00 in0.0 mm
04:44 PM 46.7°F8.2°C 14.3°F-9.8°C 27% 4.0 mph ESE6.4 kmh ESE -- 29.99 in1015.6 mb 0.00 in0.0 mm 0.00 in0.0 mm 0.00 in0.0 mm
04:45 PM 46.5°F8.1°C 14.2°F-9.9°C 27% 5.0 mph ESE8.0 kmh ESE -- 29.99 in1015.6 mb 0.00 in0.0 mm 0.00 in0.0 mm 0.00 in0.0 mm
04:46 PM 46.5°F8.1°C 14.2°F-9.9°C 27% 5.0 mph E8.0 kmh E -- 29.99 in1015.6 mb 0.00 in0.0 mm 0.00 in0.0 mm 0.00 in0.0 mm
04:47 PM 46.5°F8.1°C 14.2°F-9.9°C 27% 4.0 mph E6.4 kmh E -- 29.99 in1015.6 mb 0.00 in0.0 mm 0.00 in0.0 mm 0.00 in0.0 mm
04:49 PM 46.5°F8.1°C 14.2°F-9.9°C 27% 4.0 mph ENE6.4 kmh ENE -- 29.99 in1015.6 mb 0.00 in0.0 mm 0.00 in0.0 mm 0.00 in0.0 mm
04:50 PM 46.5°F8.1°C 14.2°F-9.9°C 27% 4.0 mph ESE6.4 kmh ESE -- 29.99 in1015.6 mb 0.00 in0.0 mm 0.00 in0.0 mm 0.00 in0.0 mm
04:51 PM 46.7°F8.2°C 16.0°F-8.9°C 29% 6.0 mph E9.7 kmh E -- 29.99 in1015.6 mb 0.00 in0.0 mm 0.00 in0.0 mm 0.00 in0.0 mm
04:52 PM 46.9°F8.3°C 16.1°F-8.8°C 29% 4.0 mph ESE6.4 kmh ESE -- 29.99 in1015.6 mb 0.00 in0.0 mm 0.00 in0.0 mm 0.00 in0.0 mm
04:53 PM 46.5°F8.1°C 15.8°F-9.0°C 29% 3.0 mph ESE4.8 kmh ESE -- 29.99 in1015.6 mb 0.00 in0.0 mm 0.00 in0.0 mm 0.00 in0.0 mm
04:54 PM 46.4°F8.0°C 15.6°F-9.1°C 29% 2.0 mph ESE3.2 kmh ESE -- 29.99 in1015.6 mb 0.00 in0.0 mm 0.00 in0.0 mm 0.00 in0.0 mm
04:55 PM 46.1°F7.8°C 15.3°F-9.3°C 29% 2.0 mph ESE3.2 kmh ESE -- 29.99 in1015.6 mb 0.00 in0.0 mm 0.00 in0.0 mm 0.00 in0.0 mm
04:56 PM 46.1°F7.8°C 16.1°F-8.8°C 30% 5.0 mph ESE8.0 kmh ESE -- 29.99 in1015.6 mb 0.00 in0.0 mm 0.00 in0.0 mm 0.00 in0.0 mm
04:57 PM 46.1°F7.8°C 15.3°F-9.3°C 29% 5.0 mph ESE8.0 kmh ESE -- 29.99 in1015.6 mb 0.00 in0.0 mm 0.00 in0.0 mm 0.00 in0.0 mm
04:58 PM 46.1°F7.8°C 15.3°F-9.3°C 29% 4.0 mph ESE6.4 kmh ESE -- 29.99 in1015.6 mb 0.00 in0.0 mm 0.00 in0.0 mm 0.00 in0.0 mm
05:01 PM 46.1°F7.8°C 15.3°F-9.3°C 29% 5.0 mph ESE8.0 kmh ESE -- 29.99 in1015.6 mb 0.00 in0.0 mm 0.00 in0.0 mm 0.00 in0.0 mm
05:02 PM 46.1°F7.8°C 15.3°F-9.3°C 29% 4.0 mph SSE6.4 kmh SSE -- 29.99 in1015.6 mb 0.00 in0.0 mm 0.00 in0.0 mm 0.00 in0.0 mm
05:03 PM 46.1°F7.8°C 15.3°F-9.3°C 29% 5.0 mph ESE8.0 kmh ESE -- 29.99 in1015.6 mb 0.00 in0.0 mm 0.00 in0.0 mm 0.00 in0.0 mm
05:05 PM 46.1°F7.8°C 15.3°F-9.3°C 29% 6.0 mph E9.7 kmh E -- 29.99 in1015.6 mb 0.00 in0.0 mm 0.00 in0.0 mm 0.00 in0.0 mm
05:06 PM 46.4°F8.0°C 15.6°F-9.1°C 29% 6.0 mph SE9.7 kmh SE -- 29.99 in1015.6 mb 0.00 in0.0 mm 0.00 in0.0 mm 0.00 in0.0 mm
05:07 PM 46.1°F7.8°C 15.3°F-9.3°C 29% 5.0 mph ESE8.0 kmh ESE -- 29.99 in1015.6 mb 0.00 in0.0 mm 0.00 in0.0 mm 0.00 in0.0 mm
05:08 PM 45.9°F7.7°C 15.2°F-9.3°C 29% 4.0 mph ESE6.4 kmh ESE -- 29.99 in1015.6 mb 0.00 in0.0 mm 0.00 in0.0 mm 0.00 in0.0 mm
05:10 PM 45.9°F7.7°C 15.2°F-9.3°C 29% 3.0 mph ESE4.8 kmh ESE -- 29.99 in1015.6 mb 0.00 in0.0 mm 0.00 in0.0 mm 0.00 in0.0 mm
05:11 PM 45.9°F7.7°C 15.9°F-8.9°C 30% 3.0 mph ESE4.8 kmh ESE -- 29.99 in1015.6 mb 0.00 in0.0 mm 0.00 in0.0 mm 0.00 in0.0 mm
05:12 PM 45.9°F7.7°C 15.2°F-9.3°C 29% 4.0 mph ESE6.4 kmh ESE -- 29.99 in1015.6 mb 0.00 in0.0 mm 0.00 in0.0 mm 0.00 in0.0 mm
05:14 PM 45.9°F7.7°C 15.9°F-8.9°C 30% 4.0 mph SE6.4 kmh SE -- 29.99 in1015.6 mb 0.00 in0.0 mm 0.00 in0.0 mm 0.00 in0.0 mm
05:15 PM 45.9°F7.7°C 15.2°F-9.3°C 29% 6.0 mph SE9.7 kmh SE -- 29.99 in1015.6 mb 0.00 in0.0 mm 0.00 in0.0 mm 0.00 in0.0 mm
05:16 PM 45.9°F7.7°C 15.2°F-9.3°C 29% 4.0 mph ESE6.4 kmh ESE -- 29.99 in1015.6 mb 0.00 in0.0 mm 0.00 in0.0 mm 0.00 in0.0 mm
05:17 PM 45.9°F7.7°C 15.2°F-9.3°C 29% 5.0 mph SSE8.0 kmh SSE -- 29.99 in1015.6 mb 0.00 in0.0 mm 0.00 in0.0 mm 0.00 in0.0 mm
05:18 PM 45.9°F7.7°C 15.2°F-9.3°C 29% 7.0 mph ESE11.3 kmh ESE -- 29.99 in1015.6 mb 0.00 in0.0 mm 0.00 in0.0 mm 0.00 in0.0 mm
05:19 PM 45.9°F7.7°C 15.2°F-9.3°C 29% 5.0 mph SSE8.0 kmh SSE -- 29.99 in1015.6 mb 0.00 in0.0 mm 0.00 in0.0 mm 0.00 in0.0 mm
05:20 PM 46.1°F7.8°C 15.3°F-9.3°C 29% 3.0 mph SSE4.8 kmh SSE -- 29.99 in1015.6 mb 0.00 in0.0 mm 0.00 in0.0 mm 0.00 in0.0 mm
05:21 PM 46.4°F8.0°C 15.6°F-9.1°C 29% 4.0 mph S6.4 kmh S -- 29.98 in1015.2 mb 0.00 in0.0 mm 0.00 in0.0 mm 0.00 in0.0 mm
05:22 PM 46.4°F8.0°C 15.6°F-9.1°C 29% 5.0 mph S8.0 kmh S -- 29.98 in1015.2 mb 0.00 in0.0 mm 0.00 in0.0 mm 0.00 in0.0 mm
05:23 PM 46.4°F8.0°C 15.6°F-9.1°C 29% 5.0 mph SSE8.0 kmh SSE -- 29.99 in1015.6 mb 0.00 in0.0 mm 0.00 in0.0 mm 0.00 in0.0 mm
05:24 PM 46.4°F8.0°C 15.6°F-9.1°C 29% 4.0 mph SSE6.4 kmh SSE -- 29.99 in1015.6 mb 0.00 in0.0 mm 0.00 in0.0 mm 0.00 in0.0 mm
05:25 PM 46.1°F7.8°C 16.1°F-8.8°C 30% 5.0 mph S8.0 kmh S -- 29.99 in1015.6 mb 0.00 in0.0 mm 0.00 in0.0 mm 0.00 in0.0 mm
05:26 PM 45.9°F7.7°C 15.9°F-8.9°C 30% 6.0 mph SSE9.7 kmh SSE -- 29.99 in1015.6 mb 0.00 in0.0 mm 0.00 in0.0 mm 0.00 in0.0 mm
05:27 PM 45.7°F7.6°C 15.8°F-9.0°C 30% 5.0 mph SSE8.0 kmh SSE -- 29.99 in1015.6 mb 0.00 in0.0 mm 0.00 in0.0 mm 0.00 in0.0 mm
05:28 PM 45.5°F7.5°C 15.6°F-9.1°C 30% 4.0 mph SSE6.4 kmh SSE -- 29.99 in1015.6 mb 0.00 in0.0 mm 0.00 in0.0 mm 0.00 in0.0 mm
05:29 PM 45.0°F7.2°C 15.2°F-9.3°C 30% 3.0 mph S4.8 kmh S -- 29.99 in1015.6 mb 0.00 in0.0 mm 0.00 in0.0 mm 0.00 in0.0 mm
05:30 PM 45.0°F7.2°C 15.2°F-9.3°C 30% 4.0 mph SSE6.4 kmh SSE -- 29.99 in1015.6 mb 0.00 in0.0 mm 0.00 in0.0 mm 0.00 in0.0 mm
05:31 PM 45.0°F7.2°C 15.2°F-9.3°C 30% 4.0 mph ESE6.4 kmh ESE -- 29.99 in1015.6 mb 0.00 in0.0 mm 0.00 in0.0 mm 0.00 in0.0 mm
05:32 PM 45.0°F7.2°C 15.2°F-9.3°C 30% 3.0 mph SSW4.8 kmh SSW -- 29.99 in1015.6 mb 0.00 in0.0 mm 0.00 in0.0 mm 0.00 in0.0 mm
05:33 PM 45.0°F7.2°C 15.2°F-9.3°C 30% 4.0 mph SE6.4 kmh SE -- 29.98 in1015.2 mb 0.00 in0.0 mm 0.00 in0.0 mm 0.00 in0.0 mm
05:34 PM 45.0°F7.2°C 15.2°F-9.3°C 30% 3.0 mph SE4.8 kmh SE -- 29.98 in1015.2 mb 0.00 in0.0 mm 0.00 in0.0 mm 0.00 in0.0 mm
05:35 PM 45.0°F7.2°C 15.2°F-9.3°C 30% 4.0 mph SSE6.4 kmh SSE -- 29.98 in1015.2 mb 0.00 in0.0 mm 0.00 in0.0 mm 0.00 in0.0 mm
05:36 PM 45.0°F7.2°C 15.2°F-9.3°C 30% 3.0 mph SSE4.8 kmh SSE -- 29.99 in1015.6 mb 0.00 in0.0 mm 0.00 in0.0 mm 0.00 in0.0 mm
05:37 PM 44.8°F7.1°C 15.0°F-9.4°C 30% 6.0 mph SSE9.7 kmh SSE -- 29.99 in1015.6 mb 0.00 in0.0 mm 0.00 in0.0 mm 0.00 in0.0 mm
05:39 PM 44.6°F7.0°C 14.8°F-9.6°C 30% 4.0 mph SSE6.4 kmh SSE -- 29.99 in1015.6 mb 0.00 in0.0 mm 0.00 in0.0 mm 0.00 in0.0 mm
05:40 PM 44.4°F6.9°C 14.7°F-9.6°C 30% 5.0 mph SE8.0 kmh SE -- 29.99 in1015.6 mb 0.00 in0.0 mm 0.00 in0.0 mm 0.00 in0.0 mm
05:41 PM 44.2°F6.8°C 14.5°F-9.7°C 30% 4.0 mph SSE6.4 kmh SSE -- 29.98 in1015.2 mb 0.00 in0.0 mm 0.00 in0.0 mm 0.00 in0.0 mm
05:42 PM 44.0°F6.7°C 15.1°F-9.4°C 31% 3.0 mph SSE4.8 kmh SSE -- 29.99 in1015.6 mb 0.00 in0.0 mm 0.00 in0.0 mm 0.00 in0.0 mm
05:43 PM 43.9°F6.6°C 15.0°F-9.4°C 31% 4.0 mph S6.4 kmh S -- 29.99 in1015.6 mb 0.00 in0.0 mm 0.00 in0.0 mm 0.00 in0.0 mm
05:44 PM 44.0°F6.7°C 15.1°F-9.4°C 31% 3.0 mph SSE4.8 kmh SSE -- 29.99 in1015.6 mb 0.00 in0.0 mm 0.00 in0.0 mm 0.00 in0.0 mm
05:45 PM 44.0°F6.7°C 14.4°F-9.8°C 30% 5.0 mph SSE8.0 kmh SSE -- 29.99 in1015.6 mb 0.00 in0.0 mm 0.00 in0.0 mm 0.00 in0.0 mm
05:46 PM 44.0°F6.7°C 14.4°F-9.8°C 30% 3.0 mph SE4.8 kmh SE -- 29.99 in1015.6 mb 0.00 in0.0 mm 0.00 in0.0 mm 0.00 in0.0 mm
05:47 PM 44.0°F6.7°C 14.4°F-9.8°C 30% 5.0 mph SSE8.0 kmh SSE -- 29.98 in1015.2 mb 0.00 in0.0 mm 0.00 in0.0 mm 0.00 in0.0 mm
05:48 PM 43.9°F6.6°C 14.2°F-9.9°C 30% 4.0 mph S6.4 kmh S -- 29.98 in1015.2 mb 0.00 in0.0 mm 0.00 in0.0 mm 0.00 in0.0 mm
05:49 PM 43.6°F6.4°C 14.7°F-9.6°C 31% 5.0 mph ESE8.0 kmh ESE -- 29.99 in1015.6 mb 0.00 in0.0 mm 0.00 in0.0 mm 0.00 in0.0 mm
05:50 PM 43.4°F6.3°C 14.5°F-9.7°C 31% 4.0 mph SE6.4 kmh SE -- 29.99 in1015.6 mb 0.00 in0.0 mm 0.00 in0.0 mm 0.00 in0.0 mm
05:51 PM 43.4°F6.3°C 14.5°F-9.7°C 31% 4.0 mph SSE6.4 kmh SSE -- 29.99 in1015.6 mb 0.00 in0.0 mm 0.00 in0.0 mm 0.00 in0.0 mm
05:52 PM 43.2°F6.2°C 14.3°F-9.8°C 31% 5.0 mph SSE8.0 kmh SSE -- 29.99 in1015.6 mb 0.00 in0.0 mm 0.00 in0.0 mm 0.00 in0.0 mm
05:53 PM 43.2°F6.2°C 14.3°F-9.8°C 31% 4.0 mph S6.4 kmh S -- 29.99 in1015.6 mb 0.00 in0.0 mm 0.00 in0.0 mm 0.00 in0.0 mm
05:54 PM 43.0°F6.1°C 14.2°F-9.9°C 31% 2.0 mph S3.2 kmh S -- 29.98 in1015.2 mb 0.00 in0.0 mm 0.00 in0.0 mm 0.00 in0.0 mm
05:55 PM 42.7°F5.9°C 14.6°F-9.7°C 32% 4.0 mph SSE6.4 kmh SSE -- 29.99 in1015.6 mb 0.00 in0.0 mm 0.00 in0.0 mm 0.00 in0.0 mm
05:56 PM 42.5°F5.8°C 14.4°F-9.8°C 32% 2.0 mph S3.2 kmh S -- 29.98 in1015.2 mb 0.00 in0.0 mm 0.00 in0.0 mm 0.00 in0.0 mm
05:57 PM 42.5°F5.8°C 14.4°F-9.8°C 32% 5.0 mph SSE8.0 kmh SSE -- 29.99 in1015.6 mb 0.00 in0.0 mm 0.00 in0.0 mm 0.00 in0.0 mm
05:58 PM 42.5°F5.8°C 14.4°F-9.8°C 32% 5.0 mph SSE8.0 kmh SSE -- 29.98 in1015.2 mb 0.00 in0.0 mm 0.00 in0.0 mm 0.00 in0.0 mm
05:59 PM 42.5°F5.8°C 14.4°F-9.8°C 32% 3.0 mph S4.8 kmh S -- 29.98 in1015.2 mb 0.00 in0.0 mm 0.00 in0.0 mm 0.00 in0.0 mm
06:00 PM 42.4°F5.8°C 14.4°F-9.8°C 32% 3.0 mph SSE4.8 kmh SSE -- 29.98 in1015.2 mb 0.00 in0.0 mm 0.00 in0.0 mm 0.00 in0.0 mm
06:01 PM 42.3°F5.7°C 14.3°F-9.8°C 32% 3.0 mph SSE4.8 kmh SSE -- 29.98 in1015.2 mb 0.00 in0.0 mm 0.00 in0.0 mm 0.00 in0.0 mm
06:02 PM 42.3°F5.7°C 14.3°F-9.8°C 32% 3.0 mph SE4.8 kmh SE -- 29.99 in1015.6 mb 0.00 in0.0 mm 0.00 in0.0 mm 0.00 in0.0 mm
06:04 PM 42.1°F5.6°C 14.1°F-9.9°C 32% 3.0 mph S4.8 kmh S -- 29.99 in1015.6 mb 0.00 in0.0 mm 0.00 in0.0 mm 0.00 in0.0 mm
06:05 PM 41.9°F5.5°C 14.0°F-10.0°C 32% 4.0 mph SSE6.4 kmh SSE -- 29.98 in1015.2 mb 0.00 in0.0 mm 0.00 in0.0 mm 0.00 in0.0 mm
06:06 PM 41.9°F5.5°C 15.3°F-9.3°C 34% 3.0 mph SE4.8 kmh SE -- 29.99 in1015.6 mb 0.00 in0.0 mm 0.00 in0.0 mm 0.00 in0.0 mm
06:07 PM 41.5°F5.3°C 15.0°F-9.4°C 34% 3.0 mph SSE4.8 kmh SSE -- 29.99 in1015.6 mb 0.00 in0.0 mm 0.00 in0.0 mm 0.00 in0.0 mm
06:08 PM 41.5°F5.3°C 15.0°F-9.4°C 34% 2.0 mph SSE3.2 kmh SSE -- 29.99 in1015.6 mb 0.00 in0.0 mm 0.00 in0.0 mm 0.00 in0.0 mm
06:09 PM 41.4°F5.2°C 14.9°F-9.5°C 34% 3.0 mph S4.8 kmh S -- 29.99 in1015.6 mb 0.00 in0.0 mm 0.00 in0.0 mm 0.00 in0.0 mm
06:10 PM 41.1°F5.1°C 14.7°F-9.6°C 34% 3.0 mph SE4.8 kmh SE -- 29.99 in1015.6 mb 0.00 in0.0 mm 0.00 in0.0 mm 0.00 in0.0 mm
06:11 PM 40.9°F4.9°C 15.1°F-9.4°C 35% 3.0 mph SSE4.8 kmh SSE -- 29.99 in1015.6 mb 0.00 in0.0 mm 0.00 in0.0 mm 0.00 in0.0 mm
06:12 PM 40.7°F4.8°C 14.9°F-9.5°C 35% 2.0 mph SSE3.2 kmh SSE -- 29.98 in1015.2 mb 0.00 in0.0 mm 0.00 in0.0 mm 0.00 in0.0 mm
06:13 PM 40.5°F4.7°C 14.7°F-9.6°C 35% 3.0 mph ESE4.8 kmh ESE -- 29.99 in1015.6 mb 0.00 in0.0 mm 0.00 in0.0 mm 0.00 in0.0 mm
06:14 PM 40.5°F4.7°C 14.7°F-9.6°C 35% 2.0 mph SSE3.2 kmh SSE -- 29.99 in1015.6 mb 0.00 in0.0 mm 0.00 in0.0 mm 0.00 in0.0 mm
06:16 PM 40.2°F4.6°C 14.6°F-9.7°C 35% 2.0 mph SSE3.2 kmh SSE -- 29.99 in1015.6 mb 0.00 in0.0 mm 0.00 in0.0 mm 0.00 in0.0 mm
06:17 PM 40.0°F4.4°C 14.3°F-9.8°C 35% 2.0 mph S3.2 kmh S -- 29.99 in1015.6 mb 0.00 in0.0 mm 0.00 in0.0 mm 0.00 in0.0 mm
06:18 PM 39.9°F4.4°C 14.3°F-9.8°C 35% Calm Calm -- 29.99 in1015.6 mb 0.00 in0.0 mm 0.00 in0.0 mm 0.00 in0.0 mm
06:19 PM 39.9°F4.4°C 14.3°F-9.8°C 35% Calm Calm -- 29.99 in1015.6 mb 0.00 in0.0 mm 0.00 in0.0 mm 0.00 in0.0 mm
06:20 PM 39.7°F4.3°C 14.1°F-9.9°C 35% 1.0 mph SSW1.6 kmh SSW -- 29.99 in1015.6 mb 0.00 in0.0 mm 0.00 in0.0 mm 0.00 in0.0 mm
06:21 PM 39.7°F4.3°C 14.1°F-9.9°C 35% 1.0 mph SSE1.6 kmh SSE -- 29.99 in1015.6 mb 0.00 in0.0 mm 0.00 in0.0 mm 0.00 in0.0 mm
06:22 PM 39.5°F4.2°C 13.9°F-10.1°C 35% 1.0 mph SSW1.6 kmh SSW -- 29.99 in1015.6 mb 0.00 in0.0 mm 0.00 in0.0 mm 0.00 in0.0 mm
06:23 PM 39.5°F4.2°C 13.9°F-10.1°C 35% Calm Calm -- 29.99 in1015.6 mb 0.00 in0.0 mm 0.00 in0.0 mm 0.00 in0.0 mm
06:24 PM 39.2°F4.0°C 13.6°F-10.2°C 35% Calm Calm -- 29.99 in1015.6 mb 0.00 in0.0 mm 0.00 in0.0 mm 0.00 in0.0 mm
06:25 PM 39.0°F3.9°C 14.7°F-9.6°C 37% 1.0 mph S1.6 kmh S -- 29.99 in1015.6 mb 0.00 in0.0 mm 0.00 in0.0 mm 0.00 in0.0 mm
06:26 PM 39.0°F3.9°C 14.7°F-9.6°C 37% 2.0 mph SSE3.2 kmh SSE -- 29.99 in1015.6 mb 0.00 in0.0 mm 0.00 in0.0 mm 0.00 in0.0 mm
06:28 PM 39.0°F3.9°C 14.7°F-9.6°C 37% 2.0 mph S3.2 kmh S -- 29.99 in1015.6 mb 0.00 in0.0 mm 0.00 in0.0 mm 0.00 in0.0 mm
06:29 PM 38.7°F3.7°C 14.4°F-9.8°C 37% 2.0 mph SSE3.2 kmh SSE -- 29.99 in1015.6 mb 0.00 in0.0 mm 0.00 in0.0 mm 0.00 in0.0 mm
06:32 PM 38.7°F3.7°C 14.4°F-9.8°C 37% 2.0 mph S3.2 kmh S -- 29.99 in1015.6 mb 0.00 in0.0 mm 0.00 in0.0 mm 0.00 in0.0 mm
06:33 PM 38.7°F3.7°C 14.4°F-9.8°C 37% 3.0 mph S4.8 kmh S -- 29.99 in1015.6 mb 0.00 in0.0 mm 0.00 in0.0 mm 0.00 in0.0 mm
06:34 PM 38.7°F3.7°C 14.4°F-9.8°C 37% 3.0 mph SSE4.8 kmh SSE -- 29.99 in1015.6 mb 0.00 in0.0 mm 0.00 in0.0 mm 0.00 in0.0 mm
06:35 PM 38.7°F3.7°C 14.4°F-9.8°C 37% 2.0 mph S3.2 kmh S -- 29.99 in1015.6 mb 0.00 in0.0 mm 0.00 in0.0 mm 0.00 in0.0 mm
06:36 PM 38.7°F3.7°C 14.4°F-9.8°C 37% 3.0 mph SSE4.8 kmh SSE -- 29.99 in1015.6 mb 0.00 in0.0 mm 0.00 in0.0 mm 0.00 in0.0 mm
06:37 PM 38.7°F3.7°C 14.4°F-9.8°C 37% 2.0 mph S3.2 kmh S -- 29.99 in1015.6 mb 0.00 in0.0 mm 0.00 in0.0 mm 0.00 in0.0 mm
06:38 PM 38.7°F3.7°C 14.4°F-9.8°C 37% 3.0 mph SSE4.8 kmh SSE -- 29.99 in1015.6 mb 0.00 in0.0 mm 0.00 in0.0 mm 0.00 in0.0 mm
06:39 PM 38.7°F3.7°C 14.4°F-9.8°C 37% 3.0 mph S4.8 kmh S -- 29.99 in1015.6 mb 0.00 in0.0 mm 0.00 in0.0 mm 0.00 in0.0 mm
06:41 PM 38.7°F3.7°C 14.4°F-9.8°C 37% 4.0 mph SSE6.4 kmh SSE -- 29.99 in1015.6 mb 0.00 in0.0 mm 0.00 in0.0 mm 0.00 in0.0 mm
06:42 PM 38.7°F3.7°C 13.1°F-10.5°C 35% 3.0 mph SSE4.8 kmh SSE -- 29.99 in1015.6 mb 0.00 in0.0 mm 0.00 in0.0 mm 0.00 in0.0 mm
06:43 PM 38.4°F3.6°C 13.0°F-10.6°C 35% 5.0 mph S8.0 kmh S -- 29.99 in1015.6 mb 0.00 in0.0 mm 0.00 in0.0 mm 0.00 in0.0 mm
06:44 PM 38.4°F3.6°C 13.0°F-10.6°C 35% 3.0 mph SE4.8 kmh SE -- 29.99 in1015.6 mb 0.00 in0.0 mm 0.00 in0.0 mm 0.00 in0.0 mm
06:45 PM 38.4°F3.6°C 13.0°F-10.6°C 35% 4.0 mph SE6.4 kmh SE -- 29.99 in1015.6 mb 0.00 in0.0 mm 0.00 in0.0 mm 0.00 in0.0 mm
06:46 PM 38.4°F3.6°C 13.0°F-10.6°C 35% 3.0 mph SSE4.8 kmh SSE -- 29.98 in1015.2 mb 0.00 in0.0 mm 0.00 in0.0 mm 0.00 in0.0 mm
06:47 PM 38.4°F3.6°C 13.0°F-10.6°C 35% 3.0 mph S4.8 kmh S -- 29.98 in1015.2 mb 0.00 in0.0 mm 0.00 in0.0 mm 0.00 in0.0 mm
06:48 PM 38.4°F3.6°C 13.0°F-10.6°C 35% 3.0 mph ESE4.8 kmh ESE -- 29.99 in1015.6 mb 0.00 in0.0 mm 0.00 in0.0 mm 0.00 in0.0 mm
06:49 PM 38.2°F3.4°C 12.6°F-10.8°C 35% 3.0 mph ESE4.8 kmh ESE -- 29.99 in1015.6 mb 0.00 in0.0 mm 0.00 in0.0 mm 0.00 in0.0 mm
06:50 PM 38.2°F3.4°C 12.6°F-10.8°C 35% 4.0 mph S6.4 kmh S -- 29.99 in1015.6 mb 0.00 in0.0 mm 0.00 in0.0 mm 0.00 in0.0 mm
06:51 PM 38.2°F3.4°C 12.6°F-10.8°C 35% 2.0 mph SE3.2 kmh SE -- 29.99 in1015.6 mb 0.00 in0.0 mm 0.00 in0.0 mm 0.00 in0.0 mm
06:52 PM 38.0°F3.3°C 12.5°F-10.8°C 35% 2.0 mph S3.2 kmh S -- 29.99 in1015.6 mb 0.00 in0.0 mm 0.00 in0.0 mm 0.00 in0.0 mm
06:53 PM 37.8°F3.2°C 12.3°F-10.9°C 35% 3.0 mph SSE4.8 kmh SSE -- 29.99 in1015.6 mb 0.00 in0.0 mm 0.00 in0.0 mm 0.00 in0.0 mm
06:54 PM 37.7°F3.2°C 12.3°F-10.9°C 35% 2.0 mph SSE3.2 kmh SSE -- 29.99 in1015.6 mb 0.00 in0.0 mm 0.00 in0.0 mm 0.00 in0.0 mm
06:55 PM 37.7°F3.2°C 12.3°F-10.9°C 35% 2.0 mph S3.2 kmh S -- 29.99 in1015.6 mb 0.00 in0.0 mm 0.00 in0.0 mm 0.00 in0.0 mm
06:56 PM 37.5°F3.1°C 12.2°F-11.0°C 35% 2.0 mph SE3.2 kmh SE -- 29.99 in1015.6 mb 0.00 in0.0 mm 0.00 in0.0 mm 0.00 in0.0 mm
06:57 PM 37.5°F3.1°C 12.2°F-11.0°C 35% 2.0 mph S3.2 kmh S -- 29.99 in1015.6 mb 0.00 in0.0 mm 0.00 in0.0 mm 0.00 in0.0 mm
06:59 PM 37.2°F2.9°C 13.1°F-10.5°C 37% 2.0 mph S3.2 kmh S -- 29.99 in1015.6 mb 0.00 in0.0 mm 0.00 in0.0 mm 0.00 in0.0 mm
07:01 PM 37.2°F2.9°C 13.1°F-10.5°C 37% 1.0 mph SSW1.6 kmh SSW -- 29.99 in1015.6 mb 0.00 in0.0 mm 0.00 in0.0 mm 0.00 in0.0 mm
07:02 PM 36.9°F2.7°C 12.8°F-10.7°C 37% Calm Calm -- 29.99 in1015.6 mb 0.00 in0.0 mm 0.00 in0.0 mm 0.00 in0.0 mm
07:04 PM 36.9°F2.7°C 12.8°F-10.7°C 37% 2.0 mph S3.2 kmh S -- 30.00 in1015.9 mb 0.00 in0.0 mm 0.00 in0.0 mm 0.00 in0.0 mm
07:05 PM 36.9°F2.7°C 12.8°F-10.7°C 37% Calm Calm -- 29.99 in1015.6 mb 0.00 in0.0 mm 0.00 in0.0 mm 0.00 in0.0 mm
07:06 PM 36.7°F2.6°C 12.6°F-10.8°C 37% Calm Calm -- 29.99 in1015.6 mb 0.00 in0.0 mm 0.00 in0.0 mm 0.00 in0.0 mm
07:07 PM 36.7°F2.6°C 12.6°F-10.8°C 37% 1.0 mph SSW1.6 kmh SSW -- 29.99 in1015.6 mb 0.00 in0.0 mm 0.00 in0.0 mm 0.00 in0.0 mm
07:08 PM 36.5°F2.5°C 12.5°F-10.8°C 37% Calm Calm -- 29.99 in1015.6 mb 0.00 in0.0 mm 0.00 in0.0 mm 0.00 in0.0 mm
07:09 PM 36.2°F2.3°C 12.1°F-11.1°C 37% Calm Calm -- 29.99 in1015.6 mb 0.00 in0.0 mm 0.00 in0.0 mm 0.00 in0.0 mm
07:10 PM 36.2°F2.3°C 12.1°F-11.1°C 37% 1.0 mph SSW1.6 kmh SSW -- 29.99 in1015.6 mb 0.00 in0.0 mm 0.00 in0.0 mm 0.00 in0.0 mm
07:11 PM 36.2°F2.3°C 12.1°F-11.1°C 37% 2.0 mph S3.2 kmh S -- 29.99 in1015.6 mb 0.00 in0.0 mm 0.00 in0.0 mm 0.00 in0.0 mm
07:12 PM 36.2°F2.3°C 12.1°F-11.1°C 37% 1.0 mph SE1.6 kmh SE -- 29.99 in1015.6 mb 0.00 in0.0 mm 0.00 in0.0 mm 0.00 in0.0 mm
07:13 PM 36.2°F2.3°C 12.1°F-11.1°C 37% 2.0 mph SSE3.2 kmh SSE -- 30.00 in1015.9 mb 0.00 in0.0 mm 0.00 in0.0 mm 0.00 in0.0 mm
07:14 PM 36.2°F2.3°C 12.1°F-11.1°C 37% 2.0 mph S3.2 kmh S -- 30.00 in1015.9 mb 0.00 in0.0 mm 0.00 in0.0 mm 0.00 in0.0 mm
07:15 PM 36.5°F2.5°C 12.5°F-10.8°C 37% 2.0 mph SE3.2 kmh SE -- 29.99 in1015.6 mb 0.00 in0.0 mm 0.00 in0.0 mm 0.00 in0.0 mm
07:18 PM 36.2°F2.3°C 12.1°F-11.1°C 37% 3.0 mph SE4.8 kmh SE -- 29.99 in1015.6 mb 0.00 in0.0 mm 0.00 in0.0 mm 0.00 in0.0 mm
07:19 PM 36.2°F2.3°C 12.1°F-11.1°C 37% 2.0 mph SSE3.2 kmh SSE -- 30.00 in1015.9 mb 0.00 in0.0 mm 0.00 in0.0 mm 0.00 in0.0 mm
07:20 PM 35.9°F2.2°C 13.2°F-10.4°C 39% 2.0 mph SE3.2 kmh SE -- 30.00 in1015.9 mb 0.00 in0.0 mm 0.00 in0.0 mm 0.00 in0.0 mm
07:21 PM 35.7°F2.1°C 13.0°F-10.6°C 39% 2.0 mph S3.2 kmh S -- 30.00 in1015.9 mb 0.00 in0.0 mm 0.00 in0.0 mm 0.00 in0.0 mm
07:23 PM 35.7°F2.1°C 13.0°F-10.6°C 39% 2.0 mph SSE3.2 kmh SSE -- 29.99 in1015.6 mb 0.00 in0.0 mm 0.00 in0.0 mm 0.00 in0.0 mm
07:24 PM 35.7°F2.1°C 13.0°F-10.6°C 39% 2.0 mph S3.2 kmh S -- 29.99 in1015.6 mb 0.00 in0.0 mm 0.00 in0.0 mm 0.00 in0.0 mm
07:25 PM 35.9°F2.2°C 13.2°F-10.4°C 39% 3.0 mph SSW4.8 kmh SSW -- 30.00 in1015.9 mb 0.00 in0.0 mm 0.00 in0.0 mm 0.00 in0.0 mm
07:26 PM 35.9°F2.2°C 13.2°F-10.4°C 39% 3.0 mph S4.8 kmh S -- 30.00 in1015.9 mb 0.00 in0.0 mm 0.00 in0.0 mm 0.00 in0.0 mm
07:27 PM 35.9°F2.2°C 13.2°F-10.4°C 39% 2.0 mph S3.2 kmh S -- 30.00 in1015.9 mb 0.00 in0.0 mm 0.00 in0.0 mm 0.00 in0.0 mm
07:28 PM 35.9°F2.2°C 13.2°F-10.4°C 39% 3.0 mph S4.8 kmh S -- 30.00 in1015.9 mb 0.00 in0.0 mm 0.00 in0.0 mm 0.00 in0.0 mm
07:29 PM 36.1°F2.3°C 13.3°F-10.4°C 39% 1.0 mph ESE1.6 kmh ESE -- 30.00 in1015.9 mb 0.00 in0.0 mm 0.00 in0.0 mm 0.00 in0.0 mm
07:30 PM 35.9°F2.2°C 13.2°F-10.4°C 39% 1.0 mph WSW1.6 kmh WSW -- 30.00 in1015.9 mb 0.00 in0.0 mm 0.00 in0.0 mm 0.00 in0.0 mm
07:31 PM 35.9°F2.2°C 13.2°F-10.4°C 39% 3.0 mph S4.8 kmh S -- 30.00 in1015.9 mb 0.00 in0.0 mm 0.00 in0.0 mm 0.00 in0.0 mm
07:32 PM 35.9°F2.2°C 13.2°F-10.4°C 39% 3.0 mph SE4.8 kmh SE -- 30.00 in1015.9 mb 0.00 in0.0 mm 0.00 in0.0 mm 0.00 in0.0 mm
07:33 PM 35.9°F2.2°C 13.2°F-10.4°C 39% 3.0 mph S4.8 kmh S -- 30.00 in1015.9 mb 0.00 in0.0 mm 0.00 in0.0 mm 0.00 in0.0 mm
07:34 PM 36.1°F2.3°C 13.3°F-10.4°C 39% 2.0 mph SSE3.2 kmh SSE -- 30.00 in1015.9 mb 0.00 in0.0 mm 0.00 in0.0 mm 0.00 in0.0 mm
07:35 PM 36.2°F2.3°C 13.3°F-10.4°C 39% 2.0 mph SSW3.2 kmh SSW -- 30.00 in1015.9 mb 0.00 in0.0 mm 0.00 in0.0 mm 0.00 in0.0 mm
07:36 PM 36.2°F2.3°C 13.3°F-10.4°C 39% 3.0 mph S4.8 kmh S -- 30.00 in1015.9 mb 0.00 in0.0 mm 0.00 in0.0 mm 0.00 in0.0 mm
07:37 PM 36.2°F2.3°C 13.3°F-10.4°C 39% 4.0 mph SSW6.4 kmh SSW -- 30.00 in1015.9 mb 0.00 in0.0 mm 0.00 in0.0 mm 0.00 in0.0 mm
07:38 PM 36.2°F2.3°C 13.3°F-10.4°C 39% 2.0 mph S3.2 kmh S -- 30.00 in1015.9 mb 0.00 in0.0 mm 0.00 in0.0 mm 0.00 in0.0 mm
07:39 PM 36.2°F2.3°C 13.3°F-10.4°C 39% 3.0 mph SSE4.8 kmh SSE -- 30.00 in1015.9 mb 0.00 in0.0 mm 0.00 in0.0 mm 0.00 in0.0 mm
07:41 PM 36.5°F2.5°C 13.7°F-10.2°C 39% 4.0 mph SSE6.4 kmh SSE -- 30.00 in1015.9 mb 0.00 in0.0 mm 0.00 in0.0 mm 0.00 in0.0 mm
07:42 PM 36.5°F2.5°C 13.7°F-10.2°C 39% 2.0 mph S3.2 kmh S -- 30.00 in1015.9 mb 0.00 in0.0 mm 0.00 in0.0 mm 0.00 in0.0 mm
07:43 PM 36.2°F2.3°C 13.3°F-10.4°C 39% 2.0 mph SSE3.2 kmh SSE -- 30.00 in1015.9 mb 0.00 in0.0 mm 0.00 in0.0 mm 0.00 in0.0 mm
07:44 PM 36.2°F2.3°C 13.3°F-10.4°C 39% 4.0 mph SSE6.4 kmh SSE -- 30.00 in1015.9 mb 0.00 in0.0 mm 0.00 in0.0 mm 0.00 in0.0 mm
07:45 PM 36.2°F2.3°C 13.3°F-10.4°C 39% 2.0 mph S3.2 kmh S -- 30.00 in1015.9 mb 0.00 in0.0 mm 0.00 in0.0 mm 0.00 in0.0 mm
07:46 PM 36.2°F2.3°C 13.3°F-10.4°C 39% 3.0 mph SSW4.8 kmh SSW -- 30.00 in1015.9 mb 0.00 in0.0 mm 0.00 in0.0 mm 0.00 in0.0 mm
07:47 PM 36.1°F2.3°C 13.3°F-10.4°C 39% 1.0 mph SW1.6 kmh SW -- 30.00 in1015.9 mb 0.00 in0.0 mm 0.00 in0.0 mm 0.00 in0.0 mm
07:48 PM 36.1°F2.3°C 13.3°F-10.4°C 39% 2.0 mph S3.2 kmh S -- 30.00 in1015.9 mb 0.00 in0.0 mm 0.00 in0.0 mm 0.00 in0.0 mm
07:49 PM 36.1°F2.3°C 13.3°F-10.4°C 39% 2.0 mph SSW3.2 kmh SSW -- 30.00 in1015.9 mb 0.00 in0.0 mm 0.00 in0.0 mm 0.00 in0.0 mm
07:50 PM 35.9°F2.2°C 13.2°F-10.4°C 39% 1.0 mph SSE1.6 kmh SSE -- 30.00 in1015.9 mb 0.00 in0.0 mm 0.00 in0.0 mm 0.00 in0.0 mm
07:51 PM 35.9°F2.2°C 13.2°F-10.4°C 39% 2.0 mph SSW3.2 kmh SSW -- 30.00 in1015.9 mb 0.00 in0.0 mm 0.00 in0.0 mm 0.00 in0.0 mm
07:52 PM 35.7°F2.1°C 13.0°F-10.6°C 39% 2.0 mph SSW3.2 kmh SSW -- 30.00 in1015.9 mb 0.00 in0.0 mm 0.00 in0.0 mm 0.00 in0.0 mm
07:53 PM 35.7°F2.1°C 13.0°F-10.6°C 39% 2.0 mph S3.2 kmh S -- 30.00 in1015.9 mb 0.00 in0.0 mm 0.00 in0.0 mm 0.00 in0.0 mm
07:54 PM 35.7°F2.1°C 13.6°F-10.2°C 40% 2.0 mph ESE3.2 kmh ESE -- 30.00 in1015.9 mb 0.00 in0.0 mm 0.00 in0.0 mm 0.00 in0.0 mm
07:55 PM 35.4°F1.9°C 13.3°F-10.4°C 40% Calm Calm -- 30.00 in1015.9 mb 0.00 in0.0 mm 0.00 in0.0 mm 0.00 in0.0 mm
07:56 PM 35.4°F1.9°C 13.3°F-10.4°C 40% 2.0 mph S3.2 kmh S -- 30.00 in1015.9 mb 0.00 in0.0 mm 0.00 in0.0 mm 0.00 in0.0 mm
07:58 PM 35.4°F1.9°C 13.3°F-10.4°C 40% Calm Calm -- 30.00 in1015.9 mb 0.00 in0.0 mm 0.00 in0.0 mm 0.00 in0.0 mm
07:59 PM 35.1°F1.7°C 12.9°F-10.6°C 40% Calm Calm -- 30.00 in1015.9 mb 0.00 in0.0 mm 0.00 in0.0 mm 0.00 in0.0 mm
08:00 PM 35.0°F1.7°C 12.9°F-10.6°C 40% Calm Calm -- 30.00 in1015.9 mb 0.00 in0.0 mm 0.00 in0.0 mm 0.00 in0.0 mm
08:01 PM 35.0°F1.7°C 12.9°F-10.6°C 40% Calm Calm -- 30.00 in1015.9 mb 0.00 in0.0 mm 0.00 in0.0 mm 0.00 in0.0 mm
08:02 PM 35.0°F1.7°C 12.9°F-10.6°C 40% 1.0 mph SSW1.6 kmh SSW -- 30.00 in1015.9 mb 0.00 in0.0 mm 0.00 in0.0 mm 0.00 in0.0 mm
08:03 PM 35.0°F1.7°C 12.9°F-10.6°C 40% Calm Calm -- 30.00 in1015.9 mb 0.00 in0.0 mm 0.00 in0.0 mm 0.00 in0.0 mm
08:04 PM 34.9°F1.6°C 12.8°F-10.7°C 40% Calm Calm -- 30.00 in1015.9 mb 0.00 in0.0 mm 0.00 in0.0 mm 0.00 in0.0 mm
08:05 PM 34.5°F1.4°C 12.5°F-10.8°C 40% Calm Calm -- 30.00 in1015.9 mb 0.00 in0.0 mm 0.00 in0.0 mm 0.00 in0.0 mm
08:06 PM 34.2°F1.2°C 12.1°F-11.1°C 40% 2.0 mph WSW3.2 kmh WSW -- 30.00 in1015.9 mb 0.00 in0.0 mm 0.00 in0.0 mm 0.00 in0.0 mm
08:07 PM 34.2°F1.2°C 12.1°F-11.1°C 40% Calm Calm -- 30.00 in1015.9 mb 0.00 in0.0 mm 0.00 in0.0 mm 0.00 in0.0 mm
08:08 PM 34.2°F1.2°C 12.1°F-11.1°C 40% 2.0 mph SW3.2 kmh SW -- 30.00 in1015.9 mb 0.00 in0.0 mm 0.00 in0.0 mm 0.00 in0.0 mm
08:09 PM 34.0°F1.1°C 12.5°F-10.8°C 41% 2.0 mph SW3.2 kmh SW -- 30.00 in1015.9 mb 0.00 in0.0 mm 0.00 in0.0 mm 0.00 in0.0 mm
08:10 PM 33.8°F1.0°C 12.4°F-10.9°C 41% 2.0 mph W3.2 kmh W -- 30.00 in1015.9 mb 0.00 in0.0 mm 0.00 in0.0 mm 0.00 in0.0 mm
08:11 PM 33.8°F1.0°C 12.4°F-10.9°C 41% 2.0 mph SW3.2 kmh SW -- 30.00 in1015.9 mb 0.00 in0.0 mm 0.00 in0.0 mm 0.00 in0.0 mm
08:12 PM 33.8°F1.0°C 12.4°F-10.9°C 41% 2.0 mph S3.2 kmh S -- 30.00 in1015.9 mb 0.00 in0.0 mm 0.00 in0.0 mm 0.00 in0.0 mm
08:13 PM 33.8°F1.0°C 12.4°F-10.9°C 41% 2.0 mph SW3.2 kmh SW -- 30.00 in1015.9 mb 0.00 in0.0 mm 0.00 in0.0 mm 0.00 in0.0 mm
08:15 PM 33.8°F1.0°C 12.4°F-10.9°C 41% 1.0 mph SW1.6 kmh SW -- 30.00 in1015.9 mb 0.00 in0.0 mm 0.00 in0.0 mm 0.00 in0.0 mm
08:17 PM 33.8°F1.0°C 12.4°F-10.9°C 41% 2.0 mph S3.2 kmh S -- 30.00 in1015.9 mb 0.00 in0.0 mm 0.00 in0.0 mm 0.00 in0.0 mm
08:18 PM 33.8°F1.0°C 12.4°F-10.9°C 41% 2.0 mph SSW3.2 kmh SSW -- 30.00 in1015.9 mb 0.00 in0.0 mm 0.00 in0.0 mm 0.00 in0.0 mm
08:19 PM 33.5°F0.8°C 13.1°F-10.5°C 43% 1.0 mph W1.6 kmh W -- 30.00 in1015.9 mb 0.00 in0.0 mm 0.00 in0.0 mm 0.00 in0.0 mm
08:20 PM 33.4°F0.8°C 13.1°F-10.5°C 43% 2.0 mph W3.2 kmh W -- 30.00 in1015.9 mb 0.00 in0.0 mm 0.00 in0.0 mm 0.00 in0.0 mm
08:21 PM 33.4°F0.8°C 13.1°F-10.5°C 43% 2.0 mph SW3.2 kmh SW -- 30.00 in1015.9 mb 0.00 in0.0 mm 0.00 in0.0 mm 0.00 in0.0 mm
08:22 PM 33.4°F0.8°C 13.1°F-10.5°C 43% 2.0 mph W3.2 kmh W -- 30.00 in1015.9 mb 0.00 in0.0 mm 0.00 in0.0 mm 0.00 in0.0 mm
08:23 PM 33.4°F0.8°C 13.1°F-10.5°C 43% 2.0 mph WSW3.2 kmh WSW -- 30.00 in1015.9 mb 0.00 in0.0 mm 0.00 in0.0 mm 0.00 in0.0 mm
08:24 PM 33.2°F0.7°C 13.0°F-10.6°C 43% 2.0 mph SSW3.2 kmh SSW -- 30.00 in1015.9 mb 0.00 in0.0 mm 0.00 in0.0 mm 0.00 in0.0 mm
08:25 PM 33.2°F0.7°C 13.5°F-10.3°C 44% 2.0 mph SW3.2 kmh SW -- 30.00 in1015.9 mb 0.00 in0.0 mm 0.00 in0.0 mm 0.00 in0.0 mm
08:26 PM 33.2°F0.7°C 13.5°F-10.3°C 44% 2.0 mph WSW3.2 kmh WSW -- 30.00 in1015.9 mb 0.00 in0.0 mm 0.00 in0.0 mm 0.00 in0.0 mm
08:27 PM 33.2°F0.7°C 13.5°F-10.3°C 44% 2.0 mph SW3.2 kmh SW -- 30.00 in1015.9 mb 0.00 in0.0 mm 0.00 in0.0 mm 0.00 in0.0 mm
08:28 PM 33.2°F0.7°C 13.5°F-10.3°C 44% 3.0 mph SW4.8 kmh SW -- 30.00 in1015.9 mb 0.00 in0.0 mm 0.00 in0.0 mm 0.00 in0.0 mm
08:29 PM 33.2°F0.7°C 13.5°F-10.3°C 44% 2.0 mph SW3.2 kmh SW -- 30.00 in1015.9 mb 0.00 in0.0 mm 0.00 in0.0 mm 0.00 in0.0 mm
08:30 PM 33.2°F0.7°C 13.5°F-10.3°C 44% 2.0 mph WSW3.2 kmh WSW -- 30.00 in1015.9 mb 0.00 in0.0 mm 0.00 in0.0 mm 0.00 in0.0 mm
08:31 PM 33.2°F0.7°C 13.5°F-10.3°C 44% 2.0 mph SW3.2 kmh SW -- 30.00 in1015.9 mb 0.00 in0.0 mm 0.00 in0.0 mm 0.00 in0.0 mm
08:34 PM 33.2°F0.7°C 13.5°F-10.3°C 44% 3.0 mph W4.8 kmh W -- 30.00 in1015.9 mb 0.00 in0.0 mm 0.00 in0.0 mm 0.00 in0.0 mm
08:35 PM 33.2°F0.7°C 13.5°F-10.3°C 44% 3.0 mph SW4.8 kmh SW -- 30.00 in1015.9 mb 0.00 in0.0 mm 0.00 in0.0 mm 0.00 in0.0 mm
08:36 PM 33.2°F0.7°C 13.5°F-10.3°C 44% 2.0 mph SSW3.2 kmh SSW -- 30.00 in1015.9 mb 0.00 in0.0 mm 0.00 in0.0 mm 0.00 in0.0 mm
08:37 PM 33.2°F0.7°C 14.0°F-10.0°C 45% 3.0 mph SW4.8 kmh SW -- 30.00 in1015.9 mb 0.00 in0.0 mm 0.00 in0.0 mm 0.00 in0.0 mm
08:38 PM 33.2°F0.7°C 14.0°F-10.0°C 45% 2.0 mph WSW3.2 kmh WSW -- 30.00 in1015.9 mb 0.00 in0.0 mm 0.00 in0.0 mm 0.00 in0.0 mm
08:39 PM 33.2°F0.7°C 14.0°F-10.0°C 45% 3.0 mph WSW4.8 kmh WSW -- 30.00 in1015.9 mb 0.00 in0.0 mm 0.00 in0.0 mm 0.00 in0.0 mm
08:40 PM 33.2°F0.7°C 14.0°F-10.0°C 45% 3.0 mph SW4.8 kmh SW -- 30.00 in1015.9 mb 0.00 in0.0 mm 0.00 in0.0 mm 0.00 in0.0 mm
08:42 PM 33.2°F0.7°C 14.0°F-10.0°C 45% 3.0 mph W4.8 kmh W -- 30.00 in1015.9 mb 0.00 in0.0 mm 0.00 in0.0 mm 0.00 in0.0 mm
08:43 PM 33.2°F0.7°C 14.0°F-10.0°C 45% 3.0 mph SW4.8 kmh SW -- 30.00 in1015.9 mb 0.00 in0.0 mm 0.00 in0.0 mm 0.00 in0.0 mm
08:44 PM 33.2°F0.7°C 14.0°F-10.0°C 45% 4.0 mph SW6.4 kmh SW -- 30.00 in1015.9 mb 0.00 in0.0 mm 0.00 in0.0 mm 0.00 in0.0 mm
08:45 PM 33.2°F0.7°C 14.0°F-10.0°C 45% 4.0 mph W6.4 kmh W -- 30.00 in1015.9 mb 0.00 in0.0 mm 0.00 in0.0 mm 0.00 in0.0 mm
08:46 PM 33.2°F0.7°C 14.0°F-10.0°C 45% 3.0 mph SW4.8 kmh SW -- 30.00 in1015.9 mb 0.00 in0.0 mm 0.00 in0.0 mm 0.00 in0.0 mm
08:47 PM 33.2°F0.7°C 14.0°F-10.0°C 45% 3.0 mph WSW4.8 kmh WSW -- 30.00 in1015.9 mb 0.00 in0.0 mm 0.00 in0.0 mm 0.00 in0.0 mm
08:48 PM 33.2°F0.7°C 14.0°F-10.0°C 45% 3.0 mph SW4.8 kmh SW -- 30.00 in1015.9 mb 0.00 in0.0 mm 0.00 in0.0 mm 0.00 in0.0 mm
08:49 PM 33.2°F0.7°C 14.0°F-10.0°C 45% 2.0 mph WSW3.2 kmh WSW -- 30.00 in1015.9 mb 0.00 in0.0 mm 0.00 in0.0 mm 0.00 in0.0 mm
08:50 PM 33.2°F0.7°C 14.0°F-10.0°C 45% 2.0 mph SW3.2 kmh SW -- 30.00 in1015.9 mb 0.00 in0.0 mm 0.00 in0.0 mm 0.00 in0.0 mm
08:51 PM 33.2°F0.7°C 14.0°F-10.0°C 45% 2.0 mph W3.2 kmh W -- 30.00 in1015.9 mb 0.00 in0.0 mm 0.00 in0.0 mm 0.00 in0.0 mm
08:52 PM 33.0°F0.6°C 13.8°F-10.1°C 45% 2.0 mph SW3.2 kmh SW -- 30.00 in1015.9 mb 0.00 in0.0 mm 0.00 in0.0 mm 0.00 in0.0 mm
08:53 PM 33.0°F0.6°C 13.8°F-10.1°C 45% 3.0 mph WSW4.8 kmh WSW -- 30.00 in1015.9 mb 0.00 in0.0 mm 0.00 in0.0 mm 0.00 in0.0 mm
08:55 PM 32.9°F0.5°C 13.7°F-10.2°C 45% 3.0 mph W4.8 kmh W -- 30.01 in1016.3 mb 0.00 in0.0 mm 0.00 in0.0 mm 0.00 in0.0 mm
08:56 PM 32.9°F0.5°C 13.7°F-10.2°C 45% 3.0 mph W4.8 kmh W -- 30.00 in1015.9 mb 0.00 in0.0 mm 0.00 in0.0 mm 0.00 in0.0 mm
08:57 PM 32.9°F0.5°C 13.7°F-10.2°C 45% 2.0 mph WSW3.2 kmh WSW -- 30.01 in1016.3 mb 0.00 in0.0 mm 0.00 in0.0 mm 0.00 in0.0 mm
08:58 PM 32.9°F0.5°C 14.2°F-9.9°C 46% 2.0 mph W3.2 kmh W -- 30.01 in1016.3 mb 0.00 in0.0 mm 0.00 in0.0 mm 0.00 in0.0 mm
08:59 PM 32.6°F0.3°C 13.8°F-10.1°C 46% 3.0 mph W4.8 kmh W -- 30.01 in1016.3 mb 0.00 in0.0 mm 0.00 in0.0 mm 0.00 in0.0 mm
09:00 PM 32.6°F0.3°C 13.8°F-10.1°C 46% 3.0 mph WSW4.8 kmh WSW -- 30.01 in1016.3 mb 0.00 in0.0 mm 0.00 in0.0 mm 0.00 in0.0 mm
09:01 PM 32.6°F0.3°C 13.8°F-10.1°C 46% 3.0 mph SW4.8 kmh SW -- 30.00 in1015.9 mb 0.00 in0.0 mm 0.00 in0.0 mm 0.00 in0.0 mm
09:03 PM 32.6°F0.3°C 13.8°F-10.1°C 46% 2.0 mph W3.2 kmh W -- 30.00 in1015.9 mb 0.00 in0.0 mm 0.00 in0.0 mm 0.00 in0.0 mm
09:04 PM 32.6°F0.3°C 13.8°F-10.1°C 46% 3.0 mph WSW4.8 kmh WSW -- 30.00 in1015.9 mb 0.00 in0.0 mm 0.00 in0.0 mm 0.00 in0.0 mm
09:05 PM 32.5°F0.3°C 13.8°F-10.1°C 46% 3.0 mph W4.8 kmh W -- 30.00 in1015.9 mb 0.00 in0.0 mm 0.00 in0.0 mm 0.00 in0.0 mm
09:06 PM 32.5°F0.3°C 13.8°F-10.1°C 46% 2.0 mph WSW3.2 kmh WSW -- 30.00 in1015.9 mb 0.00 in0.0 mm 0.00 in0.0 mm 0.00 in0.0 mm
09:07 PM 32.5°F0.3°C 14.8°F-9.6°C 48% 3.0 mph SW4.8 kmh SW -- 30.00 in1015.9 mb 0.00 in0.0 mm 0.00 in0.0 mm 0.00 in0.0 mm
09:09 PM 32.5°F0.3°C 14.8°F-9.6°C 48% 4.0 mph W6.4 kmh W -- 30.00 in1015.9 mb 0.00 in0.0 mm 0.00 in0.0 mm 0.00 in0.0 mm
09:10 PM 32.5°F0.3°C 14.8°F-9.6°C 48% 4.0 mph SW6.4 kmh SW -- 30.00 in1015.9 mb 0.00 in0.0 mm 0.00 in0.0 mm 0.00 in0.0 mm
09:11 PM 32.5°F0.3°C 14.8°F-9.6°C 48% 4.0 mph WSW6.4 kmh WSW -- 30.00 in1015.9 mb 0.00 in0.0 mm 0.00 in0.0 mm 0.00 in0.0 mm
09:12 PM 32.5°F0.3°C 14.8°F-9.6°C 48% 4.0 mph W6.4 kmh W -- 30.00 in1015.9 mb 0.00 in0.0 mm 0.00 in0.0 mm 0.00 in0.0 mm
09:13 PM 32.5°F0.3°C 14.8°F-9.6°C 48% 3.0 mph SW4.8 kmh SW -- 30.00 in1015.9 mb 0.00 in0.0 mm 0.00 in0.0 mm 0.00 in0.0 mm
09:15 PM 32.5°F0.3°C 14.8°F-9.6°C 48% 3.0 mph WSW4.8 kmh WSW -- 30.00 in1015.9 mb 0.00 in0.0 mm 0.00 in0.0 mm 0.00 in0.0 mm
09:16 PM 32.5°F0.3°C 14.8°F-9.6°C 48% 3.0 mph SW4.8 kmh SW -- 30.00 in1015.9 mb 0.00 in0.0 mm 0.00 in0.0 mm 0.00 in0.0 mm
09:17 PM 32.5°F0.3°C 14.8°F-9.6°C 48% 3.0 mph WSW4.8 kmh WSW -- 30.00 in1015.9 mb 0.00 in0.0 mm 0.00 in0.0 mm 0.00 in0.0 mm
09:18 PM 32.5°F0.3°C 14.8°F-9.6°C 48% 2.0 mph WSW3.2 kmh WSW -- 30.00 in1015.9 mb 0.00 in0.0 mm 0.00 in0.0 mm 0.00 in0.0 mm
09:19 PM 32.5°F0.3°C 14.8°F-9.6°C 48% 2.0 mph SSW3.2 kmh SSW -- 30.00 in1015.9 mb 0.00 in0.0 mm 0.00 in0.0 mm 0.00 in0.0 mm
09:20 PM 32.5°F0.3°C 14.8°F-9.6°C 48% 2.0 mph SW3.2 kmh SW -- 30.00 in1015.9 mb 0.00 in0.0 mm 0.00 in0.0 mm 0.00 in0.0 mm
09:21 PM 32.5°F0.3°C 14.8°F-9.6°C 48% 3.0 mph SW4.8 kmh SW -- 30.00 in1015.9 mb 0.00 in0.0 mm 0.00 in0.0 mm 0.00 in0.0 mm
09:22 PM 32.5°F0.3°C 14.8°F-9.6°C 48% 3.0 mph WSW4.8 kmh WSW -- 30.00 in1015.9 mb 0.00 in0.0 mm 0.00 in0.0 mm 0.00 in0.0 mm
09:25 PM 32.5°F0.3°C 14.8°F-9.6°C 48% 4.0 mph WSW6.4 kmh WSW -- 30.00 in1015.9 mb 0.00 in0.0 mm 0.00 in0.0 mm 0.00 in0.0 mm
09:26 PM 32.5°F0.3°C 14.8°F-9.6°C 48% 2.0 mph WSW3.2 kmh WSW -- 30.00 in1015.9 mb 0.00 in0.0 mm 0.00 in0.0 mm 0.00 in0.0 mm
09:27 PM 32.5°F0.3°C 14.8°F-9.6°C 48% 4.0 mph WSW6.4 kmh WSW -- 30.00 in1015.9 mb 0.00 in0.0 mm 0.00 in0.0 mm 0.00 in0.0 mm
09:28 PM 32.5°F0.3°C 14.8°F-9.6°C 48% 4.0 mph W6.4 kmh W -- 30.00 in1015.9 mb 0.00 in0.0 mm 0.00 in0.0 mm 0.00 in0.0 mm
09:29 PM 32.5°F0.3°C 15.3°F-9.3°C 49% 3.0 mph W4.8 kmh W -- 30.00 in1015.9 mb 0.00 in0.0 mm 0.00 in0.0 mm 0.00 in0.0 mm
09:30 PM 32.5°F0.3°C 15.3°F-9.3°C 49% 2.0 mph SW3.2 kmh SW -- 30.00 in1015.9 mb 0.00 in0.0 mm 0.00 in0.0 mm 0.00 in0.0 mm
09:31 PM 32.4°F0.2°C 15.1°F-9.4°C 49% 3.0 mph W4.8 kmh W -- 30.00 in1015.9 mb 0.00 in0.0 mm 0.00 in0.0 mm 0.00 in0.0 mm
09:33 PM 32.4°F0.2°C 15.1°F-9.4°C 49% 4.0 mph WSW6.4 kmh WSW -- 30.00 in1015.9 mb 0.00 in0.0 mm 0.00 in0.0 mm 0.00 in0.0 mm
09:34 PM 32.4°F0.2°C 15.1°F-9.4°C 49% 3.0 mph SSW4.8 kmh SSW -- 30.00 in1015.9 mb 0.00 in0.0 mm 0.00 in0.0 mm 0.00 in0.0 mm
09:35 PM 32.4°F0.2°C 15.1°F-9.4°C 49% 2.0 mph SW3.2 kmh SW -- 30.00 in1015.9 mb 0.00 in0.0 mm 0.00 in0.0 mm 0.00 in0.0 mm
09:36 PM 32.4°F0.2°C 15.1°F-9.4°C 49% 3.0 mph WSW4.8 kmh WSW -- 30.00 in1015.9 mb 0.00 in0.0 mm 0.00 in0.0 mm 0.00 in0.0 mm
09:37 PM 32.5°F0.3°C 15.3°F-9.3°C 49% 4.0 mph WSW6.4 kmh WSW -- 30.00 in1015.9 mb 0.00 in0.0 mm 0.00 in0.0 mm 0.00 in0.0 mm
09:38 PM 32.5°F0.3°C 15.3°F-9.3°C 49% 4.0 mph SE6.4 kmh SE -- 30.00 in1015.9 mb 0.00 in0.0 mm 0.00 in0.0 mm 0.00 in0.0 mm
09:39 PM 32.6°F0.3°C 15.3°F-9.3°C 49% 3.0 mph SSE4.8 kmh SSE -- 29.99 in1015.6 mb 0.00 in0.0 mm 0.00 in0.0 mm 0.00 in0.0 mm
09:40 PM 32.9°F0.5°C 15.2°F-9.3°C 48% 3.0 mph S4.8 kmh S -- 29.99 in1015.6 mb 0.00 in0.0 mm 0.00 in0.0 mm 0.00 in0.0 mm
09:41 PM 32.6°F0.3°C 14.8°F-9.6°C 48% 4.0 mph SW6.4 kmh SW -- 30.00 in1015.9 mb 0.00 in0.0 mm 0.00 in0.0 mm 0.00 in0.0 mm
09:42 PM 32.6°F0.3°C 14.8°F-9.6°C 48% 3.0 mph W4.8 kmh W -- 30.00 in1015.9 mb 0.00 in0.0 mm 0.00 in0.0 mm 0.00 in0.0 mm
09:43 PM 32.6°F0.3°C 14.8°F-9.6°C 48% 3.0 mph ESE4.8 kmh ESE -- 30.00 in1015.9 mb 0.00 in0.0 mm 0.00 in0.0 mm 0.00 in0.0 mm
09:44 PM 32.6°F0.3°C 14.8°F-9.6°C 48% 4.0 mph SE6.4 kmh SE -- 30.00 in1015.9 mb 0.00 in0.0 mm 0.00 in0.0 mm 0.00 in0.0 mm
09:45 PM 32.9°F0.5°C 15.2°F-9.3°C 48% 3.0 mph S4.8 kmh S -- 29.99 in1015.6 mb 0.00 in0.0 mm 0.00 in0.0 mm 0.00 in0.0 mm
09:46 PM 33.2°F0.7°C 14.5°F-9.7°C 46% 3.0 mph WSW4.8 kmh WSW -- 30.00 in1015.9 mb 0.00 in0.0 mm 0.00 in0.0 mm 0.00 in0.0 mm
09:47 PM 33.0°F0.6°C 15.3°F-9.3°C 48% 3.0 mph SW4.8 kmh SW -- 30.00 in1015.9 mb 0.00 in0.0 mm 0.00 in0.0 mm 0.00 in0.0 mm
09:48 PM 32.9°F0.5°C 15.2°F-9.3°C 48% 3.0 mph SSW4.8 kmh SSW -- 30.00 in1015.9 mb 0.00 in0.0 mm 0.00 in0.0 mm 0.00 in0.0 mm
09:49 PM 32.9°F0.5°C 15.2°F-9.3°C 48% 4.0 mph SW6.4 kmh SW -- 30.00 in1015.9 mb 0.00 in0.0 mm 0.00 in0.0 mm 0.00 in0.0 mm
09:50 PM 32.9°F0.5°C 15.2°F-9.3°C 48% 3.0 mph S4.8 kmh S -- 30.00 in1015.9 mb 0.00 in0.0 mm 0.00 in0.0 mm 0.00 in0.0 mm
09:51 PM 33.0°F0.6°C 15.3°F-9.3°C 48% 2.0 mph SW3.2 kmh SW -- 29.99 in1015.6 mb 0.00 in0.0 mm 0.00 in0.0 mm 0.00 in0.0 mm
09:52 PM 33.0°F0.6°C 15.3°F-9.3°C 48% 2.0 mph S3.2 kmh S -- 29.99 in1015.6 mb 0.00 in0.0 mm 0.00 in0.0 mm 0.00 in0.0 mm
09:53 PM 32.9°F0.5°C 15.2°F-9.3°C 48% 4.0 mph SW6.4 kmh SW -- 30.00 in1015.9 mb 0.00 in0.0 mm 0.00 in0.0 mm 0.00 in0.0 mm
09:54 PM 32.6°F0.3°C 14.8°F-9.6°C 48% 4.0 mph WSW6.4 kmh WSW -- 30.00 in1015.9 mb 0.00 in0.0 mm 0.00 in0.0 mm 0.00 in0.0 mm
09:55 PM 32.6°F0.3°C 14.8°F-9.6°C 48% 4.0 mph SW6.4 kmh SW -- 30.00 in1015.9 mb 0.00 in0.0 mm 0.00 in0.0 mm 0.00 in0.0 mm
09:56 PM